Darstellungsparameter: Aktuell verwendete Einstellungen:
Skalierung der Graphiken ... ?
xyx+y,   Skalierungsfaktor:      Skalierung: Modus: x, Faktor: 1
Darstellungszeitraum ... ?
Vom - - bis: - -   Zeitraum: 08.09.2018 - 07.03.2019
Min/Max/Avg-Anzeige ... ?
Zeige MMA aktuell
Zeige MMA Monat
Zeige MMA alles
Zeige --A aktuell
Zeige --A Monat
Zeige --A alles
Keine MMA-Anzeige
MMA:
Keine MMA-Graphiken
MMA-Basis: 08.09.2018 - 07.03.2019
Quicknavigation für Darstellung... ?
Tage:      1T, 2T, 3T, 5T -1T -2T -3T -5T +1T +2T +3T +5T
Wochen: 1W, 2W, 3W -1W -2W -3W +1W +2W +3W
Monate: 1M, 3M, 6M -1M -3M -6M +1M +3M +6M
Jahre:    1J, 3J, 5J, 10J -1J -3J -5J -10J +1J +3J +5J +10J
Nutze für die Darstellung ... ?
Originaldaten oder Mittelwerte auf ...
Stundenbasis Tagesbasis Wochenbasis
Monatsbasis Jahresbasis      Datenbasis: Original-Daten
Darstellen als:
Statistik (Auto) Statistik J:M      Darstellung:
Zur Graphik,    zurück zur Übersicht aller Sensoren.
 
Tabellarische Datenbersicht: ?
 
Sensor: Nr:Datum:Temp:Feuchte:Taupunkt:
Aussen-T/F 1 08-09-2018 00:00:00 10.2 C 89 % 8.47 C
2 08-09-2018 00:05:00 10.1 C 89 % 8.37 C
3 08-09-2018 00:10:00 10.1 C 89 % 8.37 C
4 08-09-2018 00:15:00 9.9 C 89 % 8.17 C
5 08-09-2018 00:20:00 9.9 C 89 % 8.17 C
6 08-09-2018 00:25:00 9.8 C 90 % 8.24 C
7 08-09-2018 00:30:00 9.8 C 90 % 8.24 C
8 08-09-2018 00:35:00 9.7 C 90 % 8.14 C
9 08-09-2018 00:40:00 9.7 C 90 % 8.14 C
10 08-09-2018 00:45:00 9.7 C 90 % 8.14 C
11 08-09-2018 00:50:00 9.6 C 90 % 8.04 C
12 08-09-2018 00:55:00 9.6 C 90 % 8.04 C
13 08-09-2018 01:00:00 9.6 C 90 % 8.04 C
14 08-09-2018 01:05:00 9.5 C 91 % 8.11 C
15 08-09-2018 01:10:00 9.5 C 91 % 8.11 C
16 08-09-2018 01:15:00 9.5 C 91 % 8.11 C
17 08-09-2018 01:20:00 9.4 C 91 % 8.01 C
18 08-09-2018 01:25:00 9.4 C 91 % 8.01 C
19 08-09-2018 01:30:00 9.4 C 91 % 8.01 C
20 08-09-2018 01:35:00 9.4 C 91 % 8.01 C
21 08-09-2018 01:40:00 9.4 C 91 % 8.01 C
22 08-09-2018 01:45:00 9.4 C 91 % 8.01 C
23 08-09-2018 01:50:00 9.3 C 91 % 7.91 C
24 08-09-2018 01:55:00 9.4 C 92 % 8.17 C
25 08-09-2018 02:00:00 9.3 C 92 % 8.07 C
Sensor: Nr:Datum:Temp:Feuchte:Taupunkt:
Aussen-T/F 26 08-09-2018 02:05:00 9.3 C 92 % 8.07 C
27 08-09-2018 02:10:00 9.3 C 92 % 8.07 C
28 08-09-2018 02:15:00 9.3 C 92 % 8.07 C
29 08-09-2018 02:20:00 9.3 C 92 % 8.07 C
30 08-09-2018 02:25:00 9.3 C 92 % 8.07 C
31 08-09-2018 02:30:00 9.3 C 92 % 8.07 C
32 08-09-2018 02:35:00 9.3 C 92 % 8.07 C
33 08-09-2018 02:40:00 9.2 C 92 % 7.97 C
34 08-09-2018 02:45:00 9.2 C 92 % 7.97 C
35 08-09-2018 02:50:00 9.2 C 92 % 7.97 C
36 08-09-2018 02:55:00 9.1 C 92 % 7.87 C
37 08-09-2018 03:00:00 9.1 C 92 % 7.87 C
38 08-09-2018 03:05:00 9 C 92 % 7.77 C
39 08-09-2018 03:10:00 8.9 C 92 % 7.67 C
40 08-09-2018 03:15:00 8.9 C 93 % 7.83 C
41 08-09-2018 03:20:00 8.8 C 93 % 7.73 C
42 08-09-2018 03:25:00 8.8 C 93 % 7.73 C
43 08-09-2018 03:30:00 8.8 C 93 % 7.73 C
44 08-09-2018 03:35:00 8.8 C 93 % 7.73 C
45 08-09-2018 03:40:00 8.7 C 93 % 7.63 C
46 08-09-2018 03:45:00 8.7 C 93 % 7.63 C
47 08-09-2018 03:50:00 8.5 C 92 % 7.28 C
48 08-09-2018 03:55:00 8.4 C 93 % 7.34 C
49 08-09-2018 04:00:00 8.3 C 93 % 7.24 C
50 08-09-2018 04:05:00 8.3 C 93 % 7.24 C
Sensor: Nr:Datum:Temp:Feuchte:Taupunkt:
Aussen-T/F 51 08-09-2018 04:10:00 8.2 C 93 % 7.14 C
52 08-09-2018 04:15:00 8.1 C 93 % 7.04 C
53 08-09-2018 04:20:00 8.1 C 93 % 7.04 C
54 08-09-2018 04:25:00 8 C 93 % 6.94 C
55 08-09-2018 04:30:00 7.9 C 93 % 6.84 C
56 08-09-2018 04:35:00 7.9 C 93 % 6.84 C
57 08-09-2018 04:40:00 7.8 C 93 % 6.74 C
58 08-09-2018 04:45:00 7.8 C 93 % 6.74 C
59 08-09-2018 04:50:00 7.8 C 93 % 6.74 C
60 08-09-2018 04:55:00 7.8 C 94 % 6.9 C
61 08-09-2018 05:00:00 7.9 C 94 % 7 C
62 08-09-2018 05:05:00 8 C 94 % 7.09 C
63 08-09-2018 05:10:00 7.8 C 93 % 6.74 C
64 08-09-2018 05:15:00 7.7 C 93 % 6.64 C
65 08-09-2018 05:20:00 7.7 C 94 % 6.8 C
66 08-09-2018 05:25:00 7.7 C 94 % 6.8 C
67 08-09-2018 05:30:00 7.6 C 93 % 6.54 C
68 08-09-2018 05:35:00 7.4 C 93 % 6.34 C
69 08-09-2018 05:40:00 7.4 C 94 % 6.5 C
70 08-09-2018 05:45:00 7.5 C 94 % 6.6 C
71 08-09-2018 05:50:00 7.5 C 94 % 6.6 C
72 08-09-2018 05:55:00 7.4 C 94 % 6.5 C
73 08-09-2018 06:00:00 7.5 C 94 % 6.6 C
74 08-09-2018 06:05:00 7.6 C 95 % 6.85 C
75 08-09-2018 06:10:00 7.7 C 95 % 6.95 C
Sensor: Nr:Datum:Temp:Feuchte:Taupunkt:
Aussen-T/F 76 08-09-2018 06:15:00 7.8 C 95 % 7.05 C
77 08-09-2018 06:20:00 7.8 C 94 % 6.9 C
78 08-09-2018 06:25:00 7.6 C 94 % 6.7 C
79 08-09-2018 06:30:00 7.4 C 94 % 6.5 C
80 08-09-2018 06:35:00 7.3 C 94 % 6.4 C
81 08-09-2018 06:40:00 7.2 C 94 % 6.3 C
82 08-09-2018 06:45:00 7.1 C 94 % 6.2 C
83 08-09-2018 06:50:00 7 C 94 % 6.1 C
84 08-09-2018 06:55:00 6.9 C 94 % 6 C
85 08-09-2018 07:00:00 6.9 C 94 % 6 C
86 08-09-2018 07:05:00 6.8 C 94 % 5.9 C
87 08-09-2018 07:10:00 6.8 C 94 % 5.9 C
88 08-09-2018 07:15:00 6.8 C 94 % 5.9 C
89 08-09-2018 07:20:00 6.8 C 94 % 5.9 C
90 08-09-2018 07:25:00 6.8 C 94 % 5.9 C
91 08-09-2018 07:30:00 6.8 C 94 % 5.9 C
92 08-09-2018 07:35:00 6.8 C 94 % 5.9 C
93 08-09-2018 07:40:00 6.8 C 94 % 5.9 C
94 08-09-2018 07:45:00 6.8 C 94 % 5.9 C
95 08-09-2018 07:50:00 6.8 C 95 % 6.06 C
96 08-09-2018 07:55:00 6.8 C 95 % 6.06 C
97 08-09-2018 08:00:00 6.9 C 95 % 6.16 C
98 08-09-2018 08:05:00 6.9 C 95 % 6.16 C
99 08-09-2018 08:10:00 6.9 C 95 % 6.16 C
100 08-09-2018 08:15:00 7 C 95 % 6.26 C
Sensor: Nr:Datum:Temp:Feuchte:Taupunkt:
Aussen-T/F 101 08-09-2018 08:20:00 7 C 95 % 6.26 C
102 08-09-2018 08:25:00 7.1 C 95 % 6.35 C
103 08-09-2018 08:30:00 7.2 C 95 % 6.45 C
104 08-09-2018 08:35:00 7.2 C 95 % 6.45 C
105 08-09-2018 08:40:00 7.3 C 95 % 6.55 C
106 08-09-2018 08:45:00 7.3 C 95 % 6.55 C
107 08-09-2018 08:50:00 7.3 C 95 % 6.55 C
108 08-09-2018 08:55:00 7.4 C 95 % 6.65 C
109 08-09-2018 09:00:00 7.5 C 95 % 6.75 C
110 08-09-2018 09:05:00 7.5 C 95 % 6.75 C
111 08-09-2018 09:10:00 7.6 C 95 % 6.85 C
112 08-09-2018 09:15:00 7.6 C 95 % 6.85 C
113 08-09-2018 09:20:00 7.6 C 95 % 6.85 C
114 08-09-2018 09:25:00 7.7 C 95 % 6.95 C
115 08-09-2018 09:30:00 7.8 C 95 % 7.05 C
116 08-09-2018 09:35:00 7.9 C 95 % 7.15 C
117 08-09-2018 09:40:00 8.1 C 96 % 7.5 C
118 08-09-2018 09:45:00 8.2 C 96 % 7.6 C
119 08-09-2018 09:50:00 8.4 C 96 % 7.8 C
120 08-09-2018 09:55:00 8.7 C 96 % 8.1 C
121 08-09-2018 10:00:00 8.9 C 96 % 8.3 C
122 08-09-2018 10:05:00 9.2 C 96 % 8.6 C
123 08-09-2018 10:10:00 9.4 C 96 % 8.8 C
124 08-09-2018 10:15:00 9.7 C 96 % 9.09 C
125 08-09-2018 10:20:00 9.9 C 96 % 9.29 C
Sensor: Nr:Datum:Temp:Feuchte:Taupunkt:
Aussen-T/F 126 08-09-2018 10:25:00 10.1 C 96 % 9.49 C
127 08-09-2018 10:30:00 10.3 C 96 % 9.69 C
128 08-09-2018 10:35:00 10.4 C 96 % 9.79 C
129 08-09-2018 10:40:00 10.7 C 95 % 9.93 C
130 08-09-2018 10:45:00 10.9 C 94 % 9.97 C
131 08-09-2018 10:50:00 11.2 C 94 % 10.27 C
132 08-09-2018 10:55:00 11.6 C 92 % 10.35 C
133 08-09-2018 11:00:00 12 C 90 % 10.41 C
134 08-09-2018 11:05:00 12.4 C 88 % 10.47 C
135 08-09-2018 11:10:00 12.7 C 87 % 10.59 C
136 08-09-2018 11:15:00 13.1 C 85 % 10.64 C
137 08-09-2018 11:20:00 13.4 C 80 % 10.02 C
138 08-09-2018 11:25:00 14 C 78 % 10.23 C
139 08-09-2018 11:30:00 14.3 C 76 % 10.13 C
140 08-09-2018 11:35:00 14.7 C 74 % 10.12 C
141 08-09-2018 11:40:00 15 C 71 % 9.79 C
142 08-09-2018 11:45:00 15.2 C 71 % 9.98 C
143 08-09-2018 11:50:00 15.3 C 70 % 9.87 C
144 08-09-2018 11:55:00 15.5 C 68 % 9.63 C
145 08-09-2018 12:00:00 15.7 C 67 % 9.6 C
146 08-09-2018 12:05:00 15.8 C 66 % 9.47 C
147 08-09-2018 12:10:00 15.9 C 66 % 9.56 C
148 08-09-2018 12:15:00 16.1 C 65 % 9.53 C
149 08-09-2018 12:20:00 16.2 C 65 % 9.62 C
150 08-09-2018 12:25:00 16.3 C 63 % 9.25 C
Sensor: Nr:Datum:Temp:Feuchte:Taupunkt:
Aussen-T/F 151 08-09-2018 12:30:00 16.3 C 62 % 9.01 C
152 08-09-2018 12:35:00 16.4 C 62 % 9.11 C
153 08-09-2018 12:40:00 16.4 C 64 % 9.58 C
154 08-09-2018 12:45:00 16.6 C 62 % 9.3 C
155 08-09-2018 12:50:00 16.6 C 62 % 9.3 C
156 08-09-2018 12:55:00 16.7 C 62 % 9.39 C
157 08-09-2018 13:00:00 16.7 C 63 % 9.63 C
158 08-09-2018 13:05:00 16.9 C 62 % 9.58 C
159 08-09-2018 13:10:00 17.1 C 60 % 9.28 C
160 08-09-2018 13:15:00 17.2 C 60 % 9.37 C
161 08-09-2018 13:20:00 17.2 C 60 % 9.37 C
162 08-09-2018 13:25:00 17.2 C 61 % 9.62 C
163 08-09-2018 13:30:00 17.3 C 61 % 9.71 C
164 08-09-2018 13:35:00 17.4 C 60 % 9.56 C
165 08-09-2018 13:40:00 17.5 C 61 % 9.9 C
166 08-09-2018 13:45:00 17.7 C 61 % 10.09 C
167 08-09-2018 13:50:00 17.8 C 58 % 9.43 C
168 08-09-2018 13:55:00 17.9 C 59 % 9.78 C
169 08-09-2018 14:00:00 18.1 C 59 % 9.97 C
170 08-09-2018 14:05:00 18.2 C 58 % 9.81 C
171 08-09-2018 14:10:00 18.3 C 57 % 9.64 C
172 08-09-2018 14:15:00 18.4 C 57 % 9.74 C
173 08-09-2018 14:20:00 18.6 C 56 % 9.66 C
174 08-09-2018 14:25:00 18.6 C 56 % 9.66 C
175 08-09-2018 14:30:00 18.6 C 55 % 9.39 C
Sensor: Nr:Datum:Temp:Feuchte:Taupunkt:
Aussen-T/F 176 08-09-2018 14:35:00 18.7 C 56 % 9.75 C
177 08-09-2018 14:40:00 18.8 C 56 % 9.84 C
178 08-09-2018 14:45:00 18.9 C 56 % 9.94 C
179 08-09-2018 14:50:00 19.2 C 57 % 10.48 C
180 08-09-2018 14:55:00 19.2 C 53 % 9.4 C
181 08-09-2018 15:00:00 19.2 C 53 % 9.4 C
182 08-09-2018 15:05:00 19.2 C 53 % 9.4 C
183 08-09-2018 15:10:00 19.3 C 53 % 9.49 C
184 08-09-2018 15:15:00 19.4 C 53 % 9.58 C
185 08-09-2018 15:20:00 19.6 C 52 % 9.48 C
186 08-09-2018 15:25:00 19.7 C 52 % 9.58 C
187 08-09-2018 15:30:00 19.8 C 52 % 9.67 C
188 08-09-2018 15:35:00 19.9 C 51 % 9.47 C
189 08-09-2018 15:40:00 20.1 C 51 % 9.66 C
190 08-09-2018 15:45:00 20.2 C 51 % 9.75 C
191 08-09-2018 15:50:00 20.3 C 50 % 9.54 C
192 08-09-2018 15:55:00 20.3 C 50 % 9.54 C
193 08-09-2018 16:00:00 20.4 C 51 % 9.93 C
194 08-09-2018 16:05:00 20.5 C 49 % 9.43 C
195 08-09-2018 16:10:00 20.6 C 50 % 9.82 C
196 08-09-2018 16:15:00 20.6 C 50 % 9.82 C
197 08-09-2018 16:20:00 20.8 C 49 % 9.7 C
198 08-09-2018 16:25:00 20.9 C 49 % 9.79 C
199 08-09-2018 16:30:00 21 C 49 % 9.89 C
200 08-09-2018 16:35:00 21.2 C 49 % 10.07 C
Sensor: Nr:Datum:Temp:Feuchte:Taupunkt:
Aussen-T/F 201 08-09-2018 16:40:00 21.4 C 47 % 9.63 C
202 08-09-2018 16:45:00 21.7 C 48 % 10.22 C
203 08-09-2018 16:50:00 21.9 C 47 % 10.09 C
204 08-09-2018 16:55:00 22.1 C 46 % 9.95 C
205 08-09-2018 17:00:00 22.4 C 46 % 10.22 C
206 08-09-2018 17:05:00 22.7 C 44 % 9.83 C
207 08-09-2018 17:10:00 22.8 C 43 % 9.58 C
208 08-09-2018 17:15:00 23.1 C 45 % 10.53 C
209 08-09-2018 17:20:00 23.3 C 44 % 10.37 C
210 08-09-2018 17:25:00 23.4 C 43 % 10.12 C
211 08-09-2018 17:30:00 23.1 C 42 % 9.5 C
212 08-09-2018 17:35:00 22.5 C 44 % 9.65 C
213 08-09-2018 17:40:00 22.2 C 46 % 10.04 C
214 08-09-2018 17:45:00 21.9 C 47 % 10.09 C
215 08-09-2018 17:50:00 21.7 C 47 % 9.9 C
216 08-09-2018 17:55:00 21.5 C 47 % 9.72 C
217 08-09-2018 18:00:00 21.4 C 50 % 10.55 C
218 08-09-2018 18:05:00 21.3 C 51 % 10.76 C
219 08-09-2018 18:10:00 21.2 C 51 % 10.67 C
220 08-09-2018 18:15:00 21.1 C 51 % 10.58 C
221 08-09-2018 18:20:00 21.1 C 51 % 10.58 C
222 08-09-2018 18:25:00 21.1 C 53 % 11.15 C
223 08-09-2018 18:30:00 21.1 C 53 % 11.15 C
224 08-09-2018 18:35:00 21.1 C 54 % 11.44 C
225 08-09-2018 18:40:00 21.2 C 54 % 11.53 C
Sensor: Nr:Datum:Temp:Feuchte:Taupunkt:
Aussen-T/F 226 08-09-2018 18:45:00 21.2 C 51 % 10.67 C
227 08-09-2018 18:50:00 21.1 C 53 % 11.15 C
228 08-09-2018 18:55:00 20.9 C 55 % 11.53 C
229 08-09-2018 19:00:00 20.7 C 56 % 11.61 C
230 08-09-2018 19:05:00 20.4 C 56 % 11.33 C
231 08-09-2018 19:10:00 20.1 C 58 % 11.58 C
232 08-09-2018 19:15:00 19.7 C 59 % 11.47 C
233 08-09-2018 19:20:00 19.4 C 60 % 11.44 C
234 08-09-2018 19:25:00 19.2 C 61 % 11.5 C
235 08-09-2018 19:30:00 18.9 C 61 % 11.22 C
236 08-09-2018 19:35:00 18.6 C 62 % 11.18 C
237 08-09-2018 19:40:00 18.3 C 64 % 11.38 C
238 08-09-2018 19:45:00 18.1 C 64 % 11.19 C
239 08-09-2018 19:50:00 17.7 C 65 % 11.04 C
240 08-09-2018 19:55:00 17.6 C 66 % 11.18 C
241 08-09-2018 20:00:00 17.3 C 67 % 11.12 C
242 08-09-2018 20:05:00 17.2 C 67 % 11.02 C
243 08-09-2018 20:10:00 17 C 68 % 11.06 C
244 08-09-2018 20:15:00 16.9 C 69 % 11.18 C
245 08-09-2018 20:20:00 16.8 C 69 % 11.09 C
246 08-09-2018 20:25:00 16.7 C 69 % 10.99 C
247 08-09-2018 20:30:00 16.6 C 70 % 11.11 C
248 08-09-2018 20:35:00 16.6 C 70 % 11.11 C
249 08-09-2018 20:40:00 16.5 C 71 % 11.23 C
250 08-09-2018 20:45:00 16.4 C 71 % 11.13 C
Sensor: Nr:Datum:Temp:Feuchte:Taupunkt:
Aussen-T/F 251 08-09-2018 20:50:00 16.4 C 70 % 10.92 C
252 08-09-2018 20:55:00 16.3 C 70 % 10.82 C
253 08-09-2018 21:00:00 16.3 C 71 % 11.04 C
254 08-09-2018 21:05:00 16.2 C 71 % 10.94 C
255 08-09-2018 21:10:00 16.2 C 72 % 11.15 C
256 08-09-2018 21:15:00 16.1 C 72 % 11.06 C
257 08-09-2018 21:20:00 16 C 72 % 10.96 C
258 08-09-2018 21:25:00 15.9 C 72 % 10.86 C
259 08-09-2018 21:30:00 15.9 C 72 % 10.86 C
260 08-09-2018 21:35:00 15.8 C 73 % 10.97 C
261 08-09-2018 21:40:00 15.8 C 73 % 10.97 C
262 08-09-2018 21:45:00 15.7 C 73 % 10.88 C
263 08-09-2018 21:50:00 15.7 C 73 % 10.88 C
264 08-09-2018 21:55:00 15.6 C 74 % 10.99 C
265 08-09-2018 22:00:00 15.6 C 74 % 10.99 C
266 08-09-2018 22:05:00 15.5 C 75 % 11.09 C
267 08-09-2018 22:10:00 15.5 C 74 % 10.89 C
268 08-09-2018 22:15:00 15.4 C 74 % 10.79 C
269 08-09-2018 22:20:00 15.4 C 74 % 10.79 C
270 08-09-2018 22:25:00 15.4 C 74 % 10.79 C
271 08-09-2018 22:30:00 15.4 C 75 % 11 C
272 08-09-2018 22:35:00 15.3 C 75 % 10.9 C
273 08-09-2018 22:40:00 15.3 C 75 % 10.9 C
274 08-09-2018 22:45:00 15.2 C 75 % 10.8 C
275 08-09-2018 22:50:00 15.2 C 76 % 11 C
Sensor: Nr:Datum:Temp:Feuchte:Taupunkt:
Aussen-T/F 276 08-09-2018 22:55:00 15.2 C 75 % 10.8 C
277 08-09-2018 23:00:00 15.1 C 76 % 10.9 C
278 08-09-2018 23:05:00 15 C 76 % 10.81 C
279 08-09-2018 23:10:00 14.8 C 77 % 10.81 C
280 08-09-2018 23:15:00 14.7 C 76 % 10.52 C
281 08-09-2018 23:20:00 14.7 C 77 % 10.71 C
282 08-09-2018 23:25:00 14.6 C 77 % 10.62 C
283 08-09-2018 23:30:00 14.6 C 77 % 10.62 C
284 08-09-2018 23:35:00 14.6 C 77 % 10.62 C
285 08-09-2018 23:40:00 14.7 C 77 % 10.71 C
286 08-09-2018 23:45:00 14.7 C 77 % 10.71 C
287 08-09-2018 23:50:00 14.8 C 77 % 10.81 C
288 08-09-2018 23:55:00 14.9 C 77 % 10.91 C
289 09-09-2018 00:00:00 14.9 C 77 % 10.91 C
290 09-09-2018 00:05:00 14.8 C 78 % 11 C
291 09-09-2018 00:10:00 14.8 C 78 % 11 C
292 09-09-2018 00:15:00 14.7 C 78 % 10.91 C
293 09-09-2018 00:20:00 14.6 C 78 % 10.81 C
294 09-09-2018 00:25:00 14.4 C 78 % 10.62 C
295 09-09-2018 00:30:00 14.3 C 79 % 10.71 C
296 09-09-2018 00:35:00 14.2 C 79 % 10.61 C
297 09-09-2018 00:40:00 14.1 C 79 % 10.52 C
298 09-09-2018 00:45:00 14 C 80 % 10.61 C
299 09-09-2018 00:50:00 13.8 C 80 % 10.41 C
300 09-09-2018 00:55:00 13.7 C 80 % 10.32 C
Sensor: Nr:Datum:Temp:Feuchte:Taupunkt:
Aussen-T/F 301 09-09-2018 01:00:00 13.6 C 80 % 10.22 C
302 09-09-2018 01:05:00 13.4 C 80 % 10.02 C
303 09-09-2018 01:10:00 13.4 C 81 % 10.21 C
304 09-09-2018 01:15:00 13.5 C 82 % 10.49 C
305 09-09-2018 01:20:00 13.6 C 82 % 10.59 C
306 09-09-2018 01:25:00 13.7 C 81 % 10.5 C
307 09-09-2018 01:30:00 13.7 C 81 % 10.5 C
308 09-09-2018 01:35:00 13.7 C 81 % 10.5 C
309 09-09-2018 01:40:00 13.6 C 81 % 10.4 C
310 09-09-2018 01:45:00 13.4 C 81 % 10.21 C
311 09-09-2018 01:50:00 13.3 C 81 % 10.11 C
312 09-09-2018 01:55:00 13.2 C 82 % 10.2 C
313 09-09-2018 02:00:00 13.1 C 82 % 10.1 C
314 09-09-2018 02:05:00 12.9 C 82 % 9.9 C
315 09-09-2018 02:10:00 12.9 C 83 % 10.09 C
316 09-09-2018 02:15:00 12.8 C 83 % 9.99 C
317 09-09-2018 02:20:00 12.7 C 83 % 9.89 C
318 09-09-2018 02:25:00 12.6 C 83 % 9.79 C
319 09-09-2018 02:30:00 12.4 C 83 % 9.6 C
320 09-09-2018 02:35:00 12.3 C 83 % 9.5 C
321 09-09-2018 02:40:00 12.2 C 84 % 9.58 C
322 09-09-2018 02:45:00 12.1 C 85 % 9.66 C
323 09-09-2018 02:50:00 12.1 C 85 % 9.66 C
324 09-09-2018 02:55:00 12.1 C 86 % 9.83 C
325 09-09-2018 03:00:00 12.2 C 86 % 9.93 C
Sensor: Nr:Datum:Temp:Feuchte:Taupunkt:
Aussen-T/F 326 09-09-2018 03:05:00 12.1 C 86 % 9.83 C
327 09-09-2018 03:10:00 12.1 C 86 % 9.83 C
328 09-09-2018 03:15:00 12 C 86 % 9.73 C
329 09-09-2018 03:20:00 11.9 C 86 % 9.64 C
330 09-09-2018 03:25:00 11.9 C 86 % 9.64 C
331 09-09-2018 03:30:00 11.8 C 86 % 9.54 C
332 09-09-2018 03:35:00 11.7 C 87 % 9.61 C
333 09-09-2018 03:40:00 11.7 C 87 % 9.61 C
334 09-09-2018 03:45:00 11.6 C 87 % 9.51 C
335 09-09-2018 03:50:00 11.5 C 87 % 9.41 C
336 09-09-2018 03:55:00 11.4 C 87 % 9.32 C
337 09-09-2018 04:00:00 11.4 C 87 % 9.32 C
338 09-09-2018 04:05:00 11.3 C 87 % 9.22 C
339 09-09-2018 04:10:00 11.2 C 88 % 9.29 C
340 09-09-2018 04:15:00 11.1 C 88 % 9.19 C
341 09-09-2018 04:20:00 11.1 C 88 % 9.19 C
342 09-09-2018 04:25:00 11.1 C 89 % 9.36 C
343 09-09-2018 04:30:00 11.1 C 89 % 9.36 C
344 09-09-2018 04:35:00 11.1 C 89 % 9.36 C
345 09-09-2018 04:40:00 11.1 C 89 % 9.36 C
346 09-09-2018 04:45:00 11.1 C 89 % 9.36 C
347 09-09-2018 04:50:00 11.2 C 89 % 9.46 C
348 09-09-2018 04:55:00 11.1 C 89 % 9.36 C
349 09-09-2018 05:00:00 11 C 88 % 9.09 C
350 09-09-2018 05:05:00 10.9 C 88 % 8.99 C
Sensor: Nr:Datum:Temp:Feuchte:Taupunkt:
Aussen-T/F 351 09-09-2018 05:10:00 10.8 C 89 % 9.06 C
352 09-09-2018 05:15:00 10.8 C 90 % 9.23 C
353 09-09-2018 05:20:00 10.9 C 90 % 9.33 C
354 09-09-2018 05:25:00 10.9 C 90 % 9.33 C
355 09-09-2018 05:30:00 10.9 C 90 % 9.33 C
356 09-09-2018 05:35:00 11 C 90 % 9.42 C
357 09-09-2018 05:40:00 11.1 C 91 % 9.69 C
358 09-09-2018 05:45:00 11.2 C 91 % 9.79 C
359 09-09-2018 05:50:00 11.2 C 91 % 9.79 C
360 09-09-2018 05:55:00 11.2 C 91 % 9.79 C
361 09-09-2018 06:00:00 11.3 C 90 % 9.72 C
362 09-09-2018 06:05:00 11.3 C 90 % 9.72 C
363 09-09-2018 06:10:00 11.3 C 90 % 9.72 C
364 09-09-2018 06:15:00 11.3 C 90 % 9.72 C
365 09-09-2018 06:20:00 11.3 C 90 % 9.72 C
366 09-09-2018 06:25:00 11.4 C 90 % 9.82 C
367 09-09-2018 06:30:00 11.3 C 90 % 9.72 C
368 09-09-2018 06:35:00 11.4 C 90 % 9.82 C
369 09-09-2018 06:40:00 11.4 C 90 % 9.82 C
370 09-09-2018 06:45:00 11.4 C 90 % 9.82 C
371 09-09-2018 06:50:00 11.5 C 90 % 9.92 C
372 09-09-2018 06:55:00 11.6 C 90 % 10.02 C
373 09-09-2018 07:00:00 11.6 C 90 % 10.02 C
374 09-09-2018 07:05:00 11.6 C 90 % 10.02 C
375 09-09-2018 07:10:00 11.6 C 90 % 10.02 C
Sensor: Nr:Datum:Temp:Feuchte:Taupunkt:
Aussen-T/F 376 09-09-2018 07:15:00 11.6 C 90 % 10.02 C
377 09-09-2018 07:20:00 11.6 C 90 % 10.02 C
378 09-09-2018 07:25:00 11.5 C 90 % 9.92 C
379 09-09-2018 07:30:00 11.5 C 90 % 9.92 C
380 09-09-2018 07:35:00 11.5 C 90 % 9.92 C
381 09-09-2018 07:40:00 11.5 C 90 % 9.92 C
382 09-09-2018 07:45:00 11.5 C 90 % 9.92 C
383 09-09-2018 07:50:00 11.6 C 90 % 10.02 C
384 09-09-2018 07:55:00 11.7 C 90 % 10.12 C
385 09-09-2018 08:00:00 11.7 C 90 % 10.12 C
386 09-09-2018 08:05:00 11.8 C 90 % 10.21 C
387 09-09-2018 08:10:00 11.9 C 90 % 10.31 C
388 09-09-2018 08:15:00 11.9 C 90 % 10.31 C
389 09-09-2018 08:20:00 12.1 C 90 % 10.51 C
390 09-09-2018 08:25:00 12.2 C 90 % 10.61 C
391 09-09-2018 08:30:00 12.3 C 90 % 10.71 C
392 09-09-2018 08:35:00 12.4 C 89 % 10.64 C
393 09-09-2018 08:40:00 12.6 C 89 % 10.84 C
394 09-09-2018 08:45:00 12.7 C 88 % 10.77 C
395 09-09-2018 08:50:00 12.8 C 88 % 10.86 C
396 09-09-2018 08:55:00 12.9 C 87 % 10.79 C
397 09-09-2018 09:00:00 13.2 C 87 % 11.09 C
398 09-09-2018 09:05:00 13.3 C 87 % 11.18 C
399 09-09-2018 09:10:00 13.4 C 86 % 11.11 C
400 09-09-2018 09:15:00 13.6 C 84 % 10.95 C
Sensor: Nr:Datum:Temp:Feuchte:Taupunkt:
Aussen-T/F 401 09-09-2018 09:20:00 13.8 C 84 % 11.15 C
402 09-09-2018 09:25:00 13.9 C 84 % 11.24 C
403 09-09-2018 09:30:00 14.1 C 84 % 11.44 C
404 09-09-2018 09:35:00 14.2 C 83 % 11.36 C
405 09-09-2018 09:40:00 14.4 C 82 % 11.37 C
406 09-09-2018 09:45:00 14.6 C 82 % 11.56 C
407 09-09-2018 09:50:00 14.6 C 81 % 11.38 C
408 09-09-2018 09:55:00 14.8 C 81 % 11.57 C
409 09-09-2018 10:00:00 14.9 C 80 % 11.48 C
410 09-09-2018 10:05:00 15 C 80 % 11.58 C
411 09-09-2018 10:10:00 15.1 C 80 % 11.68 C
412 09-09-2018 10:15:00 15.2 C 80 % 11.78 C
413 09-09-2018 10:20:00 15.3 C 79 % 11.68 C
414 09-09-2018 10:25:00 15.4 C 80 % 11.97 C
415 09-09-2018 10:30:00 15.6 C 80 % 12.16 C
416 09-09-2018 10:35:00 15.8 C 80 % 12.36 C
417 09-09-2018 10:40:00 16.2 C 78 % 12.36 C
418 09-09-2018 10:45:00 16.6 C 77 % 12.55 C
419 09-09-2018 10:50:00 16.9 C 77 % 12.84 C
420 09-09-2018 10:55:00 17.2 C 73 % 12.32 C
421 09-09-2018 11:00:00 17.5 C 71 % 12.19 C
422 09-09-2018 11:05:00 17.8 C 71 % 12.47 C
423 09-09-2018 11:10:00 18 C 70 % 12.45 C
424 09-09-2018 11:15:00 18.2 C 70 % 12.64 C
425 09-09-2018 11:20:00 18.3 C 69 % 12.52 C
Sensor: Nr:Datum:Temp:Feuchte:Taupunkt:
Aussen-T/F 426 09-09-2018 11:25:00 18.6 C 69 % 12.8 C
427 09-09-2018 11:30:00 18.7 C 66 % 12.22 C
428 09-09-2018 11:35:00 18.8 C 67 % 12.55 C
429 09-09-2018 11:40:00 19 C 66 % 12.51 C
430 09-09-2018 11:45:00 19.2 C 65 % 12.47 C
431 09-09-2018 11:50:00 19.3 C 65 % 12.56 C
432 09-09-2018 11:55:00 19.4 C 64 % 12.42 C
433 09-09-2018 12:00:00 19.5 C 63 % 12.27 C
434 09-09-2018 12:05:00 19.6 C 63 % 12.37 C
435 09-09-2018 12:10:00 19.7 C 63 % 12.46 C
436 09-09-2018 12:15:00 19.7 C 61 % 11.97 C
437 09-09-2018 12:20:00 19.7 C 61 % 11.97 C
438 09-09-2018 12:25:00 19.7 C 61 % 11.97 C
439 09-09-2018 12:30:00 19.8 C 60 % 11.82 C
440 09-09-2018 12:35:00 19.8 C 59 % 11.56 C
441 09-09-2018 12:40:00 19.8 C 60 % 11.82 C
442 09-09-2018 12:45:00 19.9 C 58 % 11.4 C
443 09-09-2018 12:50:00 19.9 C 58 % 11.4 C
444 09-09-2018 12:55:00 19.9 C 58 % 11.4 C
445 09-09-2018 13:00:00 20.1 C 55 % 10.78 C
446 09-09-2018 13:05:00 20.3 C 56 % 11.24 C
447 09-09-2018 13:10:00 20.3 C 56 % 11.24 C
448 09-09-2018 13:15:00 20.3 C 55 % 10.97 C
449 09-09-2018 13:20:00 20.4 C 54 % 10.79 C
450 09-09-2018 13:25:00 20.7 C 56 % 11.61 C
Sensor: Nr:Datum:Temp:Feuchte:Taupunkt:
Aussen-T/F 451 09-09-2018 13:30:00 20.7 C 55 % 11.34 C
452 09-09-2018 13:35:00 20.8 C 53 % 10.88 C
453 09-09-2018 13:40:00 20.9 C 54 % 11.25 C
454 09-09-2018 13:45:00 21.1 C 53 % 11.15 C
455 09-09-2018 13:50:00 21.2 C 52 % 10.96 C
456 09-09-2018 13:55:00 21.3 C 52 % 11.05 C
457 09-09-2018 14:00:00 21.4 C 52 % 11.14 C
458 09-09-2018 14:05:00 21.6 C 53 % 11.62 C
459 09-09-2018 14:10:00 21.7 C 51 % 11.13 C
460 09-09-2018 14:15:00 21.8 C 48 % 10.31 C
461 09-09-2018 14:20:00 21.9 C 49 % 10.71 C
462 09-09-2018 14:25:00 22.1 C 49 % 10.89 C
463 09-09-2018 14:30:00 22.3 C 47 % 10.45 C
464 09-09-2018 14:35:00 22.6 C 47 % 10.72 C
465 09-09-2018 14:40:00 22.7 C 46 % 10.49 C
466 09-09-2018 14:45:00 22.8 C 46 % 10.58 C
467 09-09-2018 14:50:00 23.1 C 46 % 10.86 C
468 09-09-2018 14:55:00 23.2 C 45 % 10.62 C
469 09-09-2018 15:00:00 23.3 C 46 % 11.04 C
470 09-09-2018 15:05:00 23.5 C 46 % 11.22 C
471 09-09-2018 15:10:00 23.7 C 46 % 11.4 C
472 09-09-2018 15:15:00 23.8 C 46 % 11.49 C
473 09-09-2018 15:20:00 23.9 C 46 % 11.58 C
474 09-09-2018 15:25:00 23.8 C 45 % 11.16 C
475 09-09-2018 15:30:00 23.8 C 45 % 11.16 C
Sensor: Nr:Datum:Temp:Feuchte:Taupunkt:
Aussen-T/F 476 09-09-2018 15:35:00 23.8 C 45 % 11.16 C
477 09-09-2018 15:40:00 23.8 C 46 % 11.49 C
478 09-09-2018 15:45:00 24.1 C 46 % 11.76 C
479 09-09-2018 15:50:00 24.2 C 46 % 11.85 C
480 09-09-2018 15:55:00 24.3 C 45 % 11.61 C
481 09-09-2018 16:00:00 24.6 C 45 % 11.88 C
482 09-09-2018 16:05:00 24.6 C 44 % 11.54 C
483 09-09-2018 16:10:00 24.5 C 45 % 11.79 C
484 09-09-2018 16:15:00 24.4 C 47 % 12.36 C
485 09-09-2018 16:20:00 24.4 C 47 % 12.36 C
486 09-09-2018 16:25:00 24.4 C 47 % 12.36 C
487 09-09-2018 16:30:00 24.5 C 45 % 11.79 C
488 09-09-2018 16:35:00 24.6 C 47 % 12.54 C
489 09-09-2018 16:40:00 24.6 C 47 % 12.54 C
490 09-09-2018 16:45:00 24.7 C 47 % 12.64 C
491 09-09-2018 16:50:00 24.7 C 48 % 12.96 C
492 09-09-2018 16:55:00 24.8 C 47 % 12.73 C
493 09-09-2018 17:00:00 24.9 C 46 % 12.49 C
494 09-09-2018 17:05:00 24.9 C 45 % 12.16 C
495 09-09-2018 17:10:00 24.9 C 48 % 13.14 C
496 09-09-2018 17:15:00 25 C 47 % 12.91 C
497 09-09-2018 17:20:00 25.2 C 46 % 12.76 C
498 09-09-2018 17:25:00 25.4 C 44 % 12.27 C
499 09-09-2018 17:30:00 25.6 C 45 % 12.79 C
500 09-09-2018 17:35:00 26.1 C 43 % 12.55 C
Sensor: Nr:Datum:Temp:Feuchte:Taupunkt:
Aussen-T/F 501 09-09-2018 17:40:00 26.5 C 41 % 12.18 C
502 09-09-2018 17:45:00 26.6 C 41 % 12.27 C
503 09-09-2018 17:50:00 26.6 C 42 % 12.64 C
504 09-09-2018 17:55:00 26.6 C 41 % 12.27 C
505 09-09-2018 18:00:00 26.3 C 42 % 12.37 C
506 09-09-2018 18:05:00 26.1 C 46 % 13.58 C
507 09-09-2018 18:10:00 25.8 C 46 % 13.31 C
508 09-09-2018 18:15:00 25.4 C 49 % 13.91 C
509 09-09-2018 18:20:00 25 C 50 % 13.86 C
510 09-09-2018 18:25:00 24.7 C 50 % 13.58 C
511 09-09-2018 18:30:00 24.4 C 51 % 13.61 C
512 09-09-2018 18:35:00 24.2 C 52 % 13.73 C
513 09-09-2018 18:40:00 23.9 C 52 % 13.45 C
514 09-09-2018 18:45:00 23.8 C 53 % 13.65 C
515 09-09-2018 18:50:00 23.7 C 53 % 13.56 C
516 09-09-2018 18:55:00 23.7 C 53 % 13.56 C
517 09-09-2018 19:00:00 23.4 C 53 % 13.28 C
518 09-09-2018 19:05:00 23.2 C 53 % 13.09 C
519 09-09-2018 19:10:00 22.9 C 53 % 12.82 C
520 09-09-2018 19:15:00 22.7 C 54 % 12.92 C
521 09-09-2018 19:20:00 22.4 C 54 % 12.64 C
522 09-09-2018 19:25:00 22.1 C 55 % 12.64 C
523 09-09-2018 19:30:00 21.8 C 56 % 12.64 C
524 09-09-2018 19:35:00 21.5 C 57 % 12.63 C
525 09-09-2018 19:40:00 21.2 C 57 % 12.35 C
Sensor: Nr:Datum:Temp:Feuchte:Taupunkt:
Aussen-T/F 526 09-09-2018 19:45:00 21 C 59 % 12.69 C
527 09-09-2018 19:50:00 20.7 C 59 % 12.41 C
528 09-09-2018 19:55:00 20.4 C 59 % 12.12 C
529 09-09-2018 20:00:00 20.2 C 60 % 12.19 C
530 09-09-2018 20:05:00 20.1 C 61 % 12.35 C
531 09-09-2018 20:10:00 19.8 C 61 % 12.07 C
532 09-09-2018 20:15:00 19.7 C 61 % 11.97 C
533 09-09-2018 20:20:00 19.6 C 61 % 11.88 C
534 09-09-2018 20:25:00 19.4 C 62 % 11.94 C
535 09-09-2018 20:30:00 19.3 C 62 % 11.84 C
536 09-09-2018 20:35:00 19.1 C 64 % 12.14 C
537 09-09-2018 20:40:00 18.8 C 63 % 11.61 C
538 09-09-2018 20:45:00 18.6 C 65 % 11.9 C
539 09-09-2018 20:50:00 18.2 C 65 % 11.52 C
540 09-09-2018 20:55:00 17.9 C 66 % 11.46 C
541 09-09-2018 21:00:00 17.7 C 67 % 11.5 C
542 09-09-2018 21:05:00 17.5 C 66 % 11.08 C
543 09-09-2018 21:10:00 17.3 C 67 % 11.12 C
544 09-09-2018 21:15:00 17.2 C 68 % 11.25 C
545 09-09-2018 21:20:00 17 C 68 % 11.06 C
546 09-09-2018 21:25:00 16.8 C 68 % 10.87 C
547 09-09-2018 21:30:00 16.7 C 69 % 10.99 C
548 09-09-2018 21:35:00 16.6 C 70 % 11.11 C
549 09-09-2018 21:40:00 16.3 C 70 % 10.82 C
550 09-09-2018 21:45:00 16.2 C 71 % 10.94 C
Sensor: Nr:Datum:Temp:Feuchte:Taupunkt:
Aussen-T/F 551 09-09-2018 21:50:00 16 C 71 % 10.75 C
552 09-09-2018 21:55:00 15.8 C 72 % 10.77 C
553 09-09-2018 22:00:00 15.8 C 72 % 10.77 C
554 09-09-2018 22:05:00 15.7 C 72 % 10.67 C
555 09-09-2018 22:10:00 15.7 C 72 % 10.67 C
556 09-09-2018 22:15:00 15.6 C 72 % 10.57 C
557 09-09-2018 22:20:00 15.4 C 73 % 10.59 C
558 09-09-2018 22:25:00 15.3 C 73 % 10.49 C
559 09-09-2018 22:30:00 15.3 C 74 % 10.7 C
560 09-09-2018 22:35:00 15.2 C 74 % 10.6 C
561 09-09-2018 22:40:00 15 C 75 % 10.61 C
562 09-09-2018 22:45:00 14.8 C 75 % 10.42 C
563 09-09-2018 22:50:00 14.6 C 76 % 10.42 C
564 09-09-2018 22:55:00 14.5 C 77 % 10.52 C
565 09-09-2018 23:00:00 14.4 C 77 % 10.42 C
566 09-09-2018 23:05:00 14.3 C 78 % 10.52 C
567 09-09-2018 23:10:00 14.1 C 78 % 10.33 C
568 09-09-2018 23:15:00 14.1 C 78 % 10.33 C
569 09-09-2018 23:20:00 14 C 79 % 10.42 C
570 09-09-2018 23:25:00 14.1 C 80 % 10.71 C
571 09-09-2018 23:30:00 14.1 C 78 % 10.33 C
572 09-09-2018 23:35:00 13.9 C 79 % 10.32 C
573 09-09-2018 23:40:00 13.9 C 79 % 10.32 C
574 09-09-2018 23:45:00 13.8 C 80 % 10.41 C
575 09-09-2018 23:50:00 13.8 C 80 % 10.41 C
Sensor: Nr:Datum:Temp:Feuchte:Taupunkt:
Aussen-T/F 576 09-09-2018 23:55:00 13.7 C 80 % 10.32 C
577 10-09-2018 00:00:00 13.7 C 80 % 10.32 C
578 10-09-2018 00:05:00 13.6 C 80 % 10.22 C
579 10-09-2018 00:10:00 13.6 C 80 % 10.22 C
580 10-09-2018 00:15:00 13.5 C 80 % 10.12 C
581 10-09-2018 00:20:00 13.4 C 80 % 10.02 C
582 10-09-2018 00:25:00 13.3 C 81 % 10.11 C
583 10-09-2018 00:30:00 13.2 C 81 % 10.01 C
584 10-09-2018 00:35:00 13.2 C 81 % 10.01 C
585 10-09-2018 00:40:00 13.1 C 81 % 9.92 C
586 10-09-2018 00:45:00 12.9 C 82 % 9.9 C
587 10-09-2018 00:50:00 12.9 C 82 % 9.9 C
588 10-09-2018 00:55:00 12.9 C 82 % 9.9 C
589 10-09-2018 01:00:00 12.9 C 82 % 9.9 C
590 10-09-2018 01:05:00 12.9 C 82 % 9.9 C
591 10-09-2018 01:10:00 13 C 82 % 10 C
592 10-09-2018 01:15:00 12.9 C 81 % 9.72 C
593 10-09-2018 01:20:00 12.8 C 81 % 9.62 C
594 10-09-2018 01:25:00 12.7 C 82 % 9.71 C
595 10-09-2018 01:30:00 12.6 C 82 % 9.61 C
596 10-09-2018 01:35:00 12.5 C 82 % 9.51 C
597 10-09-2018 01:40:00 12.4 C 83 % 9.6 C
598 10-09-2018 01:45:00 12.3 C 83 % 9.5 C
599 10-09-2018 01:50:00 12.2 C 83 % 9.4 C
600 10-09-2018 01:55:00 12.2 C 84 % 9.58 C
Sensor: Nr:Datum:Temp:Feuchte:Taupunkt:
Aussen-T/F 601 10-09-2018 02:00:00 12.2 C 84 % 9.58 C
602 10-09-2018 02:05:00 12.1 C 84 % 9.48 C
603 10-09-2018 02:10:00 12.1 C 84 % 9.48 C
604 10-09-2018 02:15:00 11.9 C 84 % 9.29 C
605 10-09-2018 02:20:00 11.9 C 85 % 9.46 C
606 10-09-2018 02:25:00 11.8 C 85 % 9.36 C
607 10-09-2018 02:30:00 11.8 C 85 % 9.36 C
608 10-09-2018 02:35:00 11.8 C 85 % 9.36 C
609 10-09-2018 02:40:00 11.7 C 86 % 9.44 C
610 10-09-2018 02:45:00 11.6 C 86 % 9.34 C
611 10-09-2018 02:50:00 11.5 C 86 % 9.24 C
612 10-09-2018 02:55:00 11.5 C 86 % 9.24 C
613 10-09-2018 03:00:00 11.6 C 87 % 9.51 C
614 10-09-2018 03:05:00 11.6 C 86 % 9.34 C
615 10-09-2018 03:10:00 11.5 C 86 % 9.24 C
616 10-09-2018 03:15:00 11.5 C 87 % 9.41 C
617 10-09-2018 03:20:00 11.6 C 88 % 9.68 C
618 10-09-2018 03:25:00 11.8 C 87 % 9.71 C
619 10-09-2018 03:30:00 11.8 C 86 % 9.54 C
620 10-09-2018 03:35:00 11.7 C 86 % 9.44 C
621 10-09-2018 03:40:00 11.7 C 86 % 9.44 C
622 10-09-2018 03:45:00 11.7 C 86 % 9.44 C
623 10-09-2018 03:50:00 11.7 C 87 % 9.61 C
624 10-09-2018 03:55:00 11.8 C 87 % 9.71 C
625 10-09-2018 04:00:00 11.9 C 87 % 9.81 C
Sensor: Nr:Datum:Temp:Feuchte:Taupunkt:
Aussen-T/F 626 10-09-2018 04:05:00 12.1 C 87 % 10 C
627 10-09-2018 04:10:00 12.1 C 87 % 10 C
628 10-09-2018 04:15:00 12.2 C 87 % 10.1 C
629 10-09-2018 04:20:00 12.2 C 86 % 9.93 C
630 10-09-2018 04:25:00 12.1 C 86 % 9.83 C
631 10-09-2018 04:30:00 12.1 C 86 % 9.83 C
632 10-09-2018 04:35:00 12.1 C 86 % 9.83 C
633 10-09-2018 04:40:00 12.1 C 87 % 10 C
634 10-09-2018 04:45:00 12 C 86 % 9.73 C
635 10-09-2018 04:50:00 11.9 C 86 % 9.64 C
636 10-09-2018 04:55:00 11.8 C 86 % 9.54 C
637 10-09-2018 05:00:00 11.8 C 87 % 9.71 C
638 10-09-2018 05:05:00 11.7 C 87 % 9.61 C
639 10-09-2018 05:10:00 11.7 C 87 % 9.61 C
640 10-09-2018 05:15:00 11.6 C 87 % 9.51 C
641 10-09-2018 05:20:00 11.5 C 87 % 9.41 C
642 10-09-2018 05:25:00 11.4 C 87 % 9.32 C
643 10-09-2018 05:30:00 11.4 C 88 % 9.49 C
644 10-09-2018 05:35:00 11.3 C 88 % 9.39 C
645 10-09-2018 05:40:00 11.2 C 88 % 9.29 C
646 10-09-2018 05:45:00 11.1 C 88 % 9.19 C
647 10-09-2018 05:50:00 11 C 88 % 9.09 C
648 10-09-2018 05:55:00 10.8 C 88 % 8.89 C
649 10-09-2018 06:00:00 10.8 C 88 % 8.89 C
650 10-09-2018 06:05:00 10.7 C 89 % 8.96 C
Sensor: Nr:Datum:Temp:Feuchte:Taupunkt:
Aussen-T/F 651 10-09-2018 06:10:00 10.7 C 89 % 8.96 C
652 10-09-2018 06:15:00 10.6 C 89 % 8.86 C
653 10-09-2018 06:20:00 10.6 C 89 % 8.86 C
654 10-09-2018 06:25:00 10.7 C 90 % 9.13 C
655 10-09-2018 06:30:00 10.8 C 90 % 9.23 C
656 10-09-2018 06:35:00 10.8 C 90 % 9.23 C
657 10-09-2018 06:40:00 10.8 C 90 % 9.23 C
658 10-09-2018 06:45:00 10.7 C 89 % 8.96 C
659 10-09-2018 06:50:00 10.7 C 89 % 8.96 C
660 10-09-2018 06:55:00 10.6 C 90 % 9.03 C
661 10-09-2018 07:00:00 10.7 C 90 % 9.13 C
662 10-09-2018 07:05:00 10.7 C 90 % 9.13 C
663 10-09-2018 07:10:00 10.8 C 90 % 9.23 C
664 10-09-2018 07:15:00 10.8 C 91 % 9.39 C
665 10-09-2018 07:20:00 10.9 C 91 % 9.49 C
666 10-09-2018 07:25:00 11 C 91 % 9.59 C
667 10-09-2018 07:30:00 11.1 C 91 % 9.69 C
668 10-09-2018 07:35:00 11.2 C 91 % 9.79 C
669 10-09-2018 07:40:00 11.3 C 91 % 9.89 C
670 10-09-2018 07:45:00 11.3 C 91 % 9.89 C
671 10-09-2018 07:50:00 11.5 C 91 % 10.08 C
672 10-09-2018 07:55:00 11.6 C 91 % 10.18 C
673 10-09-2018 08:00:00 11.8 C 91 % 10.38 C
674 10-09-2018 08:05:00 11.9 C 91 % 10.48 C
675 10-09-2018 08:10:00 12.2 C 91 % 10.78 C
Sensor: Nr:Datum:Temp:Feuchte:Taupunkt:
Aussen-T/F 676 10-09-2018 08:15:00 12.3 C 90 % 10.71 C
677 10-09-2018 08:20:00 12.6 C 90 % 11 C
678 10-09-2018 08:25:00 12.7 C 90 % 11.1 C
679 10-09-2018 08:30:00 12.9 C 90 % 11.3 C
680 10-09-2018 08:35:00 13.1 C 90 % 11.5 C
681 10-09-2018 08:40:00 13.2 C 89 % 11.43 C
682 10-09-2018 08:45:00 13.3 C 88 % 11.36 C
683 10-09-2018 08:50:00 13.5 C 88 % 11.55 C
684 10-09-2018 08:55:00 13.6 C 88 % 11.65 C
685 10-09-2018 09:00:00 13.7 C 87 % 11.58 C
686 10-09-2018 09:05:00 13.8 C 86 % 11.5 C
687 10-09-2018 09:10:00 14 C 86 % 11.7 C
688 10-09-2018 09:15:00 14.1 C 85 % 11.62 C
689 10-09-2018 09:20:00 14.3 C 85 % 11.81 C
690 10-09-2018 09:25:00 14.4 C 85 % 11.91 C
691 10-09-2018 09:30:00 14.7 C 85 % 12.21 C
692 10-09-2018 09:35:00 14.8 C 84 % 12.12 C
693 10-09-2018 09:40:00 15 C 84 % 12.32 C
694 10-09-2018 09:45:00 15.2 C 83 % 12.33 C
695 10-09-2018 09:50:00 15.3 C 83 % 12.43 C
696 10-09-2018 09:55:00 15.5 C 82 % 12.44 C
697 10-09-2018 10:00:00 15.7 C 81 % 12.45 C
698 10-09-2018 10:05:00 15.8 C 81 % 12.55 C
699 10-09-2018 10:10:00 15.9 C 79 % 12.27 C
700 10-09-2018 10:15:00 16 C 79 % 12.36 C
Sensor: Nr:Datum:Temp:Feuchte:Taupunkt:
Aussen-T/F 701 10-09-2018 10:20:00 16.1 C 78 % 12.27 C
702 10-09-2018 10:25:00 16.2 C 78 % 12.36 C
703 10-09-2018 10:30:00 16.3 C 77 % 12.26 C
704 10-09-2018 10:35:00 16.5 C 77 % 12.46 C
705 10-09-2018 10:40:00 16.7 C 76 % 12.45 C
706 10-09-2018 10:45:00 16.8 C 76 % 12.55 C
707 10-09-2018 10:50:00 16.9 C 74 % 12.24 C
708 10-09-2018 10:55:00 17.1 C 73 % 12.23 C
709 10-09-2018 11:00:00 17.2 C 73 % 12.32 C
710 10-09-2018 11:05:00 17.3 C 72 % 12.21 C
711 10-09-2018 11:10:00 17.5 C 72 % 12.4 C
712 10-09-2018 11:15:00 17.8 C 72 % 12.69 C
713 10-09-2018 11:20:00 18.1 C 71 % 12.76 C
714 10-09-2018 11:25:00 18.3 C 70 % 12.74 C
715 10-09-2018 11:30:00 18.6 C 70 % 13.02 C
716 10-09-2018 11:35:00 18.8 C 69 % 13 C
717 10-09-2018 11:40:00 19 C 70 % 13.41 C
718 10-09-2018 11:45:00 19.2 C 67 % 12.93 C
719 10-09-2018 11:50:00 19.5 C 67 % 13.21 C
720 10-09-2018 11:55:00 19.8 C 66 % 13.27 C
721 10-09-2018 12:00:00 20 C 64 % 12.99 C
722 10-09-2018 12:05:00 20.2 C 65 % 13.41 C
723 10-09-2018 12:10:00 20.3 C 62 % 12.79 C
724 10-09-2018 12:15:00 20.5 C 61 % 12.73 C
725 10-09-2018 12:20:00 20.7 C 61 % 12.91 C
Sensor: Nr:Datum:Temp:Feuchte:Taupunkt:
Aussen-T/F 726 10-09-2018 12:25:00 20.8 C 60 % 12.76 C
727 10-09-2018 12:30:00 21.2 C 59 % 12.87 C
728 10-09-2018 12:35:00 21.4 C 57 % 12.53 C
729 10-09-2018 12:40:00 21.7 C 57 % 12.81 C
730 10-09-2018 12:45:00 22 C 55 % 12.55 C
731 10-09-2018 12:50:00 22.2 C 54 % 12.45 C
732 10-09-2018 12:55:00 22.3 C 55 % 12.83 C
733 10-09-2018 13:00:00 22.4 C 55 % 12.92 C
734 10-09-2018 13:05:00 22.6 C 52 % 12.25 C
735 10-09-2018 13:10:00 22.7 C 53 % 12.63 C
736 10-09-2018 13:15:00 22.8 C 54 % 13.01 C
737 10-09-2018 13:20:00 23.1 C 54 % 13.29 C
738 10-09-2018 13:25:00 23.3 C 53 % 13.19 C
739 10-09-2018 13:30:00 23.6 C 52 % 13.17 C
740 10-09-2018 13:35:00 23.8 C 52 % 13.36 C
741 10-09-2018 13:40:00 23.9 C 51 % 13.15 C
742 10-09-2018 13:45:00 24.2 C 51 % 13.43 C
743 10-09-2018 13:50:00 24.5 C 51 % 13.7 C
744 10-09-2018 13:55:00 24.8 C 50 % 13.67 C
745 10-09-2018 14:00:00 25.1 C 49 % 13.64 C
746 10-09-2018 14:05:00 25.3 C 48 % 13.5 C
747 10-09-2018 14:10:00 25.5 C 48 % 13.69 C
748 10-09-2018 14:15:00 25.6 C 48 % 13.78 C
749 10-09-2018 14:20:00 25.8 C 48 % 13.96 C
750 10-09-2018 14:25:00 25.9 C 48 % 14.05 C
Sensor: Nr:Datum:Temp:Feuchte:Taupunkt:
Aussen-T/F 751 10-09-2018 14:30:00 26.1 C 48 % 14.23 C
752 10-09-2018 14:35:00 26.3 C 48 % 14.42 C
753 10-09-2018 14:40:00 26.5 C 47 % 14.27 C
754 10-09-2018 14:45:00 26.7 C 46 % 14.12 C
755 10-09-2018 14:50:00 26.8 C 46 % 14.21 C
756 10-09-2018 14:55:00 26.8 C 46 % 14.21 C
757 10-09-2018 15:00:00 26.9 C 47 % 14.64 C
758 10-09-2018 15:05:00 27.1 C 46 % 14.49 C
759 10-09-2018 15:10:00 27.3 C 45 % 14.33 C
760 10-09-2018 15:15:00 27.3 C 45 % 14.33 C
761 10-09-2018 15:20:00 27.4 C 45 % 14.42 C
762 10-09-2018 15:25:00 27.3 C 44 % 13.98 C
763 10-09-2018 15:30:00 27.1 C 45 % 14.15 C
764 10-09-2018 15:35:00 26.6 C 46 % 14.03 C
765 10-09-2018 15:40:00 26.3 C 47 % 14.09 C
766 10-09-2018 15:45:00 26 C 47 % 13.82 C
767 10-09-2018 15:50:00 25.8 C 47 % 13.64 C
768 10-09-2018 15:55:00 25.7 C 48 % 13.87 C
769 10-09-2018 16:00:00 25.6 C 48 % 13.78 C
770 10-09-2018 16:05:00 25.6 C 48 % 13.78 C
771 10-09-2018 16:10:00 25.6 C 48 % 13.78 C
772 10-09-2018 16:15:00 25.8 C 48 % 13.96 C
773 10-09-2018 16:20:00 25.9 C 46 % 13.4 C
774 10-09-2018 16:25:00 25.9 C 47 % 13.73 C
775 10-09-2018 16:30:00 25.8 C 46 % 13.31 C
Sensor: Nr:Datum:Temp:Feuchte:Taupunkt:
Aussen-T/F 776 10-09-2018 16:35:00 25.6 C 47 % 13.45 C
777 10-09-2018 16:40:00 25.4 C 47 % 13.27 C
778 10-09-2018 16:45:00 25.3 C 48 % 13.5 C
779 10-09-2018 16:50:00 25.3 C 48 % 13.5 C
780 10-09-2018 16:55:00 25.2 C 48 % 13.41 C
781 10-09-2018 17:00:00 25.1 C 48 % 13.32 C
782 10-09-2018 17:05:00 24.9 C 48 % 13.14 C
783 10-09-2018 17:10:00 24.7 C 49 % 13.27 C
784 10-09-2018 17:15:00 24.5 C 50 % 13.4 C
785 10-09-2018 17:20:00 24.3 C 50 % 13.22 C
786 10-09-2018 17:25:00 24.2 C 51 % 13.43 C
787 10-09-2018 17:30:00 24.1 C 51 % 13.34 C
788 10-09-2018 17:35:00 24 C 52 % 13.54 C
789 10-09-2018 17:40:00 23.9 C 53 % 13.74 C
790 10-09-2018 17:45:00 23.8 C 53 % 13.65 C
791 10-09-2018 17:50:00 23.7 C 54 % 13.84 C
792 10-09-2018 17:55:00 23.7 C 54 % 13.84 C
793 10-09-2018 18:00:00 23.7 C 55 % 14.13 C
794 10-09-2018 18:05:00 23.6 C 55 % 14.03 C
795 10-09-2018 18:10:00 23.6 C 54 % 13.75 C
796 10-09-2018 18:15:00 23.5 C 54 % 13.66 C
797 10-09-2018 18:20:00 23.5 C 54 % 13.66 C
798 10-09-2018 18:25:00 23.6 C 54 % 13.75 C
799 10-09-2018 18:30:00 23.7 C 54 % 13.84 C
800 10-09-2018 18:35:00 23.7 C 53 % 13.56 C
Sensor: Nr:Datum:Temp:Feuchte:Taupunkt:
Aussen-T/F 801 10-09-2018 18:40:00 23.7 C 53 % 13.56 C
802 10-09-2018 18:45:00 23.6 C 53 % 13.46 C
803 10-09-2018 18:50:00 23.4 C 54 % 13.57 C
804 10-09-2018 18:55:00 23.4 C 53 % 13.28 C
805 10-09-2018 19:00:00 23.2 C 54 % 13.38 C
806 10-09-2018 19:05:00 22.9 C 55 % 13.38 C
807 10-09-2018 19:10:00 22.7 C 56 % 13.47 C
808 10-09-2018 19:15:00 22.6 C 56 % 13.38 C
809 10-09-2018 19:20:00 22.3 C 57 % 13.37 C
810 10-09-2018 19:25:00 22.2 C 57 % 13.28 C
811 10-09-2018 19:30:00 22 C 58 % 13.36 C
812 10-09-2018 19:35:00 21.9 C 59 % 13.53 C
813 10-09-2018 19:40:00 21.8 C 59 % 13.44 C
814 10-09-2018 19:45:00 21.7 C 60 % 13.6 C
815 10-09-2018 19:50:00 21.6 C 60 % 13.51 C
816 10-09-2018 19:55:00 21.4 C 60 % 13.32 C
817 10-09-2018 20:00:00 21.3 C 61 % 13.48 C
818 10-09-2018 20:05:00 21.1 C 62 % 13.54 C
819 10-09-2018 20:10:00 20.8 C 63 % 13.5 C
820 10-09-2018 20:15:00 20.6 C 63 % 13.31 C
821 10-09-2018 20:20:00 20.3 C 65 % 13.51 C
822 10-09-2018 20:25:00 20.1 C 65 % 13.32 C
823 10-09-2018 20:30:00 19.8 C 66 % 13.27 C
824 10-09-2018 20:35:00 19.5 C 67 % 13.21 C
825 10-09-2018 20:40:00 19.3 C 68 % 13.25 C
Sensor: Nr:Datum:Temp:Feuchte:Taupunkt:
Aussen-T/F 826 10-09-2018 20:45:00 19.1 C 69 % 13.28 C
827 10-09-2018 20:50:00 18.9 C 69 % 13.09 C
828 10-09-2018 20:55:00 18.7 C 70 % 13.12 C
829 10-09-2018 21:00:00 18.6 C 71 % 13.24 C
830 10-09-2018 21:05:00 18.4 C 71 % 13.05 C
831 10-09-2018 21:10:00 18.3 C 72 % 13.17 C
832 10-09-2018 21:15:00 18.2 C 72 % 13.07 C
833 10-09-2018 21:20:00 18.1 C 72 % 12.98 C
834 10-09-2018 21:25:00 18.1 C 73 % 13.19 C
835 10-09-2018 21:30:00 17.9 C 73 % 12.99 C
836 10-09-2018 21:35:00 17.9 C 74 % 13.2 C
837 10-09-2018 21:40:00 17.8 C 74 % 13.11 C
838 10-09-2018 21:45:00 17.7 C 74 % 13.01 C
839 10-09-2018 21:50:00 17.7 C 74 % 13.01 C
840 10-09-2018 21:55:00 17.6 C 75 % 13.12 C
841 10-09-2018 22:00:00 17.5 C 75 % 13.02 C
842 10-09-2018 22:05:00 17.5 C 75 % 13.02 C
843 10-09-2018 22:10:00 17.4 C 75 % 12.93 C
844 10-09-2018 22:15:00 17.3 C 75 % 12.83 C
845 10-09-2018 22:20:00 17.3 C 75 % 12.83 C
846 10-09-2018 22:25:00 17.1 C 76 % 12.84 C
847 10-09-2018 22:30:00 16.9 C 76 % 12.65 C
848 10-09-2018 22:35:00 16.8 C 76 % 12.55 C
849 10-09-2018 22:40:00 16.6 C 77 % 12.55 C
850 10-09-2018 22:45:00 16.4 C 78 % 12.56 C
Sensor: Nr:Datum:Temp:Feuchte:Taupunkt:
Aussen-T/F 851 10-09-2018 22:50:00 16.2 C 78 % 12.36 C
852 10-09-2018 22:55:00 16 C 79 % 12.36 C
853 10-09-2018 23:00:00 15.8 C 80 % 12.36 C
854 10-09-2018 23:05:00 15.8 C 80 % 12.36 C
855 10-09-2018 23:10:00 15.7 C 81 % 12.45 C
856 10-09-2018 23:15:00 15.6 C 81 % 12.35 C
857 10-09-2018 23:20:00 15.6 C 81 % 12.35 C
858 10-09-2018 23:25:00 15.5 C 82 % 12.44 C
859 10-09-2018 23:30:00 15.4 C 82 % 12.35 C
860 10-09-2018 23:35:00 15.3 C 82 % 12.25 C
861 10-09-2018 23:40:00 15.3 C 83 % 12.43 C
862 10-09-2018 23:45:00 15.3 C 83 % 12.43 C
863 10-09-2018 23:50:00 15.2 C 83 % 12.33 C
864 10-09-2018 23:55:00 15.2 C 83 % 12.33 C
865 11-09-2018 00:00:00 15.1 C 83 % 12.24 C
866 11-09-2018 00:05:00 15.1 C 83 % 12.24 C
867 11-09-2018 00:10:00 15 C 84 % 12.32 C
868 11-09-2018 00:15:00 14.9 C 84 % 12.22 C
869 11-09-2018 00:20:00 14.9 C 84 % 12.22 C
870 11-09-2018 00:25:00 14.9 C 85 % 12.4 C
871 11-09-2018 00:30:00 14.8 C 84 % 12.12 C
872 11-09-2018 00:35:00 14.8 C 84 % 12.12 C
873 11-09-2018 00:40:00 14.7 C 84 % 12.03 C
874 11-09-2018 00:45:00 14.6 C 84 % 11.93 C
875 11-09-2018 00:50:00 14.5 C 85 % 12.01 C
Sensor: Nr:Datum:Temp:Feuchte:Taupunkt:
Aussen-T/F 876 11-09-2018 00:55:00 14.4 C 85 % 11.91 C
877 11-09-2018 01:00:00 14.4 C 85 % 11.91 C
878 11-09-2018 01:05:00 14.3 C 86 % 11.99 C
879 11-09-2018 01:10:00 14.3 C 86 % 11.99 C
880 11-09-2018 01:15:00 14.3 C 86 % 11.99 C
881 11-09-2018 01:20:00 14.3 C 86 % 11.99 C
882 11-09-2018 01:25:00 14.3 C 87 % 12.17 C
883 11-09-2018 01:30:00 14.3 C 87 % 12.17 C
884 11-09-2018 01:35:00 14.3 C 87 % 12.17 C
885 11-09-2018 01:40:00 14.3 C 87 % 12.17 C
886 11-09-2018 01:45:00 14.3 C 87 % 12.17 C
887 11-09-2018 01:50:00 14.3 C 87 % 12.17 C
888 11-09-2018 01:55:00 14.3 C 87 % 12.17 C
889 11-09-2018 02:00:00 14.2 C 87 % 12.07 C
890 11-09-2018 02:05:00 14.2 C 87 % 12.07 C
891 11-09-2018 02:10:00 14.2 C 87 % 12.07 C
892 11-09-2018 02:15:00 14.1 C 87 % 11.97 C
893 11-09-2018 02:20:00 14.1 C 87 % 11.97 C
894 11-09-2018 02:25:00 14.1 C 87 % 11.97 C
895 11-09-2018 02:30:00 14 C 87 % 11.87 C
896 11-09-2018 02:35:00 13.9 C 87 % 11.77 C
897 11-09-2018 02:40:00 13.9 C 87 % 11.77 C
898 11-09-2018 02:45:00 13.9 C 87 % 11.77 C
899 11-09-2018 02:50:00 13.8 C 88 % 11.85 C
900 11-09-2018 02:55:00 13.8 C 88 % 11.85 C
Sensor: Nr:Datum:Temp:Feuchte:Taupunkt:
Aussen-T/F 901 11-09-2018 03:00:00 13.8 C 88 % 11.85 C
902 11-09-2018 03:05:00 13.8 C 88 % 11.85 C
903 11-09-2018 03:10:00 13.7 C 88 % 11.75 C
904 11-09-2018 03:15:00 13.7 C 89 % 11.92 C
905 11-09-2018 03:20:00 13.6 C 88 % 11.65 C
906 11-09-2018 03:25:00 13.4 C 88 % 11.45 C
907 11-09-2018 03:30:00 13.3 C 89 % 11.53 C
908 11-09-2018 03:35:00 13.2 C 88 % 11.26 C
909 11-09-2018 03:40:00 12.9 C 88 % 10.96 C
910 11-09-2018 03:45:00 12.8 C 89 % 11.03 C
911 11-09-2018 03:50:00 12.7 C 89 % 10.94 C
912 11-09-2018 03:55:00 12.6 C 89 % 10.84 C
913 11-09-2018 04:00:00 12.4 C 90 % 10.81 C
914 11-09-2018 04:05:00 12.4 C 90 % 10.81 C
915 11-09-2018 04:10:00 12.3 C 90 % 10.71 C
916 11-09-2018 04:15:00 12.4 C 91 % 10.97 C
917 11-09-2018 04:20:00 12.5 C 91 % 11.07 C
918 11-09-2018 04:25:00 12.5 C 91 % 11.07 C
919 11-09-2018 04:30:00 12.5 C 92 % 11.24 C
920 11-09-2018 04:35:00 12.6 C 92 % 11.34 C
921 11-09-2018 04:40:00 12.6 C 92 % 11.34 C
922 11-09-2018 04:45:00 12.6 C 92 % 11.34 C
923 11-09-2018 04:50:00 12.5 C 92 % 11.24 C
924 11-09-2018 04:55:00 12.5 C 92 % 11.24 C
925 11-09-2018 05:00:00 12.5 C 92 % 11.24 C
Sensor: Nr:Datum:Temp:Feuchte:Taupunkt:
Aussen-T/F 926 11-09-2018 05:05:00 12.5 C 92 % 11.24 C
927 11-09-2018 05:10:00 12.5 C 92 % 11.24 C
928 11-09-2018 05:15:00 12.4 C 92 % 11.14 C
929 11-09-2018 05:20:00 12.3 C 91 % 10.87 C
930 11-09-2018 05:25:00 12.2 C 91 % 10.78 C
931 11-09-2018 05:30:00 12.1 C 91 % 10.68 C
932 11-09-2018 05:35:00 12.1 C 92 % 10.84 C
933 11-09-2018 05:40:00 12.1 C 92 % 10.84 C
934 11-09-2018 05:45:00 12 C 92 % 10.74 C
935 11-09-2018 05:50:00 12 C 92 % 10.74 C
936 11-09-2018 05:55:00 11.9 C 92 % 10.64 C
937 11-09-2018 06:00:00 11.9 C 92 % 10.64 C
938 11-09-2018 06:05:00 11.9 C 92 % 10.64 C
939 11-09-2018 06:10:00 11.8 C 92 % 10.54 C
940 11-09-2018 06:15:00 11.8 C 92 % 10.54 C
941 11-09-2018 06:20:00 11.8 C 93 % 10.71 C
942 11-09-2018 06:25:00 11.8 C 93 % 10.71 C
943 11-09-2018 06:30:00 11.8 C 93 % 10.71 C
944 11-09-2018 06:35:00 11.7 C 93 % 10.61 C
945 11-09-2018 06:40:00 11.7 C 93 % 10.61 C
946 11-09-2018 06:45:00 11.7 C 93 % 10.61 C
947 11-09-2018 06:50:00 11.7 C 93 % 10.61 C
948 11-09-2018 06:55:00 11.7 C 93 % 10.61 C
949 11-09-2018 07:00:00 11.7 C 93 % 10.61 C
950 11-09-2018 07:05:00 11.8 C 93 % 10.71 C
Sensor: Nr:Datum:Temp:Feuchte:Taupunkt:
Aussen-T/F 951 11-09-2018 07:10:00 11.9 C 93 % 10.81 C
952 11-09-2018 07:15:00 11.8 C 93 % 10.71 C
953 11-09-2018 07:20:00 11.6 C 92 % 10.35 C
954 11-09-2018 07:25:00 11.5 C 92 % 10.25 C
955 11-09-2018 07:30:00 11.5 C 93 % 10.41 C
956 11-09-2018 07:35:00 11.6 C 93 % 10.51 C
957 11-09-2018 07:40:00 11.6 C 93 % 10.51 C
958 11-09-2018 07:45:00 11.7 C 94 % 10.77 C
959 11-09-2018 07:50:00 11.8 C 94 % 10.87 C
960 11-09-2018 07:55:00 11.9 C 94 % 10.97 C
961 11-09-2018 08:00:00 12 C 94 % 11.07 C
962 11-09-2018 08:05:00 12.2 C 94 % 11.26 C
963 11-09-2018 08:10:00 12.3 C 94 % 11.36 C
964 11-09-2018 08:15:00 12.3 C 94 % 11.36 C
965 11-09-2018 08:20:00 12.4 C 94 % 11.46 C
966 11-09-2018 08:25:00 12.7 C 94 % 11.76 C
967 11-09-2018 08:30:00 12.8 C 94 % 11.86 C
968 11-09-2018 08:35:00 12.9 C 94 % 11.96 C
969 11-09-2018 08:40:00 13.1 C 93 % 11.99 C
970 11-09-2018 08:45:00 13.2 C 92 % 11.93 C
971 11-09-2018 08:50:00 13.3 C 92 % 12.03 C
972 11-09-2018 08:55:00 13.3 C 91 % 11.86 C
973 11-09-2018 09:00:00 13.5 C 91 % 12.06 C
974 11-09-2018 09:05:00 13.6 C 91 % 12.16 C
975 11-09-2018 09:10:00 13.7 C 91 % 12.26 C
Sensor: Nr:Datum:Temp:Feuchte:Taupunkt:
Aussen-T/F 976 11-09-2018 09:15:00 13.8 C 91 % 12.36 C
977 11-09-2018 09:20:00 13.9 C 91 % 12.46 C
978 11-09-2018 09:25:00 14 C 91 % 12.56 C
979 11-09-2018 09:30:00 14.2 C 91 % 12.75 C
980 11-09-2018 09:35:00 14.4 C 91 % 12.95 C
981 11-09-2018 09:40:00 14.6 C 91 % 13.15 C
982 11-09-2018 09:45:00 14.8 C 91 % 13.35 C
983 11-09-2018 09:50:00 15.1 C 90 % 13.47 C
984 11-09-2018 09:55:00 15.7 C 87 % 13.54 C
985 11-09-2018 10:00:00 16.2 C 85 % 13.68 C
986 11-09-2018 10:05:00 16.8 C 82 % 13.71 C
987 11-09-2018 10:10:00 17.3 C 79 % 13.63 C
988 11-09-2018 10:15:00 17.8 C 78 % 13.91 C
989 11-09-2018 10:20:00 18 C 77 % 13.91 C
990 11-09-2018 10:25:00 18.2 C 76 % 13.9 C
991 11-09-2018 10:30:00 18.4 C 75 % 13.89 C
992 11-09-2018 10:35:00 18.5 C 75 % 13.99 C
993 11-09-2018 10:40:00 18.6 C 74 % 13.88 C
994 11-09-2018 10:45:00 18.7 C 74 % 13.97 C
995 11-09-2018 10:50:00 18.7 C 74 % 13.97 C
996 11-09-2018 10:55:00 18.8 C 74 % 14.07 C
997 11-09-2018 11:00:00 18.8 C 73 % 13.86 C
998 11-09-2018 11:05:00 18.9 C 73 % 13.96 C
999 11-09-2018 11:10:00 19 C 72 % 13.84 C
1000 11-09-2018 11:15:00 19.1 C 72 % 13.94 C
Sensor: Nr:Datum:Temp:Feuchte:Taupunkt:
Aussen-T/F 1001 11-09-2018 11:20:00 19.2 C 71 % 13.82 C
1002 11-09-2018 11:25:00 19.2 C 72 % 14.03 C
1003 11-09-2018 11:30:00 19.2 C 72 % 14.03 C
1004 11-09-2018 11:35:00 19.3 C 71 % 13.91 C
1005 11-09-2018 11:40:00 19.3 C 71 % 13.91 C
1006 11-09-2018 11:45:00 19.4 C 71 % 14.01 C
1007 11-09-2018 11:50:00 19.6 C 70 % 13.98 C
1008 11-09-2018 11:55:00 19.8 C 70 % 14.17 C
1009 11-09-2018 12:00:00 20.1 C 69 % 14.24 C
1010 11-09-2018 12:05:00 20.2 C 69 % 14.33 C
1011 11-09-2018 12:10:00 20.4 C 68 % 14.3 C
1012 11-09-2018 12:15:00 20.6 C 67 % 14.26 C
1013 11-09-2018 12:20:00 20.8 C 66 % 14.22 C
1014 11-09-2018 12:25:00 21 C 66 % 14.41 C
1015 11-09-2018 12:30:00 21.2 C 65 % 14.36 C
1016 11-09-2018 12:35:00 21.3 C 65 % 14.46 C
1017 11-09-2018 12:40:00 21.4 C 64 % 14.31 C
1018 11-09-2018 12:45:00 21.6 C 63 % 14.26 C
1019 11-09-2018 12:50:00 21.8 C 63 % 14.45 C
1020 11-09-2018 12:55:00 22 C 62 % 14.39 C
1021 11-09-2018 13:00:00 22.2 C 61 % 14.32 C
1022 11-09-2018 13:05:00 22.3 C 61 % 14.42 C
1023 11-09-2018 13:10:00 22.5 C 60 % 14.35 C
1024 11-09-2018 13:15:00 22.7 C 59 % 14.28 C
1025 11-09-2018 13:20:00 22.8 C 57 % 13.84 C
Sensor: Nr:Datum:Temp:Feuchte:Taupunkt:
Aussen-T/F 1026 11-09-2018 13:25:00 22.9 C 58 % 14.2 C
1027 11-09-2018 13:30:00 23.1 C 57 % 14.12 C
1028 11-09-2018 13:35:00 23.1 C 56 % 13.85 C
1029 11-09-2018 13:40:00 23.3 C 56 % 14.03 C
1030 11-09-2018 13:45:00 23.4 C 56 % 14.13 C
1031 11-09-2018 13:50:00 23.6 C 55 % 14.03 C
1032 11-09-2018 13:55:00 23.7 C 55 % 14.13 C
1033 11-09-2018 14:00:00 23.8 C 54 % 13.94 C
1034 11-09-2018 14:05:00 23.9 C 53 % 13.74 C
1035 11-09-2018 14:10:00 24.1 C 53 % 13.93 C
1036 11-09-2018 14:15:00 24.2 C 53 % 14.02 C
1037 11-09-2018 14:20:00 24.3 C 53 % 14.11 C
1038 11-09-2018 14:25:00 24.4 C 52 % 13.91 C
1039 11-09-2018 14:30:00 24.7 C 52 % 14.19 C
1040 11-09-2018 14:35:00 24.8 C 52 % 14.28 C
1041 11-09-2018 14:40:00 24.9 C 51 % 14.07 C
1042 11-09-2018 14:45:00 25.1 C 51 % 14.25 C
1043 11-09-2018 14:50:00 25.2 C 50 % 14.04 C
1044 11-09-2018 14:55:00 25.2 C 50 % 14.04 C
1045 11-09-2018 15:00:00 25.3 C 50 % 14.13 C
1046 11-09-2018 15:05:00 25.4 C 51 % 14.53 C
1047 11-09-2018 15:10:00 25.6 C 47 % 13.45 C
1048 11-09-2018 15:15:00 25.8 C 46 % 13.31 C
1049 11-09-2018 15:20:00 25.9 C 46 % 13.4 C
1050 11-09-2018 15:25:00 26.1 C 46 % 13.58 C
Sensor: Nr:Datum:Temp:Feuchte:Taupunkt:
Aussen-T/F 1051 11-09-2018 15:30:00 26.2 C 46 % 13.67 C
1052 11-09-2018 15:35:00 26.2 C 45 % 13.33 C
1053 11-09-2018 15:40:00 26.2 C 45 % 13.33 C
1054 11-09-2018 15:45:00 26.2 C 44 % 12.99 C
1055 11-09-2018 15:50:00 26.3 C 44 % 13.08 C
1056 11-09-2018 15:55:00 26.4 C 44 % 13.17 C
1057 11-09-2018 16:00:00 26.6 C 44 % 13.35 C
1058 11-09-2018 16:05:00 26.7 C 43 % 13.09 C
1059 11-09-2018 16:10:00 26.8 C 43 % 13.18 C
1060 11-09-2018 16:15:00 26.9 C 43 % 13.27 C
1061 11-09-2018 16:20:00 27.2 C 42 % 13.18 C
1062 11-09-2018 16:25:00 27.3 C 42 % 13.27 C
1063 11-09-2018 16:30:00 27.3 C 41 % 12.9 C
1064 11-09-2018 16:35:00 27.4 C 41 % 12.99 C
1065 11-09-2018 16:40:00 27.6 C 42 % 13.53 C
1066 11-09-2018 16:45:00 27.8 C 41 % 13.34 C
1067 11-09-2018 16:50:00 28.1 C 40 % 13.23 C
1068 11-09-2018 16:55:00 28.3 C 41 % 13.79 C
1069 11-09-2018 17:00:00 28.6 C 40 % 13.68 C
1070 11-09-2018 17:05:00 28.8 C 39 % 13.47 C
1071 11-09-2018 17:10:00 28.9 C 39 % 13.56 C
1072 11-09-2018 17:15:00 28.9 C 39 % 13.56 C
1073 11-09-2018 17:20:00 29 C 39 % 13.65 C
1074 11-09-2018 17:25:00 29 C 38 % 13.25 C
1075 11-09-2018 17:30:00 28.9 C 40 % 13.95 C
Sensor: Nr:Datum:Temp:Feuchte:Taupunkt:
Aussen-T/F 1076 11-09-2018 17:35:00 29.2 C 39 % 13.82 C
1077 11-09-2018 17:40:00 29.2 C 38 % 13.42 C
1078 11-09-2018 17:45:00 29.3 C 38 % 13.51 C
1079 11-09-2018 17:50:00 29.2 C 38 % 13.42 C
1080 11-09-2018 17:55:00 29.3 C 38 % 13.51 C
1081 11-09-2018 18:00:00 29.1 C 38 % 13.34 C
1082 11-09-2018 18:05:00 28.9 C 38 % 13.16 C
1083 11-09-2018 18:10:00 28.9 C 39 % 13.56 C
1084 11-09-2018 18:15:00 28.9 C 40 % 13.95 C
1085 11-09-2018 18:20:00 29.1 C 38 % 13.34 C
1086 11-09-2018 18:25:00 28.9 C 38 % 13.16 C
1087 11-09-2018 18:30:00 28.8 C 38 % 13.07 C
1088 11-09-2018 18:35:00 28.6 C 39 % 13.29 C
1089 11-09-2018 18:40:00 28.5 C 40 % 13.59 C
1090 11-09-2018 18:45:00 28.4 C 41 % 13.88 C
1091 11-09-2018 18:50:00 28.3 C 38 % 12.63 C
1092 11-09-2018 18:55:00 28.1 C 39 % 12.85 C
1093 11-09-2018 19:00:00 27.8 C 40 % 12.97 C
1094 11-09-2018 19:05:00 27.8 C 42 % 13.71 C
1095 11-09-2018 19:10:00 27.6 C 41 % 13.16 C
1096 11-09-2018 19:15:00 27.4 C 41 % 12.99 C
1097 11-09-2018 19:20:00 27.2 C 43 % 13.54 C
1098 11-09-2018 19:25:00 26.9 C 49 % 15.28 C
1099 11-09-2018 19:30:00 26.3 C 46 % 13.76 C
1100 11-09-2018 19:35:00 25.4 C 47 % 13.27 C
Sensor: Nr:Datum:Temp:Feuchte:Taupunkt:
Aussen-T/F 1101 11-09-2018 19:40:00 24.8 C 48 % 13.05 C
1102 11-09-2018 19:45:00 24.3 C 50 % 13.22 C
1103 11-09-2018 19:50:00 23.7 C 50 % 12.67 C
1104 11-09-2018 19:55:00 23.2 C 52 % 12.8 C
1105 11-09-2018 20:00:00 22.8 C 53 % 12.73 C
1106 11-09-2018 20:05:00 22.5 C 55 % 13.01 C
1107 11-09-2018 20:10:00 22.3 C 54 % 12.55 C
1108 11-09-2018 20:15:00 22.1 C 55 % 12.64 C
1109 11-09-2018 20:20:00 21.8 C 56 % 12.64 C
1110 11-09-2018 20:25:00 21.7 C 57 % 12.81 C
1111 11-09-2018 20:30:00 21.4 C 57 % 12.53 C
1112 11-09-2018 20:35:00 21.2 C 59 % 12.87 C
1113 11-09-2018 20:40:00 21 C 59 % 12.69 C
1114 11-09-2018 20:45:00 20.8 C 60 % 12.76 C
1115 11-09-2018 20:50:00 20.7 C 60 % 12.66 C
1116 11-09-2018 20:55:00 20.6 C 61 % 12.82 C
1117 11-09-2018 21:00:00 20.5 C 61 % 12.73 C
1118 11-09-2018 21:05:00 20.4 C 62 % 12.88 C
1119 11-09-2018 21:10:00 20.3 C 62 % 12.79 C
1120 11-09-2018 21:15:00 20.1 C 62 % 12.6 C
1121 11-09-2018 21:20:00 19.9 C 62 % 12.41 C
1122 11-09-2018 21:25:00 19.8 C 63 % 12.56 C
1123 11-09-2018 21:30:00 19.7 C 63 % 12.46 C
1124 11-09-2018 21:35:00 19.6 C 63 % 12.37 C
1125 11-09-2018 21:40:00 19.6 C 63 % 12.37 C
Sensor: Nr:Datum:Temp:Feuchte:Taupunkt:
Aussen-T/F 1126 11-09-2018 21:45:00 19.5 C 64 % 12.51 C
1127 11-09-2018 21:50:00 19.5 C 63 % 12.27 C
1128 11-09-2018 21:55:00 19.5 C 64 % 12.51 C
1129 11-09-2018 22:00:00 19.4 C 64 % 12.42 C
1130 11-09-2018 22:05:00 19.4 C 64 % 12.42 C
1131 11-09-2018 22:10:00 19.3 C 64 % 12.32 C
1132 11-09-2018 22:15:00 19.3 C 64 % 12.32 C
1133 11-09-2018 22:20:00 19.2 C 65 % 12.47 C
1134 11-09-2018 22:25:00 19.1 C 65 % 12.37 C
1135 11-09-2018 22:30:00 19 C 65 % 12.28 C
1136 11-09-2018 22:35:00 18.9 C 66 % 12.41 C
1137 11-09-2018 22:40:00 18.8 C 66 % 12.32 C
1138 11-09-2018 22:45:00 18.7 C 67 % 12.45 C
1139 11-09-2018 22:50:00 18.6 C 67 % 12.36 C
1140 11-09-2018 22:55:00 18.4 C 68 % 12.39 C
1141 11-09-2018 23:00:00 18.3 C 68 % 12.3 C
1142 11-09-2018 23:05:00 18.2 C 69 % 12.42 C
1143 11-09-2018 23:10:00 18.1 C 69 % 12.33 C
1144 11-09-2018 23:15:00 17.9 C 70 % 12.35 C
1145 11-09-2018 23:20:00 17.8 C 70 % 12.26 C
1146 11-09-2018 23:25:00 17.7 C 70 % 12.16 C
1147 11-09-2018 23:30:00 17.7 C 71 % 12.38 C
1148 11-09-2018 23:35:00 17.6 C 71 % 12.28 C
1149 11-09-2018 23:40:00 17.5 C 72 % 12.4 C
1150 11-09-2018 23:45:00 17.4 C 72 % 12.3 C
Sensor: Nr:Datum:Temp:Feuchte:Taupunkt:
Aussen-T/F 1151 11-09-2018 23:50:00 17.3 C 72 % 12.21 C
1152 11-09-2018 23:55:00 17.2 C 73 % 12.32 C
1153 12-09-2018 00:00:00 17.1 C 73 % 12.23 C
1154 12-09-2018 00:05:00 17 C 74 % 12.34 C
1155 12-09-2018 00:10:00 16.9 C 74 % 12.24 C
1156 12-09-2018 00:15:00 16.8 C 74 % 12.14 C
1157 12-09-2018 00:20:00 16.7 C 74 % 12.05 C
1158 12-09-2018 00:25:00 16.7 C 74 % 12.05 C
1159 12-09-2018 00:30:00 16.6 C 74 % 11.95 C
1160 12-09-2018 00:35:00 16.4 C 75 % 11.96 C
1161 12-09-2018 00:40:00 16.3 C 75 % 11.86 C
1162 12-09-2018 00:45:00 16.2 C 75 % 11.77 C
1163 12-09-2018 00:50:00 16.2 C 77 % 12.17 C
1164 12-09-2018 00:55:00 16.2 C 77 % 12.17 C
1165 12-09-2018 01:00:00 16.1 C 77 % 12.07 C
1166 12-09-2018 01:05:00 15.8 C 77 % 11.78 C
1167 12-09-2018 01:10:00 15.6 C 78 % 11.78 C
1168 12-09-2018 01:15:00 15.5 C 78 % 11.68 C
1169 12-09-2018 01:20:00 15.4 C 79 % 11.78 C
1170 12-09-2018 01:25:00 15.4 C 78 % 11.59 C
1171 12-09-2018 01:30:00 15.4 C 78 % 11.59 C
1172 12-09-2018 01:35:00 15.3 C 80 % 11.87 C
1173 12-09-2018 01:40:00 15.2 C 80 % 11.78 C
1174 12-09-2018 01:45:00 15 C 80 % 11.58 C
1175 12-09-2018 01:50:00 14.9 C 80 % 11.48 C
Sensor: Nr:Datum:Temp:Feuchte:Taupunkt:
Aussen-T/F 1176 12-09-2018 01:55:00 14.8 C 81 % 11.57 C
1177 12-09-2018 02:00:00 14.8 C 81 % 11.57 C
1178 12-09-2018 02:05:00 14.8 C 80 % 11.39 C
1179 12-09-2018 02:10:00 14.7 C 81 % 11.48 C
1180 12-09-2018 02:15:00 14.5 C 81 % 11.28 C
1181 12-09-2018 02:20:00 14.3 C 81 % 11.09 C
1182 12-09-2018 02:25:00 14.2 C 82 % 11.17 C
1183 12-09-2018 02:30:00 14.1 C 83 % 11.26 C
1184 12-09-2018 02:35:00 14 C 83 % 11.16 C
1185 12-09-2018 02:40:00 14 C 84 % 11.34 C
1186 12-09-2018 02:45:00 13.9 C 84 % 11.24 C
1187 12-09-2018 02:50:00 13.9 C 84 % 11.24 C
1188 12-09-2018 02:55:00 13.8 C 84 % 11.15 C
1189 12-09-2018 03:00:00 13.8 C 85 % 11.32 C
1190 12-09-2018 03:05:00 14.1 C 86 % 11.8 C
1191 12-09-2018 03:10:00 14.1 C 83 % 11.26 C
1192 12-09-2018 03:15:00 13.9 C 84 % 11.24 C
1193 12-09-2018 03:20:00 13.9 C 84 % 11.24 C
1194 12-09-2018 03:25:00 13.9 C 84 % 11.24 C
1195 12-09-2018 03:30:00 13.8 C 84 % 11.15 C
1196 12-09-2018 03:35:00 13.7 C 84 % 11.05 C
1197 12-09-2018 03:40:00 13.6 C 84 % 10.95 C
1198 12-09-2018 03:45:00 13.4 C 84 % 10.75 C
1199 12-09-2018 03:50:00 13.3 C 85 % 10.83 C
1200 12-09-2018 03:55:00 13.2 C 86 % 10.91 C
Sensor: Nr:Datum:Temp:Feuchte:Taupunkt:
Aussen-T/F 1201 12-09-2018 04:00:00 13.2 C 86 % 10.91 C
1202 12-09-2018 04:05:00 13.2 C 86 % 10.91 C
1203 12-09-2018 04:10:00 13.2 C 86 % 10.91 C
1204 12-09-2018 04:15:00 13.1 C 86 % 10.81 C
1205 12-09-2018 04:20:00 13 C 86 % 10.72 C
1206 12-09-2018 04:25:00 12.9 C 86 % 10.62 C
1207 12-09-2018 04:30:00 12.9 C 86 % 10.62 C
1208 12-09-2018 04:35:00 12.9 C 87 % 10.79 C
1209 12-09-2018 04:40:00 12.9 C 87 % 10.79 C
1210 12-09-2018 04:45:00 12.9 C 87 % 10.79 C
1211 12-09-2018 04:50:00 12.8 C 87 % 10.69 C
1212 12-09-2018 04:55:00 12.8 C 87 % 10.69 C
1213 12-09-2018 05:00:00 12.7 C 87 % 10.59 C
1214 12-09-2018 05:05:00 12.7 C 88 % 10.77 C
1215 12-09-2018 05:10:00 12.7 C 87 % 10.59 C
1216 12-09-2018 05:15:00 12.7 C 87 % 10.59 C
1217 12-09-2018 05:20:00 12.6 C 87 % 10.5 C
1218 12-09-2018 05:25:00 12.5 C 87 % 10.4 C
1219 12-09-2018 05:30:00 12.5 C 88 % 10.57 C
1220 12-09-2018 05:35:00 12.4 C 88 % 10.47 C
1221 12-09-2018 05:40:00 12.3 C 88 % 10.37 C
1222 12-09-2018 05:45:00 12.3 C 88 % 10.37 C
1223 12-09-2018 05:50:00 12.3 C 89 % 10.54 C
1224 12-09-2018 05:55:00 12.3 C 89 % 10.54 C
1225 12-09-2018 06:00:00 12.2 C 88 % 10.27 C
Sensor: Nr:Datum:Temp:Feuchte:Taupunkt:
Aussen-T/F 1226 12-09-2018 06:05:00 12.2 C 89 % 10.44 C
1227 12-09-2018 06:10:00 12.1 C 89 % 10.34 C
1228 12-09-2018 06:15:00 12.1 C 89 % 10.34 C
1229 12-09-2018 06:20:00 12.1 C 89 % 10.34 C
1230 12-09-2018 06:25:00 12 C 89 % 10.25 C
1231 12-09-2018 06:30:00 11.9 C 89 % 10.15 C
1232 12-09-2018 06:35:00 11.9 C 89 % 10.15 C
1233 12-09-2018 06:40:00 11.8 C 89 % 10.05 C
1234 12-09-2018 06:45:00 11.7 C 89 % 9.95 C
1235 12-09-2018 06:50:00 11.7 C 90 % 10.12 C
1236 12-09-2018 06:55:00 11.6 C 90 % 10.02 C
1237 12-09-2018 07:00:00 11.6 C 90 % 10.02 C
1238 12-09-2018 07:05:00 11.5 C 90 % 9.92 C
1239 12-09-2018 07:10:00 11.6 C 91 % 10.18 C
1240 12-09-2018 07:15:00 11.7 C 92 % 10.44 C
1241 12-09-2018 07:20:00 11.7 C 91 % 10.28 C
1242 12-09-2018 07:25:00 11.7 C 91 % 10.28 C
1243 12-09-2018 07:30:00 11.6 C 91 % 10.18 C
1244 12-09-2018 07:35:00 11.6 C 91 % 10.18 C
1245 12-09-2018 07:40:00 11.6 C 91 % 10.18 C
1246 12-09-2018 07:45:00 11.6 C 91 % 10.18 C
1247 12-09-2018 07:50:00 11.6 C 92 % 10.35 C
1248 12-09-2018 07:55:00 11.7 C 91 % 10.28 C
1249 12-09-2018 08:00:00 11.7 C 92 % 10.44 C
1250 12-09-2018 08:05:00 11.7 C 92 % 10.44 C
Sensor: Nr:Datum:Temp:Feuchte:Taupunkt:
Aussen-T/F 1251 12-09-2018 08:10:00 11.8 C 92 % 10.54 C
1252 12-09-2018 08:15:00 11.8 C 91 % 10.38 C
1253 12-09-2018 08:20:00 11.8 C 92 % 10.54 C
1254 12-09-2018 08:25:00 11.8 C 92 % 10.54 C
1255 12-09-2018 08:30:00 11.9 C 92 % 10.64 C
1256 12-09-2018 08:35:00 12 C 92 % 10.74 C
1257 12-09-2018 08:40:00 12.1 C 92 % 10.84 C
1258 12-09-2018 08:45:00 12.2 C 92 % 10.94 C
1259 12-09-2018 08:50:00 12.3 C 92 % 11.04 C
1260 12-09-2018 08:55:00 12.4 C 92 % 11.14 C
1261 12-09-2018 09:00:00 12.6 C 92 % 11.34 C
1262 12-09-2018 09:05:00 12.7 C 91 % 11.27 C
1263 12-09-2018 09:10:00 12.8 C 91 % 11.37 C
1264 12-09-2018 09:15:00 12.9 C 91 % 11.47 C
1265 12-09-2018 09:20:00 13.1 C 90 % 11.5 C
1266 12-09-2018 09:25:00 13.2 C 90 % 11.6 C
1267 12-09-2018 09:30:00 13.3 C 90 % 11.7 C
1268 12-09-2018 09:35:00 13.4 C 90 % 11.79 C
1269 12-09-2018 09:40:00 13.5 C 90 % 11.89 C
1270 12-09-2018 09:45:00 13.7 C 90 % 12.09 C
1271 12-09-2018 09:50:00 14 C 89 % 12.22 C
1272 12-09-2018 09:55:00 14.3 C 88 % 12.34 C
1273 12-09-2018 10:00:00 14.7 C 87 % 12.56 C
1274 12-09-2018 10:05:00 15 C 86 % 12.68 C
1275 12-09-2018 10:10:00 15.4 C 85 % 12.89 C
Sensor: Nr:Datum:Temp:Feuchte:Taupunkt:
Aussen-T/F 1276 12-09-2018 10:15:00 15.8 C 84 % 13.1 C
1277 12-09-2018 10:20:00 16 C 82 % 12.93 C
1278 12-09-2018 10:25:00 16.3 C 82 % 13.22 C
1279 12-09-2018 10:30:00 16.6 C 81 % 13.33 C
1280 12-09-2018 10:35:00 16.9 C 79 % 13.24 C
1281 12-09-2018 10:40:00 17.3 C 77 % 13.23 C
1282 12-09-2018 10:45:00 17.8 C 74 % 13.11 C
1283 12-09-2018 10:50:00 18.3 C 73 % 13.38 C
1284 12-09-2018 10:55:00 18.7 C 72 % 13.55 C
1285 12-09-2018 11:00:00 19.1 C 71 % 13.72 C
1286 12-09-2018 11:05:00 19.3 C 70 % 13.69 C
1287 12-09-2018 11:10:00 19.6 C 70 % 13.98 C
1288 12-09-2018 11:15:00 19.9 C 68 % 13.82 C
1289 12-09-2018 11:20:00 20.2 C 67 % 13.88 C
1290 12-09-2018 11:25:00 20.4 C 66 % 13.84 C
1291 12-09-2018 11:30:00 20.6 C 65 % 13.79 C
1292 12-09-2018 11:35:00 20.8 C 64 % 13.74 C
1293 12-09-2018 11:40:00 21 C 66 % 14.41 C
1294 12-09-2018 11:45:00 21.2 C 62 % 13.63 C
1295 12-09-2018 11:50:00 21.4 C 61 % 13.57 C
1296 12-09-2018 11:55:00 21.8 C 61 % 13.95 C
1297 12-09-2018 12:00:00 22.2 C 61 % 14.32 C
1298 12-09-2018 12:05:00 22.4 C 60 % 14.26 C
1299 12-09-2018 12:10:00 22.4 C 60 % 14.26 C
1300 12-09-2018 12:15:00 22.6 C 59 % 14.18 C
Sensor: Nr:Datum:Temp:Feuchte:Taupunkt:
Aussen-T/F 1301 12-09-2018 12:20:00 22.7 C 59 % 14.28 C
1302 12-09-2018 12:25:00 22.8 C 58 % 14.11 C
1303 12-09-2018 12:30:00 23 C 57 % 14.03 C
1304 12-09-2018 12:35:00 23.1 C 57 % 14.12 C
1305 12-09-2018 12:40:00 23.3 C 56 % 14.03 C
1306 12-09-2018 12:45:00 23.6 C 56 % 14.31 C
1307 12-09-2018 12:50:00 23.7 C 55 % 14.13 C
1308 12-09-2018 12:55:00 23.9 C 55 % 14.31 C
1309 12-09-2018 13:00:00 24.1 C 54 % 14.21 C
1310 12-09-2018 13:05:00 24.2 C 53 % 14.02 C
1311 12-09-2018 13:10:00 24.3 C 53 % 14.11 C
1312 12-09-2018 13:15:00 24.4 C 52 % 13.91 C
1313 12-09-2018 13:20:00 24.6 C 52 % 14.09 C
1314 12-09-2018 13:25:00 24.7 C 52 % 14.19 C
1315 12-09-2018 13:30:00 24.8 C 51 % 13.98 C
1316 12-09-2018 13:35:00 24.9 C 51 % 14.07 C
1317 12-09-2018 13:40:00 25.1 C 51 % 14.25 C
1318 12-09-2018 13:45:00 25.2 C 50 % 14.04 C
1319 12-09-2018 13:50:00 25.3 C 50 % 14.13 C
1320 12-09-2018 13:55:00 25.4 C 49 % 13.91 C
1321 12-09-2018 14:00:00 25.6 C 50 % 14.41 C
1322 12-09-2018 14:05:00 25.8 C 49 % 14.28 C
1323 12-09-2018 14:10:00 25.9 C 48 % 14.05 C
1324 12-09-2018 14:15:00 26.1 C 48 % 14.23 C
1325 12-09-2018 14:20:00 26.2 C 47 % 14 C
Sensor: Nr:Datum:Temp:Feuchte:Taupunkt:
Aussen-T/F 1326 12-09-2018 14:25:00 26.3 C 48 % 14.42 C
1327 12-09-2018 14:30:00 26.4 C 48 % 14.51 C
1328 12-09-2018 14:35:00 26.6 C 47 % 14.36 C
1329 12-09-2018 14:40:00 26.7 C 46 % 14.12 C
1330 12-09-2018 14:45:00 26.8 C 46 % 14.21 C
1331 12-09-2018 14:50:00 26.9 C 46 % 14.3 C
1332 12-09-2018 14:55:00 27.1 C 44 % 13.8 C
1333 12-09-2018 15:00:00 27.1 C 45 % 14.15 C
1334 12-09-2018 15:05:00 27.2 C 46 % 14.58 C
1335 12-09-2018 15:10:00 27.2 C 45 % 14.24 C
1336 12-09-2018 15:15:00 27.3 C 45 % 14.33 C
1337 12-09-2018 15:20:00 27.3 C 45 % 14.33 C
1338 12-09-2018 15:25:00 27.3 C 45 % 14.33 C
1339 12-09-2018 15:30:00 27.3 C 45 % 14.33 C
1340 12-09-2018 15:35:00 27.3 C 46 % 14.67 C
1341 12-09-2018 15:40:00 27.2 C 46 % 14.58 C
1342 12-09-2018 15:45:00 27.3 C 45 % 14.33 C
1343 12-09-2018 15:50:00 27.3 C 45 % 14.33 C
1344 12-09-2018 15:55:00 27.3 C 45 % 14.33 C
1345 12-09-2018 16:00:00 27.3 C 46 % 14.67 C
1346 12-09-2018 16:05:00 27.4 C 46 % 14.76 C
1347 12-09-2018 16:10:00 27.5 C 46 % 14.85 C
1348 12-09-2018 16:15:00 27.6 C 45 % 14.6 C
1349 12-09-2018 16:20:00 27.6 C 46 % 14.94 C
1350 12-09-2018 16:25:00 27.7 C 45 % 14.69 C
Sensor: Nr:Datum:Temp:Feuchte:Taupunkt:
Aussen-T/F 1351 12-09-2018 16:30:00 27.8 C 45 % 14.78 C
1352 12-09-2018 16:35:00 27.8 C 45 % 14.78 C
1353 12-09-2018 16:40:00 27.9 C 45 % 14.87 C
1354 12-09-2018 16:45:00 28.1 C 45 % 15.05 C
1355 12-09-2018 16:50:00 28.3 C 44 % 14.88 C
1356 12-09-2018 16:55:00 28.6 C 44 % 15.15 C
1357 12-09-2018 17:00:00 29 C 42 % 14.79 C
1358 12-09-2018 17:05:00 29.1 C 43 % 15.24 C
1359 12-09-2018 17:10:00 29.3 C 42 % 15.06 C
1360 12-09-2018 17:15:00 29.4 C 42 % 15.15 C
1361 12-09-2018 17:20:00 29.2 C 43 % 15.33 C
1362 12-09-2018 17:25:00 29.1 C 43 % 15.24 C
1363 12-09-2018 17:30:00 29.2 C 44 % 15.69 C
1364 12-09-2018 17:35:00 29.3 C 43 % 15.42 C
1365 12-09-2018 17:40:00 29.2 C 44 % 15.69 C
1366 12-09-2018 17:45:00 29.1 C 44 % 15.6 C
1367 12-09-2018 17:50:00 29.1 C 44 % 15.6 C
1368 12-09-2018 17:55:00 29.3 C 43 % 15.42 C
1369 12-09-2018 18:00:00 29.2 C 44 % 15.69 C
1370 12-09-2018 18:05:00 29.1 C 43 % 15.24 C
1371 12-09-2018 18:10:00 29.1 C 45 % 15.95 C
1372 12-09-2018 18:15:00 28.9 C 44 % 15.42 C
1373 12-09-2018 18:20:00 28.6 C 45 % 15.5 C
1374 12-09-2018 18:25:00 28.3 C 45 % 15.23 C
1375 12-09-2018 18:30:00 28.1 C 45 % 15.05 C
Sensor: Nr:Datum:Temp:Feuchte:Taupunkt:
Aussen-T/F 1376 12-09-2018 18:35:00 27.9 C 46 % 15.21 C
1377 12-09-2018 18:40:00 27.7 C 47 % 15.36 C
1378 12-09-2018 18:45:00 27.2 C 47 % 14.91 C
1379 12-09-2018 18:50:00 26.8 C 47 % 14.55 C
1380 12-09-2018 18:55:00 26.5 C 48 % 14.6 C
1381 12-09-2018 19:00:00 26.2 C 49 % 14.64 C
1382 12-09-2018 19:05:00 26 C 49 % 14.46 C
1383 12-09-2018 19:10:00 25.8 C 49 % 14.28 C
1384 12-09-2018 19:15:00 25.6 C 50 % 14.41 C
1385 12-09-2018 19:20:00 25.4 C 53 % 15.13 C
1386 12-09-2018 19:25:00 24.9 C 56 % 15.52 C
1387 12-09-2018 19:30:00 24.4 C 59 % 15.87 C
1388 12-09-2018 19:35:00 24 C 60 % 15.76 C
1389 12-09-2018 19:40:00 23.7 C 62 % 15.99 C
1390 12-09-2018 19:45:00 23.4 C 63 % 15.96 C
1391 12-09-2018 19:50:00 23.1 C 65 % 16.16 C
1392 12-09-2018 19:55:00 22.7 C 66 % 16.02 C
1393 12-09-2018 20:00:00 22.3 C 68 % 16.11 C
1394 12-09-2018 20:05:00 21.9 C 69 % 15.96 C
1395 12-09-2018 20:10:00 21.7 C 70 % 15.99 C
1396 12-09-2018 20:15:00 21.4 C 71 % 15.93 C
1397 12-09-2018 20:20:00 21.2 C 72 % 15.95 C
1398 12-09-2018 20:25:00 21 C 73 % 15.98 C
1399 12-09-2018 20:30:00 20.8 C 73 % 15.78 C
1400 12-09-2018 20:35:00 20.6 C 74 % 15.8 C
Sensor: Nr:Datum:Temp:Feuchte:Taupunkt:
Aussen-T/F 1401 12-09-2018 20:40:00 20.4 C 75 % 15.82 C
1402 12-09-2018 20:45:00 20.3 C 75 % 15.72 C
1403 12-09-2018 20:50:00 20.2 C 76 % 15.83 C
1404 12-09-2018 20:55:00 20.1 C 76 % 15.74 C
1405 12-09-2018 21:00:00 19.9 C 77 % 15.75 C
1406 12-09-2018 21:05:00 19.8 C 77 % 15.65 C
1407 12-09-2018 21:10:00 19.6 C 78 % 15.66 C
1408 12-09-2018 21:15:00 19.6 C 78 % 15.66 C
1409 12-09-2018 21:20:00 19.4 C 78 % 15.47 C
1410 12-09-2018 21:25:00 19.3 C 79 % 15.57 C
1411 12-09-2018 21:30:00 19.2 C 79 % 15.47 C
1412 12-09-2018 21:35:00 19.1 C 79 % 15.37 C
1413 12-09-2018 21:40:00 19 C 79 % 15.28 C
1414 12-09-2018 21:45:00 18.9 C 79 % 15.18 C
1415 12-09-2018 21:50:00 18.7 C 80 % 15.18 C
1416 12-09-2018 21:55:00 18.7 C 81 % 15.37 C
1417 12-09-2018 22:00:00 18.6 C 81 % 15.28 C
1418 12-09-2018 22:05:00 18.5 C 81 % 15.18 C
1419 12-09-2018 22:10:00 18.4 C 81 % 15.08 C
1420 12-09-2018 22:15:00 18.3 C 81 % 14.98 C
1421 12-09-2018 22:20:00 18.3 C 82 % 15.17 C
1422 12-09-2018 22:25:00 18.3 C 82 % 15.17 C
1423 12-09-2018 22:30:00 18.2 C 82 % 15.08 C
1424 12-09-2018 22:35:00 18.2 C 82 % 15.08 C
1425 12-09-2018 22:40:00 18.1 C 82 % 14.98 C
Sensor: Nr:Datum:Temp:Feuchte:Taupunkt:
Aussen-T/F 1426 12-09-2018 22:45:00 18 C 82 % 14.88 C
1427 12-09-2018 22:50:00 17.9 C 82 % 14.78 C
1428 12-09-2018 22:55:00 17.8 C 82 % 14.69 C
1429 12-09-2018 23:00:00 17.8 C 82 % 14.69 C
1430 12-09-2018 23:05:00 17.7 C 82 % 14.59 C
1431 12-09-2018 23:10:00 17.6 C 82 % 14.49 C
1432 12-09-2018 23:15:00 17.4 C 83 % 14.48 C
1433 12-09-2018 23:20:00 17.3 C 83 % 14.39 C
1434 12-09-2018 23:25:00 17.3 C 83 % 14.39 C
1435 12-09-2018 23:30:00 17.2 C 83 % 14.29 C
1436 12-09-2018 23:35:00 17.2 C 83 % 14.29 C
1437 12-09-2018 23:40:00 17.1 C 84 % 14.38 C
1438 12-09-2018 23:45:00 17.1 C 83 % 14.19 C
1439 12-09-2018 23:50:00 17 C 84 % 14.28 C
1440 12-09-2018 23:55:00 16.9 C 84 % 14.18 C
1441 13-09-2018 00:00:00 16.9 C 84 % 14.18 C
1442 13-09-2018 00:05:00 16.9 C 84 % 14.18 C
1443 13-09-2018 00:10:00 16.8 C 84 % 14.08 C
1444 13-09-2018 00:15:00 16.8 C 84 % 14.08 C
1445 13-09-2018 00:20:00 16.8 C 84 % 14.08 C
1446 13-09-2018 00:25:00 16.8 C 84 % 14.08 C
1447 13-09-2018 00:30:00 16.8 C 84 % 14.08 C
1448 13-09-2018 00:35:00 16.7 C 84 % 13.98 C
1449 13-09-2018 00:40:00 16.7 C 84 % 13.98 C
1450 13-09-2018 00:45:00 16.7 C 84 % 13.98 C
Sensor: Nr:Datum:Temp:Feuchte:Taupunkt:
Aussen-T/F 1451 13-09-2018 00:50:00 16.6 C 84 % 13.89 C
1452 13-09-2018 00:55:00 16.5 C 84 % 13.79 C
1453 13-09-2018 01:00:00 16.4 C 84 % 13.69 C
1454 13-09-2018 01:05:00 16.3 C 85 % 13.77 C
1455 13-09-2018 01:10:00 16.3 C 85 % 13.77 C
1456 13-09-2018 01:15:00 16.3 C 85 % 13.77 C
1457 13-09-2018 01:20:00 16.3 C 85 % 13.77 C
1458 13-09-2018 01:25:00 16.4 C 85 % 13.87 C
1459 13-09-2018 01:30:00 16.4 C 85 % 13.87 C
1460 13-09-2018 01:35:00 16.4 C 85 % 13.87 C
1461 13-09-2018 01:40:00 16.3 C 85 % 13.77 C
1462 13-09-2018 01:45:00 16.3 C 85 % 13.77 C
1463 13-09-2018 01:50:00 16.3 C 85 % 13.77 C
1464 13-09-2018 01:55:00 16.3 C 85 % 13.77 C
1465 13-09-2018 02:00:00 16.3 C 85 % 13.77 C
1466 13-09-2018 02:05:00 16.2 C 85 % 13.68 C
1467 13-09-2018 02:10:00 16.2 C 85 % 13.68 C
1468 13-09-2018 02:15:00 16.1 C 85 % 13.58 C
1469 13-09-2018 02:20:00 16.1 C 85 % 13.58 C
1470 13-09-2018 02:25:00 16.1 C 85 % 13.58 C
1471 13-09-2018 02:30:00 16.1 C 85 % 13.58 C
1472 13-09-2018 02:35:00 16.1 C 85 % 13.58 C
1473 13-09-2018 02:40:00 16 C 85 % 13.48 C
1474 13-09-2018 02:45:00 16 C 85 % 13.48 C
1475 13-09-2018 02:50:00 15.9 C 85 % 13.38 C
Sensor: Nr:Datum:Temp:Feuchte:Taupunkt:
Aussen-T/F 1476 13-09-2018 02:55:00 15.9 C 85 % 13.38 C
1477 13-09-2018 03:00:00 15.9 C 85 % 13.38 C
1478 13-09-2018 03:05:00 15.9 C 85 % 13.38 C
1479 13-09-2018 03:10:00 15.9 C 85 % 13.38 C
1480 13-09-2018 03:15:00 15.8 C 85 % 13.28 C
1481 13-09-2018 03:20:00 15.8 C 85 % 13.28 C
1482 13-09-2018 03:25:00 15.8 C 86 % 13.46 C
1483 13-09-2018 03:30:00 15.8 C 86 % 13.46 C
1484 13-09-2018 03:35:00 15.8 C 86 % 13.46 C
1485 13-09-2018 03:40:00 15.8 C 86 % 13.46 C
1486 13-09-2018 03:45:00 15.8 C 86 % 13.46 C
1487 13-09-2018 03:50:00 15.8 C 86 % 13.46 C
1488 13-09-2018 03:55:00 15.8 C 86 % 13.46 C
1489 13-09-2018 04:00:00 15.8 C 86 % 13.46 C
1490 13-09-2018 04:05:00 15.8 C 86 % 13.46 C
1491 13-09-2018 04:10:00 15.8 C 86 % 13.46 C
1492 13-09-2018 04:15:00 15.8 C 86 % 13.46 C
1493 13-09-2018 04:20:00 15.8 C 86 % 13.46 C
1494 13-09-2018 04:25:00 15.8 C 86 % 13.46 C
1495 13-09-2018 04:30:00 15.8 C 86 % 13.46 C
1496 13-09-2018 04:35:00 15.8 C 86 % 13.46 C
1497 13-09-2018 04:40:00 15.8 C 86 % 13.46 C
1498 13-09-2018 04:45:00 15.8 C 86 % 13.46 C
1499 13-09-2018 04:50:00 15.8 C 86 % 13.46 C
1500 13-09-2018 04:55:00 15.8 C 86 % 13.46 C
Sensor: Nr:Datum:Temp:Feuchte:Taupunkt:
Aussen-T/F 1501 13-09-2018 05:00:00 15.8 C 86 % 13.46 C
1502 13-09-2018 05:05:00 15.8 C 86 % 13.46 C
1503 13-09-2018 05:10:00 15.8 C 86 % 13.46 C
1504 13-09-2018 05:15:00 15.8 C 86 % 13.46 C
1505 13-09-2018 05:20:00 15.8 C 86 % 13.46 C
1506 13-09-2018 05:25:00 15.8 C 86 % 13.46 C
1507 13-09-2018 05:30:00 15.8 C 86 % 13.46 C
1508 13-09-2018 05:35:00 15.8 C 86 % 13.46 C
1509 13-09-2018 05:40:00 15.8 C 86 % 13.46 C
1510 13-09-2018 05:45:00 15.8 C 86 % 13.46 C
1511 13-09-2018 05:50:00 15.8 C 86 % 13.46 C
1512 13-09-2018 05:55:00 15.8 C 86 % 13.46 C
1513 13-09-2018 06:00:00 15.8 C 86 % 13.46 C
1514 13-09-2018 06:05:00 15.8 C 86 % 13.46 C
1515 13-09-2018 06:10:00 15.8 C 86 % 13.46 C
1516 13-09-2018 06:15:00 15.8 C 86 % 13.46 C
1517 13-09-2018 06:20:00 15.8 C 86 % 13.46 C
1518 13-09-2018 06:25:00 15.7 C 86 % 13.37 C
1519 13-09-2018 06:30:00 15.7 C 86 % 13.37 C
1520 13-09-2018 06:35:00 15.6 C 86 % 13.27 C
1521 13-09-2018 06:40:00 15.6 C 86 % 13.27 C
1522 13-09-2018 06:45:00 15.5 C 86 % 13.17 C
1523 13-09-2018 06:50:00 15.4 C 86 % 13.07 C
1524 13-09-2018 06:55:00 15.4 C 86 % 13.07 C
1525 13-09-2018 07:00:00 15.3 C 86 % 12.97 C
Sensor: Nr:Datum:Temp:Feuchte:Taupunkt:
Aussen-T/F 1526 13-09-2018 07:05:00 15.3 C 87 % 13.15 C
1527 13-09-2018 07:10:00 15.3 C 87 % 13.15 C
1528 13-09-2018 07:15:00 15.2 C 87 % 13.05 C
1529 13-09-2018 07:20:00 15.2 C 87 % 13.05 C
1530 13-09-2018 07:25:00 15.2 C 88 % 13.23 C
1531 13-09-2018 07:30:00 15.1 C 88 % 13.13 C
1532 13-09-2018 07:35:00 15.1 C 88 % 13.13 C
1533 13-09-2018 07:40:00 15.2 C 88 % 13.23 C
1534 13-09-2018 07:45:00 15.2 C 88 % 13.23 C
1535 13-09-2018 07:50:00 15.3 C 89 % 13.5 C
1536 13-09-2018 07:55:00 15.3 C 89 % 13.5 C
1537 13-09-2018 08:00:00 15.4 C 88 % 13.42 C
1538 13-09-2018 08:05:00 15.4 C 88 % 13.42 C
1539 13-09-2018 08:10:00 15.5 C 88 % 13.52 C
1540 13-09-2018 08:15:00 15.6 C 88 % 13.62 C
1541 13-09-2018 08:20:00 15.6 C 89 % 13.79 C
1542 13-09-2018 08:25:00 15.6 C 88 % 13.62 C
1543 13-09-2018 08:30:00 15.6 C 88 % 13.62 C
1544 13-09-2018 08:35:00 15.6 C 88 % 13.62 C
1545 13-09-2018 08:40:00 15.6 C 88 % 13.62 C
1546 13-09-2018 08:45:00 15.6 C 88 % 13.62 C
1547 13-09-2018 08:50:00 15.6 C 88 % 13.62 C
1548 13-09-2018 08:55:00 15.6 C 88 % 13.62 C
1549 13-09-2018 09:00:00 15.6 C 88 % 13.62 C
1550 13-09-2018 09:05:00 15.5 C 88 % 13.52 C
Sensor: Nr:Datum:Temp:Feuchte:Taupunkt:
Aussen-T/F 1551 13-09-2018 09:10:00 15.5 C 89 % 13.7 C
1552 13-09-2018 09:15:00 15.4 C 89 % 13.6 C
1553 13-09-2018 09:20:00 15.5 C 90 % 13.87 C
1554 13-09-2018 09:25:00 15.5 C 90 % 13.87 C
1555 13-09-2018 09:30:00 15.5 C 90 % 13.87 C
1556 13-09-2018 09:35:00 15.5 C 90 % 13.87 C
1557 13-09-2018 09:40:00 15.5 C 90 % 13.87 C
1558 13-09-2018 09:45:00 15.5 C 90 % 13.87 C
1559 13-09-2018 09:50:00 15.5 C 90 % 13.87 C
1560 13-09-2018 09:55:00 15.6 C 90 % 13.97 C
1561 13-09-2018 10:00:00 15.6 C 91 % 14.14 C
1562 13-09-2018 10:05:00 15.7 C 91 % 14.24 C
1563 13-09-2018 10:10:00 15.7 C 91 % 14.24 C
1564 13-09-2018 10:15:00 15.7 C 91 % 14.24 C
1565 13-09-2018 10:20:00 15.7 C 91 % 14.24 C
1566 13-09-2018 10:25:00 15.7 C 91 % 14.24 C
1567 13-09-2018 10:30:00 15.8 C 91 % 14.33 C
1568 13-09-2018 10:35:00 15.8 C 91 % 14.33 C
1569 13-09-2018 10:40:00 15.8 C 91 % 14.33 C
1570 13-09-2018 10:45:00 15.8 C 91 % 14.33 C
1571 13-09-2018 10:50:00 15.9 C 91 % 14.43 C
1572 13-09-2018 10:55:00 15.9 C 91 % 14.43 C
1573 13-09-2018 11:00:00 15.9 C 91 % 14.43 C
1574 13-09-2018 11:05:00 15.9 C 90 % 14.26 C
1575 13-09-2018 11:10:00 16 C 90 % 14.36 C
Sensor: Nr:Datum:Temp:Feuchte:Taupunkt:
Aussen-T/F 1576 13-09-2018 11:15:00 16 C 90 % 14.36 C
1577 13-09-2018 11:20:00 16.1 C 90 % 14.46 C
1578 13-09-2018 11:25:00 16.1 C 90 % 14.46 C
1579 13-09-2018 11:30:00 16.2 C 90 % 14.56 C
1580 13-09-2018 11:35:00 16.2 C 90 % 14.56 C
1581 13-09-2018 11:40:00 16.3 C 89 % 14.48 C
1582 13-09-2018 11:45:00 16.3 C 89 % 14.48 C
1583 13-09-2018 11:50:00 16.4 C 89 % 14.58 C
1584 13-09-2018 11:55:00 16.5 C 89 % 14.68 C
1585 13-09-2018 12:00:00 16.6 C 89 % 14.78 C
1586 13-09-2018 12:05:00 16.7 C 89 % 14.88 C
1587 13-09-2018 12:10:00 16.8 C 89 % 14.98 C
1588 13-09-2018 12:15:00 17 C 89 % 15.17 C
1589 13-09-2018 12:20:00 17.1 C 88 % 15.1 C
1590 13-09-2018 12:25:00 17.1 C 87 % 14.92 C
1591 13-09-2018 12:30:00 17.1 C 86 % 14.74 C
1592 13-09-2018 12:35:00 17.2 C 86 % 14.84 C
1593 13-09-2018 12:40:00 17.2 C 86 % 14.84 C
1594 13-09-2018 12:45:00 17.3 C 86 % 14.94 C
1595 13-09-2018 12:50:00 17.3 C 86 % 14.94 C
1596 13-09-2018 12:55:00 17.4 C 85 % 14.85 C
1597 13-09-2018 13:00:00 17.4 C 85 % 14.85 C
1598 13-09-2018 13:05:00 17.4 C 85 % 14.85 C
1599 13-09-2018 13:10:00 17.4 C 85 % 14.85 C
1600 13-09-2018 13:15:00 17.4 C 85 % 14.85 C
Sensor: Nr:Datum:Temp:Feuchte:Taupunkt:
Aussen-T/F 1601 13-09-2018 13:20:00 17.4 C 85 % 14.85 C
1602 13-09-2018 13:25:00 17.3 C 85 % 14.76 C
1603 13-09-2018 13:30:00 17.3 C 85 % 14.76 C
1604 13-09-2018 13:35:00 17.3 C 85 % 14.76 C
1605 13-09-2018 13:40:00 17.2 C 85 % 14.66 C
1606 13-09-2018 13:45:00 17.2 C 85 % 14.66 C
1607 13-09-2018 13:50:00 17.2 C 85 % 14.66 C
1608 13-09-2018 13:55:00 17.1 C 85 % 14.56 C
1609 13-09-2018 14:00:00 17.1 C 85 % 14.56 C
1610 13-09-2018 14:05:00 17.1 C 85 % 14.56 C
1611 13-09-2018 14:10:00 17.1 C 85 % 14.56 C
1612 13-09-2018 14:15:00 17.1 C 85 % 14.56 C
1613 13-09-2018 14:20:00 17.1 C 85 % 14.56 C
1614 13-09-2018 14:25:00 17.1 C 85 % 14.56 C
1615 13-09-2018 14:30:00 17.3 C 85 % 14.76 C
1616 13-09-2018 14:35:00 17.4 C 84 % 14.67 C
1617 13-09-2018 14:40:00 17.5 C 83 % 14.58 C
1618 13-09-2018 14:45:00 17.6 C 84 % 14.87 C
1619 13-09-2018 14:50:00 17.7 C 83 % 14.78 C
1620 13-09-2018 14:55:00 17.7 C 83 % 14.78 C
1621 13-09-2018 15:00:00 17.7 C 82 % 14.59 C
1622 13-09-2018 15:05:00 17.7 C 83 % 14.78 C
1623 13-09-2018 15:10:00 17.7 C 82 % 14.59 C
1624 13-09-2018 15:15:00 17.7 C 83 % 14.78 C
1625 13-09-2018 15:20:00 17.7 C 83 % 14.78 C
Sensor: Nr:Datum:Temp:Feuchte:Taupunkt:
Aussen-T/F 1626 13-09-2018 15:25:00 17.6 C 83 % 14.68 C
1627 13-09-2018 15:30:00 17.6 C 83 % 14.68 C
1628 13-09-2018 15:35:00 17.5 C 83 % 14.58 C
1629 13-09-2018 15:40:00 17.3 C 83 % 14.39 C
1630 13-09-2018 15:45:00 17.2 C 84 % 14.47 C
1631 13-09-2018 15:50:00 17.2 C 84 % 14.47 C
1632 13-09-2018 15:55:00 17.2 C 84 % 14.47 C
1633 13-09-2018 16:00:00 17.1 C 84 % 14.38 C
1634 13-09-2018 16:05:00 17.1 C 85 % 14.56 C
1635 13-09-2018 16:10:00 17.1 C 85 % 14.56 C
1636 13-09-2018 16:15:00 17 C 85 % 14.46 C
1637 13-09-2018 16:20:00 17 C 85 % 14.46 C
1638 13-09-2018 16:25:00 16.9 C 85 % 14.36 C
1639 13-09-2018 16:30:00 16.9 C 85 % 14.36 C
1640 13-09-2018 16:35:00 16.8 C 85 % 14.26 C
1641 13-09-2018 16:40:00 16.8 C 85 % 14.26 C
1642 13-09-2018 16:45:00 16.8 C 85 % 14.26 C
1643 13-09-2018 16:50:00 16.8 C 85 % 14.26 C
1644 13-09-2018 16:55:00 16.8 C 85 % 14.26 C
1645 13-09-2018 17:00:00 16.8 C 85 % 14.26 C
1646 13-09-2018 17:05:00 16.8 C 85 % 14.26 C
1647 13-09-2018 17:10:00 16.8 C 85 % 14.26 C
1648 13-09-2018 17:15:00 16.8 C 85 % 14.26 C
1649 13-09-2018 17:20:00 16.8 C 85 % 14.26 C
1650 13-09-2018 17:25:00 16.8 C 85 % 14.26 C
Sensor: Nr:Datum:Temp:Feuchte:Taupunkt:
Aussen-T/F 1651 13-09-2018 17:30:00 16.8 C 85 % 14.26 C
1652 13-09-2018 17:35:00 16.8 C 85 % 14.26 C
1653 13-09-2018 17:40:00 16.9 C 85 % 14.36 C
1654 13-09-2018 17:45:00 16.9 C 85 % 14.36 C
1655 13-09-2018 17:50:00 16.9 C 85 % 14.36 C
1656 13-09-2018 17:55:00 16.9 C 85 % 14.36 C
1657 13-09-2018 18:00:00 17 C 84 % 14.28 C
1658 13-09-2018 18:05:00 17 C 84 % 14.28 C
1659 13-09-2018 18:10:00 17.1 C 84 % 14.38 C
1660 13-09-2018 18:15:00 17.1 C 84 % 14.38 C
1661 13-09-2018 18:20:00 17.1 C 83 % 14.19 C
1662 13-09-2018 18:25:00 17.1 C 83 % 14.19 C
1663 13-09-2018 18:30:00 17.1 C 83 % 14.19 C
1664 13-09-2018 18:35:00 17.1 C 83 % 14.19 C
1665 13-09-2018 18:40:00 17.1 C 83 % 14.19 C
1666 13-09-2018 18:45:00 17.1 C 83 % 14.19 C
1667 13-09-2018 18:50:00 17.1 C 83 % 14.19 C
1668 13-09-2018 18:55:00 17 C 83 % 14.09 C
1669 13-09-2018 19:00:00 17 C 83 % 14.09 C
1670 13-09-2018 19:05:00 17 C 83 % 14.09 C
1671 13-09-2018 19:10:00 16.9 C 83 % 14 C
1672 13-09-2018 19:15:00 16.9 C 84 % 14.18 C
1673 13-09-2018 19:20:00 16.9 C 83 % 14 C
1674 13-09-2018 19:25:00 16.9 C 83 % 14 C
1675 13-09-2018 19:30:00 16.9 C 83 % 14 C
Sensor: Nr:Datum:Temp:Feuchte:Taupunkt:
Aussen-T/F 1676 13-09-2018 19:35:00 16.9 C 84 % 14.18 C
1677 13-09-2018 19:40:00 16.9 C 84 % 14.18 C
1678 13-09-2018 19:45:00 16.9 C 83 % 14 C
1679 13-09-2018 19:50:00 16.9 C 83 % 14 C
1680 13-09-2018 19:55:00 16.9 C 83 % 14 C
1681 13-09-2018 20:00:00 16.9 C 83 % 14 C
1682 13-09-2018 20:05:00 16.9 C 83 % 14 C
1683 13-09-2018 20:10:00 16.9 C 83 % 14 C
1684 13-09-2018 20:15:00 16.9 C 83 % 14 C
1685 13-09-2018 20:20:00 16.8 C 83 % 13.9 C
1686 13-09-2018 20:25:00 16.8 C 83 % 13.9 C
1687 13-09-2018 20:30:00 16.8 C 84 % 14.08 C
1688 13-09-2018 20:35:00 16.8 C 84 % 14.08 C
1689 13-09-2018 20:40:00 16.8 C 84 % 14.08 C
1690 13-09-2018 20:45:00 16.8 C 84 % 14.08 C
1691 13-09-2018 20:50:00 16.8 C 84 % 14.08 C
1692 13-09-2018 20:55:00 16.8 C 84 % 14.08 C
1693 13-09-2018 21:00:00 16.8 C 84 % 14.08 C
1694 13-09-2018 21:05:00 16.8 C 84 % 14.08 C
1695 13-09-2018 21:10:00 16.7 C 84 % 13.98 C
1696 13-09-2018 21:15:00 16.7 C 84 % 13.98 C
1697 13-09-2018 21:20:00 16.7 C 84 % 13.98 C
1698 13-09-2018 21:25:00 16.7 C 84 % 13.98 C
1699 13-09-2018 21:30:00 16.6 C 84 % 13.89 C
1700 13-09-2018 21:35:00 16.6 C 84 % 13.89 C
Sensor: Nr:Datum:Temp:Feuchte:Taupunkt:
Aussen-T/F 1701 13-09-2018 21:40:00 16.6 C 85 % 14.07 C
1702 13-09-2018 21:45:00 16.5 C 84 % 13.79 C
1703 13-09-2018 21:50:00 16.5 C 84 % 13.79 C
1704 13-09-2018 21:55:00 16.5 C 84 % 13.79 C
1705 13-09-2018 22:00:00 16.4 C 84 % 13.69 C
1706 13-09-2018 22:05:00 16.4 C 84 % 13.69 C
1707 13-09-2018 22:10:00 16.4 C 83 % 13.51 C
1708 13-09-2018 22:15:00 16.4 C 83 % 13.51 C
1709 13-09-2018 22:20:00 16.3 C 83 % 13.41 C
1710 13-09-2018 22:25:00 16.3 C 83 % 13.41 C
1711 13-09-2018 22:30:00 16.3 C 83 % 13.41 C
1712 13-09-2018 22:35:00 16.3 C 83 % 13.41 C
1713 13-09-2018 22:40:00 16.2 C 83 % 13.31 C
1714 13-09-2018 22:45:00 16.2 C 83 % 13.31 C
1715 13-09-2018 22:50:00 16.1 C 84 % 13.4 C
1716 13-09-2018 22:55:00 15.9 C 84 % 13.2 C
1717 13-09-2018 23:00:00 15.8 C 84 % 13.1 C
1718 13-09-2018 23:05:00 15.7 C 85 % 13.19 C
1719 13-09-2018 23:10:00 15.6 C 85 % 13.09 C
1720 13-09-2018 23:15:00 15.6 C 85 % 13.09 C
1721 13-09-2018 23:20:00 15.5 C 86 % 13.17 C
1722 13-09-2018 23:25:00 15.5 C 86 % 13.17 C
1723 13-09-2018 23:30:00 15.5 C 86 % 13.17 C
1724 13-09-2018 23:35:00 15.5 C 86 % 13.17 C
1725 13-09-2018 23:40:00 15.5 C 86 % 13.17 C
Sensor: Nr:Datum:Temp:Feuchte:Taupunkt:
Aussen-T/F 1726 13-09-2018 23:45:00 15.5 C 85 % 12.99 C
1727 13-09-2018 23:50:00 15.5 C 86 % 13.17 C
1728 13-09-2018 23:55:00 15.5 C 85 % 12.99 C
1729 14-09-2018 00:00:00 15.4 C 85 % 12.89 C
1730 14-09-2018 00:05:00 15.4 C 85 % 12.89 C
1731 14-09-2018 00:10:00 15.3 C 85 % 12.79 C
1732 14-09-2018 00:15:00 15.2 C 86 % 12.88 C
1733 14-09-2018 00:20:00 15.1 C 86 % 12.78 C
1734 14-09-2018 00:25:00 14.9 C 86 % 12.58 C
1735 14-09-2018 00:30:00 14.8 C 86 % 12.48 C
1736 14-09-2018 00:35:00 14.6 C 87 % 12.46 C
1737 14-09-2018 00:40:00 14.5 C 87 % 12.36 C
1738 14-09-2018 00:45:00 14.3 C 88 % 12.34 C
1739 14-09-2018 00:50:00 14.3 C 88 % 12.34 C
1740 14-09-2018 00:55:00 14.2 C 89 % 12.41 C
1741 14-09-2018 01:00:00 14.2 C 89 % 12.41 C
1742 14-09-2018 01:05:00 14.1 C 89 % 12.32 C
1743 14-09-2018 01:10:00 14.1 C 89 % 12.32 C
1744 14-09-2018 01:15:00 14.1 C 90 % 12.49 C
1745 14-09-2018 01:20:00 14.1 C 90 % 12.49 C
1746 14-09-2018 01:25:00 14.1 C 90 % 12.49 C
1747 14-09-2018 01:30:00 14.1 C 90 % 12.49 C
1748 14-09-2018 01:35:00 14.1 C 90 % 12.49 C
1749 14-09-2018 01:40:00 14.1 C 90 % 12.49 C
1750 14-09-2018 01:45:00 14.1 C 90 % 12.49 C
Sensor: Nr:Datum:Temp:Feuchte:Taupunkt:
Aussen-T/F 1751 14-09-2018 01:50:00 14.1 C 90 % 12.49 C
1752 14-09-2018 01:55:00 14.1 C 90 % 12.49 C
1753 14-09-2018 02:00:00 14.1 C 90 % 12.49 C
1754 14-09-2018 02:05:00 14.1 C 90 % 12.49 C
1755 14-09-2018 02:10:00 14.1 C 90 % 12.49 C
1756 14-09-2018 02:15:00 14.1 C 91 % 12.65 C
1757 14-09-2018 02:20:00 14.2 C 91 % 12.75 C
1758 14-09-2018 02:25:00 14.2 C 91 % 12.75 C
1759 14-09-2018 02:30:00 14.2 C 90 % 12.58 C
1760 14-09-2018 02:35:00 14.2 C 90 % 12.58 C
1761 14-09-2018 02:40:00 14.2 C 90 % 12.58 C
1762 14-09-2018 02:45:00 14.2 C 90 % 12.58 C
1763 14-09-2018 02:50:00 14.2 C 90 % 12.58 C
1764 14-09-2018 02:55:00 14.2 C 90 % 12.58 C
1765 14-09-2018 03:00:00 14.2 C 90 % 12.58 C
1766 14-09-2018 03:05:00 14.2 C 90 % 12.58 C
1767 14-09-2018 03:10:00 14.2 C 90 % 12.58 C
1768 14-09-2018 03:15:00 14.2 C 90 % 12.58 C
1769 14-09-2018 03:20:00 14.1 C 90 % 12.49 C
1770 14-09-2018 03:25:00 14.1 C 90 % 12.49 C
1771 14-09-2018 03:30:00 14.1 C 90 % 12.49 C
1772 14-09-2018 03:35:00 14.1 C 90 % 12.49 C
1773 14-09-2018 03:40:00 14.1 C 90 % 12.49 C
1774 14-09-2018 03:45:00 14.1 C 90 % 12.49 C
1775 14-09-2018 03:50:00 14.1 C 91 % 12.65 C
Sensor: Nr:Datum:Temp:Feuchte:Taupunkt:
Aussen-T/F 1776 14-09-2018 03:55:00 14.1 C 91 % 12.65 C
1777 14-09-2018 04:00:00 14.2 C 91 % 12.75 C
1778 14-09-2018 04:05:00 14.2 C 91 % 12.75 C
1779 14-09-2018 04:10:00 14.2 C 91 % 12.75 C
1780 14-09-2018 04:15:00 14.2 C 91 % 12.75 C
1781 14-09-2018 04:20:00 14.2 C 91 % 12.75 C
1782 14-09-2018 04:25:00 14.2 C 91 % 12.75 C
1783 14-09-2018 04:30:00 14.2 C 90 % 12.58 C
1784 14-09-2018 04:35:00 14.2 C 90 % 12.58 C
1785 14-09-2018 04:40:00 14.2 C 90 % 12.58 C
1786 14-09-2018 04:45:00 14.2 C 90 % 12.58 C
1787 14-09-2018 04:50:00 14.2 C 90 % 12.58 C
1788 14-09-2018 04:55:00 14.2 C 90 % 12.58 C
1789 14-09-2018 05:00:00 14.2 C 90 % 12.58 C
1790 14-09-2018 05:05:00 14.2 C 90 % 12.58 C
1791 14-09-2018 05:10:00 14.2 C 90 % 12.58 C
1792 14-09-2018 05:15:00 14.2 C 90 % 12.58 C
1793 14-09-2018 05:20:00 14.2 C 90 % 12.58 C
1794 14-09-2018 05:25:00 14.2 C 90 % 12.58 C
1795 14-09-2018 05:30:00 14.2 C 90 % 12.58 C
1796 14-09-2018 05:35:00 14.2 C 90 % 12.58 C
1797 14-09-2018 05:40:00 14.2 C 90 % 12.58 C
1798 14-09-2018 05:45:00 14.2 C 90 % 12.58 C
1799 14-09-2018 05:50:00 14.2 C 90 % 12.58 C
1800 14-09-2018 05:55:00 14.1 C 90 % 12.49 C
Sensor: Nr:Datum:Temp:Feuchte:Taupunkt:
Aussen-T/F 1801 14-09-2018 06:00:00 14.1 C 90 % 12.49 C
1802 14-09-2018 06:05:00 14.1 C 90 % 12.49 C
1803 14-09-2018 06:10:00 14 C 90 % 12.39 C
1804 14-09-2018 06:15:00 13.9 C 90 % 12.29 C
1805 14-09-2018 06:20:00 13.9 C 90 % 12.29 C
1806 14-09-2018 06:25:00 13.8 C 90 % 12.19 C
1807 14-09-2018 06:30:00 13.8 C 90 % 12.19 C
1808 14-09-2018 06:35:00 13.8 C 90 % 12.19 C
1809 14-09-2018 06:40:00 13.8 C 90 % 12.19 C
1810 14-09-2018 06:45:00 13.8 C 90 % 12.19 C
1811 14-09-2018 06:50:00 13.8 C 91 % 12.36 C
1812 14-09-2018 06:55:00 13.8 C 91 % 12.36 C
1813 14-09-2018 07:00:00 13.8 C 91 % 12.36 C
1814 14-09-2018 07:05:00 13.8 C 91 % 12.36 C
1815 14-09-2018 07:10:00 13.8 C 91 % 12.36 C
1816 14-09-2018 07:15:00 13.8 C 91 % 12.36 C
1817 14-09-2018 07:20:00 13.8 C 91 % 12.36 C
1818 14-09-2018 07:25:00 13.8 C 91 % 12.36 C
1819 14-09-2018 07:30:00 13.8 C 91 % 12.36 C
1820 14-09-2018 07:35:00 13.8 C 91 % 12.36 C
1821 14-09-2018 07:40:00 13.8 C 91 % 12.36 C
1822 14-09-2018 07:45:00 13.8 C 91 % 12.36 C
1823 14-09-2018 07:50:00 13.9 C 91 % 12.46 C
1824 14-09-2018 07:55:00 13.9 C 91 % 12.46 C
1825 14-09-2018 08:00:00 13.9 C 91 % 12.46 C
Sensor: Nr:Datum:Temp:Feuchte:Taupunkt:
Aussen-T/F 1826 14-09-2018 08:05:00 14 C 91 % 12.56 C
1827 14-09-2018 08:10:00 14 C 91 % 12.56 C
1828 14-09-2018 08:15:00 14.1 C 91 % 12.65 C
1829 14-09-2018 08:20:00 14.1 C 90 % 12.49 C
1830 14-09-2018 08:25:00 14.2 C 90 % 12.58 C
1831 14-09-2018 08:30:00 14.2 C 89 % 12.41 C
1832 14-09-2018 08:35:00 14.3 C 89 % 12.51 C
1833 14-09-2018 08:40:00 14.4 C 88 % 12.44 C
1834 14-09-2018 08:45:00 14.5 C 87 % 12.36 C
1835 14-09-2018 08:50:00 14.6 C 87 % 12.46 C
1836 14-09-2018 08:55:00 14.7 C 86 % 12.38 C
1837 14-09-2018 09:00:00 14.7 C 85 % 12.21 C
1838 14-09-2018 09:05:00 14.8 C 85 % 12.3 C
1839 14-09-2018 09:10:00 14.9 C 85 % 12.4 C
1840 14-09-2018 09:15:00 14.9 C 83 % 12.04 C
1841 14-09-2018 09:20:00 15.1 C 82 % 12.05 C
1842 14-09-2018 09:25:00 15.1 C 83 % 12.24 C
1843 14-09-2018 09:30:00 15.2 C 82 % 12.15 C
1844 14-09-2018 09:35:00 15.2 C 83 % 12.33 C
1845 14-09-2018 09:40:00 15.3 C 83 % 12.43 C
1846 14-09-2018 09:45:00 15.4 C 83 % 12.53 C
1847 14-09-2018 09:50:00 15.4 C 82 % 12.35 C
1848 14-09-2018 09:55:00 15.4 C 81 % 12.16 C
1849 14-09-2018 10:00:00 15.4 C 81 % 12.16 C
1850 14-09-2018 10:05:00 15.4 C 81 % 12.16 C
Sensor: Nr:Datum:Temp:Feuchte:Taupunkt:
Aussen-T/F 1851 14-09-2018 10:10:00 15.4 C 80 % 11.97 C
1852 14-09-2018 10:15:00 15.4 C 80 % 11.97 C
1853 14-09-2018 10:20:00 15.4 C 80 % 11.97 C
1854 14-09-2018 10:25:00 15.6 C 81 % 12.35 C
1855 14-09-2018 10:30:00 15.6 C 80 % 12.16 C
1856 14-09-2018 10:35:00 15.7 C 76 % 11.48 C
1857 14-09-2018 10:40:00 15.8 C 77 % 11.78 C
1858 14-09-2018 10:45:00 16 C 76 % 11.77 C
1859 14-09-2018 10:50:00 16.1 C 77 % 12.07 C
1860 14-09-2018 10:55:00 16.1 C 78 % 12.27 C
1861 14-09-2018 11:00:00 16.1 C 76 % 11.87 C
1862 14-09-2018 11:05:00 16 C 74 % 11.37 C
1863 14-09-2018 11:10:00 16.1 C 74 % 11.47 C
1864 14-09-2018 11:15:00 16.1 C 74 % 11.47 C
1865 14-09-2018 11:20:00 16.1 C 73 % 11.26 C
1866 14-09-2018 11:25:00 16.2 C 71 % 10.94 C
1867 14-09-2018 11:30:00 16.4 C 70 % 10.92 C
1868 14-09-2018 11:35:00 16.6 C 67 % 10.45 C
1869 14-09-2018 11:40:00 16.8 C 70 % 11.3 C
1870 14-09-2018 11:45:00 16.9 C 67 % 10.74 C
1871 14-09-2018 11:50:00 17.1 C 67 % 10.93 C
1872 14-09-2018 11:55:00 17.4 C 68 % 11.44 C
1873 14-09-2018 12:00:00 17.8 C 67 % 11.6 C
1874 14-09-2018 12:05:00 18.1 C 64 % 11.19 C
1875 14-09-2018 12:10:00 18.2 C 63 % 11.05 C
Sensor: Nr:Datum:Temp:Feuchte:Taupunkt:
Aussen-T/F 1876 14-09-2018 12:15:00 18.4 C 62 % 10.99 C
1877 14-09-2018 12:20:00 18.6 C 61 % 10.94 C
1878 14-09-2018 12:25:00 18.6 C 60 % 10.69 C
1879 14-09-2018 12:30:00 18.7 C 59 % 10.53 C
1880 14-09-2018 12:35:00 18.7 C 59 % 10.53 C
1881 14-09-2018 12:40:00 18.7 C 58 % 10.28 C
1882 14-09-2018 12:45:00 18.8 C 60 % 10.88 C
1883 14-09-2018 12:50:00 19.1 C 58 % 10.65 C
1884 14-09-2018 12:55:00 19.2 C 57 % 10.48 C
1885 14-09-2018 13:00:00 19.3 C 58 % 10.84 C
1886 14-09-2018 13:05:00 19.4 C 57 % 10.67 C
1887 14-09-2018 13:10:00 19.4 C 56 % 10.4 C
1888 14-09-2018 13:15:00 19.5 C 57 % 10.76 C
1889 14-09-2018 13:20:00 19.7 C 58 % 11.21 C
1890 14-09-2018 13:25:00 19.8 C 56 % 10.78 C
1891 14-09-2018 13:30:00 19.8 C 55 % 10.51 C
1892 14-09-2018 13:35:00 19.8 C 55 % 10.51 C
1893 14-09-2018 13:40:00 19.8 C 56 % 10.78 C
1894 14-09-2018 13:45:00 19.8 C 54 % 10.23 C
1895 14-09-2018 13:50:00 19.8 C 55 % 10.51 C
1896 14-09-2018 13:55:00 19.8 C 54 % 10.23 C
1897 14-09-2018 14:00:00 19.9 C 56 % 10.87 C
1898 14-09-2018 14:05:00 20.2 C 54 % 10.6 C
1899 14-09-2018 14:10:00 20.3 C 53 % 10.41 C
1900 14-09-2018 14:15:00 20.3 C 54 % 10.69 C
Sensor: Nr:Datum:Temp:Feuchte:Taupunkt:
Aussen-T/F 1901 14-09-2018 14:20:00 20.4 C 54 % 10.79 C
1902 14-09-2018 14:25:00 20.7 C 53 % 10.78 C
1903 14-09-2018 14:30:00 20.7 C 52 % 10.5 C
1904 14-09-2018 14:35:00 20.7 C 53 % 10.78 C
1905 14-09-2018 14:40:00 20.8 C 54 % 11.16 C
1906 14-09-2018 14:45:00 20.9 C 53 % 10.97 C
1907 14-09-2018 14:50:00 20.9 C 52 % 10.68 C
1908 14-09-2018 14:55:00 20.8 C 53 % 10.88 C
1909 14-09-2018 15:00:00 20.8 C 54 % 11.16 C
1910 14-09-2018 15:05:00 20.9 C 53 % 10.97 C
1911 14-09-2018 15:10:00 20.9 C 52 % 10.68 C
1912 14-09-2018 15:15:00 20.9 C 52 % 10.68 C
1913 14-09-2018 15:20:00 20.9 C 54 % 11.25 C
1914 14-09-2018 15:25:00 21 C 52 % 10.78 C
1915 14-09-2018 15:30:00 21.1 C 52 % 10.87 C
1916 14-09-2018 15:35:00 21.1 C 52 % 10.87 C
1917 14-09-2018 15:40:00 21.2 C 51 % 10.67 C
1918 14-09-2018 15:45:00 21.2 C 51 % 10.67 C
1919 14-09-2018 15:50:00 21.3 C 51 % 10.76 C
1920 14-09-2018 15:55:00 21.2 C 52 % 10.96 C
1921 14-09-2018 16:00:00 21.3 C 51 % 10.76 C
1922 14-09-2018 16:05:00 21.2 C 52 % 10.96 C
1923 14-09-2018 16:10:00 21.1 C 52 % 10.87 C
1924 14-09-2018 16:15:00 21.1 C 51 % 10.58 C
1925 14-09-2018 16:20:00 21.1 C 52 % 10.87 C
Sensor: Nr:Datum:Temp:Feuchte:Taupunkt:
Aussen-T/F 1926 14-09-2018 16:25:00 21.1 C 52 % 10.87 C
1927 14-09-2018 16:30:00 21.1 C 52 % 10.87 C
1928 14-09-2018 16:35:00 21.1 C 53 % 11.15 C
1929 14-09-2018 16:40:00 21.1 C 53 % 11.15 C
1930 14-09-2018 16:45:00 21.2 C 54 % 11.53 C
1931 14-09-2018 16:50:00 21.5 C 53 % 11.52 C
1932 14-09-2018 16:55:00 21.7 C 52 % 11.42 C
1933 14-09-2018 17:00:00 21.6 C 51 % 11.04 C
1934 14-09-2018 17:05:00 21.5 C 52 % 11.24 C
1935 14-09-2018 17:10:00 21.4 C 53 % 11.43 C
1936 14-09-2018 17:15:00 21.3 C 53 % 11.34 C
1937 14-09-2018 17:20:00 21.2 C 53 % 11.25 C
1938 14-09-2018 17:25:00 21.1 C 53 % 11.15 C
1939 14-09-2018 17:30:00 21.1 C 53 % 11.15 C
1940 14-09-2018 17:35:00 21.1 C 53 % 11.15 C
1941 14-09-2018 17:40:00 21.6 C 52 % 11.33 C
1942 14-09-2018 17:45:00 21.8 C 49 % 10.62 C
1943 14-09-2018 17:50:00 21.8 C 50 % 10.92 C
1944 14-09-2018 17:55:00 21.6 C 50 % 10.74 C
1945 14-09-2018 18:00:00 21.4 C 50 % 10.55 C
1946 14-09-2018 18:05:00 21.3 C 50 % 10.46 C
1947 14-09-2018 18:10:00 21.3 C 49 % 10.16 C
1948 14-09-2018 18:15:00 21.2 C 49 % 10.07 C
1949 14-09-2018 18:20:00 21.3 C 49 % 10.16 C
1950 14-09-2018 18:25:00 21.3 C 49 % 10.16 C
Sensor: Nr:Datum:Temp:Feuchte:Taupunkt:
Aussen-T/F 1951 14-09-2018 18:30:00 21.3 C 49 % 10.16 C
1952 14-09-2018 18:35:00 21.3 C 50 % 10.46 C
1953 14-09-2018 18:40:00 21.3 C 50 % 10.46 C
1954 14-09-2018 18:45:00 21.2 C 51 % 10.67 C
1955 14-09-2018 18:50:00 21.1 C 50 % 10.28 C
1956 14-09-2018 18:55:00 20.9 C 49 % 9.79 C
1957 14-09-2018 19:00:00 20.8 C 50 % 10 C
1958 14-09-2018 19:05:00 20.7 C 51 % 10.21 C
1959 14-09-2018 19:10:00 20.5 C 50 % 9.73 C
1960 14-09-2018 19:15:00 20.4 C 50 % 9.64 C
1961 14-09-2018 19:20:00 20.4 C 49 % 9.34 C
1962 14-09-2018 19:25:00 20.3 C 49 % 9.24 C
1963 14-09-2018 19:30:00 20.3 C 49 % 9.24 C
1964 14-09-2018 19:35:00 20.2 C 51 % 9.75 C
1965 14-09-2018 19:40:00 20 C 51 % 9.56 C
1966 14-09-2018 19:45:00 19.9 C 52 % 9.76 C
1967 14-09-2018 19:50:00 19.7 C 51 % 9.29 C
1968 14-09-2018 19:55:00 19.6 C 54 % 10.05 C
1969 14-09-2018 20:00:00 19.3 C 55 % 10.04 C
1970 14-09-2018 20:05:00 19 C 54 % 9.49 C
1971 14-09-2018 20:10:00 18.9 C 53 % 9.12 C
1972 14-09-2018 20:15:00 18.9 C 53 % 9.12 C
1973 14-09-2018 20:20:00 19.1 C 53 % 9.3 C
1974 14-09-2018 20:25:00 19.1 C 54 % 9.58 C
1975 14-09-2018 20:30:00 19 C 57 % 10.3 C
Sensor: Nr:Datum:Temp:Feuchte:Taupunkt:
Aussen-T/F 1976 14-09-2018 20:35:00 18.8 C 57 % 10.11 C
1977 14-09-2018 20:40:00 18.6 C 57 % 9.92 C
1978 14-09-2018 20:45:00 18.4 C 59 % 10.25 C
1979 14-09-2018 20:50:00 18.2 C 56 % 9.29 C
1980 14-09-2018 20:55:00 18.2 C 58 % 9.81 C
1981 14-09-2018 21:00:00 18.1 C 59 % 9.97 C
1982 14-09-2018 21:05:00 18 C 59 % 9.88 C
1983 14-09-2018 21:10:00 17.8 C 60 % 9.94 C
1984 14-09-2018 21:15:00 17.6 C 58 % 9.25 C
1985 14-09-2018 21:20:00 17.5 C 60 % 9.66 C
1986 14-09-2018 21:25:00 17.3 C 60 % 9.47 C
1987 14-09-2018 21:30:00 17.2 C 58 % 8.87 C
1988 14-09-2018 21:35:00 17.2 C 61 % 9.62 C
1989 14-09-2018 21:40:00 17.1 C 60 % 9.28 C
1990 14-09-2018 21:45:00 17.1 C 61 % 9.53 C
1991 14-09-2018 21:50:00 16.9 C 61 % 9.34 C
1992 14-09-2018 21:55:00 16.8 C 62 % 9.49 C
1993 14-09-2018 22:00:00 16.7 C 63 % 9.63 C
1994 14-09-2018 22:05:00 16.5 C 61 % 8.96 C
1995 14-09-2018 22:10:00 16.3 C 63 % 9.25 C
1996 14-09-2018 22:15:00 16.2 C 63 % 9.16 C
1997 14-09-2018 22:20:00 16 C 63 % 8.97 C
1998 14-09-2018 22:25:00 15.9 C 63 % 8.87 C
1999 14-09-2018 22:30:00 15.9 C 65 % 9.34 C
2000 14-09-2018 22:35:00 15.9 C 66 % 9.56 C
Sensor: Nr:Datum:Temp:Feuchte:Taupunkt:
Aussen-T/F 2001 14-09-2018 22:40:00 15.8 C 65 % 9.24 C
2002 14-09-2018 22:45:00 15.9 C 66 % 9.56 C
2003 14-09-2018 22:50:00 15.9 C 66 % 9.56 C
2004 14-09-2018 22:55:00 15.9 C 66 % 9.56 C
2005 14-09-2018 23:00:00 15.9 C 64 % 9.11 C
2006 14-09-2018 23:05:00 15.9 C 64 % 9.11 C
2007 14-09-2018 23:10:00 15.9 C 65 % 9.34 C
2008 14-09-2018 23:15:00 15.9 C 65 % 9.34 C
2009 14-09-2018 23:20:00 15.9 C 65 % 9.34 C
2010 14-09-2018 23:25:00 15.8 C 66 % 9.47 C
2011 14-09-2018 23:30:00 15.8 C 65 % 9.24 C
2012 14-09-2018 23:35:00 15.8 C 65 % 9.24 C
2013 14-09-2018 23:40:00 15.8 C 65 % 9.24 C
2014 14-09-2018 23:45:00 15.7 C 65 % 9.15 C
2015 14-09-2018 23:50:00 15.7 C 65 % 9.15 C
2016 14-09-2018 23:55:00 15.6 C 65 % 9.05 C
2017 15-09-2018 00:00:00 15.6 C 66 % 9.28 C
2018 15-09-2018 00:05:00 15.6 C 65 % 9.05 C
2019 15-09-2018 00:10:00 15.6 C 65 % 9.05 C
2020 15-09-2018 00:15:00 15.5 C 66 % 9.18 C
2021 15-09-2018 00:20:00 15.5 C 66 % 9.18 C
2022 15-09-2018 00:25:00 15.4 C 67 % 9.31 C
2023 15-09-2018 00:30:00 15.4 C 68 % 9.53 C
2024 15-09-2018 00:35:00 15.2 C 67 % 9.12 C
2025 15-09-2018 00:40:00 15 C 68 % 9.15 C
Sensor: Nr:Datum:Temp:Feuchte:Taupunkt:
Aussen-T/F 2026 15-09-2018 00:45:00 14.8 C 67 % 8.74 C
2027 15-09-2018 00:50:00 14.6 C 68 % 8.77 C
2028 15-09-2018 00:55:00 14.5 C 68 % 8.67 C
2029 15-09-2018 01:00:00 14.4 C 70 % 9 C
2030 15-09-2018 01:05:00 14.3 C 70 % 8.91 C
2031 15-09-2018 01:10:00 14.3 C 70 % 8.91 C
2032 15-09-2018 01:15:00 14.2 C 70 % 8.81 C
2033 15-09-2018 01:20:00 14.1 C 71 % 8.93 C
2034 15-09-2018 01:25:00 14 C 71 % 8.83 C
2035 15-09-2018 01:30:00 13.9 C 71 % 8.73 C
2036 15-09-2018 01:35:00 13.7 C 72 % 8.75 C
2037 15-09-2018 01:40:00 13.6 C 72 % 8.65 C
2038 15-09-2018 01:45:00 13.4 C 72 % 8.46 C
2039 15-09-2018 01:50:00 13.2 C 73 % 8.47 C
2040 15-09-2018 01:55:00 13.1 C 74 % 8.58 C
2041 15-09-2018 02:00:00 12.9 C 74 % 8.38 C
2042 15-09-2018 02:05:00 12.7 C 75 % 8.39 C
2043 15-09-2018 02:10:00 12.6 C 76 % 8.49 C
2044 15-09-2018 02:15:00 12.5 C 76 % 8.39 C
2045 15-09-2018 02:20:00 12.4 C 76 % 8.29 C
2046 15-09-2018 02:25:00 12.4 C 77 % 8.49 C
2047 15-09-2018 02:30:00 12.4 C 77 % 8.49 C
2048 15-09-2018 02:35:00 12.4 C 78 % 8.68 C
2049 15-09-2018 02:40:00 12.4 C 79 % 8.86 C
2050 15-09-2018 02:45:00 12.4 C 78 % 8.68 C
Sensor: Nr:Datum:Temp:Feuchte:Taupunkt:
Aussen-T/F 2051 15-09-2018 02:50:00 12.4 C 79 % 8.86 C
2052 15-09-2018 02:55:00 12.3 C 78 % 8.58 C
2053 15-09-2018 03:00:00 12.3 C 79 % 8.77 C
2054 15-09-2018 03:05:00 12.3 C 78 % 8.58 C
2055 15-09-2018 03:10:00 12.3 C 79 % 8.77 C
2056 15-09-2018 03:15:00 12.3 C 79 % 8.77 C
2057 15-09-2018 03:20:00 12.4 C 79 % 8.86 C
2058 15-09-2018 03:25:00 12.4 C 79 % 8.86 C
2059 15-09-2018 03:30:00 12.4 C 79 % 8.86 C
2060 15-09-2018 03:35:00 12.4 C 79 % 8.86 C
2061 15-09-2018 03:40:00 12.4 C 79 % 8.86 C
2062 15-09-2018 03:45:00 12.4 C 79 % 8.86 C
2063 15-09-2018 03:50:00 12.5 C 79 % 8.96 C
2064 15-09-2018 03:55:00 12.6 C 79 % 9.06 C
2065 15-09-2018 04:00:00 12.6 C 79 % 9.06 C
2066 15-09-2018 04:05:00 12.6 C 79 % 9.06 C
2067 15-09-2018 04:10:00 12.7 C 79 % 9.16 C
2068 15-09-2018 04:15:00 12.8 C 79 % 9.25 C
2069 15-09-2018 04:20:00 12.8 C 79 % 9.25 C
2070 15-09-2018 04:25:00 12.8 C 79 % 9.25 C
2071 15-09-2018 04:30:00 12.8 C 79 % 9.25 C
2072 15-09-2018 04:35:00 12.9 C 79 % 9.35 C
2073 15-09-2018 04:40:00 12.9 C 79 % 9.35 C
2074 15-09-2018 04:45:00 12.9 C 79 % 9.35 C
2075 15-09-2018 04:50:00 12.9 C 79 % 9.35 C
Sensor: Nr:Datum:Temp:Feuchte:Taupunkt:
Aussen-T/F 2076 15-09-2018 04:55:00 12.9 C 79 % 9.35 C
2077 15-09-2018 05:00:00 12.8 C 79 % 9.25 C
2078 15-09-2018 05:05:00 12.8 C 79 % 9.25 C
2079 15-09-2018 05:10:00 12.8 C 79 % 9.25 C
2080 15-09-2018 05:15:00 12.8 C 79 % 9.25 C
2081 15-09-2018 05:20:00 12.7 C 79 % 9.16 C
2082 15-09-2018 05:25:00 12.6 C 79 % 9.06 C
2083 15-09-2018 05:30:00 12.6 C 79 % 9.06 C
2084 15-09-2018 05:35:00 12.5 C 79 % 8.96 C
2085 15-09-2018 05:40:00 12.4 C 79 % 8.86 C
2086 15-09-2018 05:45:00 12.3 C 79 % 8.77 C
2087 15-09-2018 05:50:00 12.2 C 80 % 8.86 C
2088 15-09-2018 05:55:00 12.1 C 80 % 8.76 C
2089 15-09-2018 06:00:00 11.9 C 81 % 8.75 C
2090 15-09-2018 06:05:00 11.8 C 81 % 8.65 C
2091 15-09-2018 06:10:00 11.8 C 82 % 8.83 C
2092 15-09-2018 06:15:00 11.7 C 82 % 8.73 C
2093 15-09-2018 06:20:00 11.7 C 82 % 8.73 C
2094 15-09-2018 06:25:00 11.6 C 82 % 8.64 C
2095 15-09-2018 06:30:00 11.6 C 83 % 8.81 C
2096 15-09-2018 06:35:00 11.5 C 83 % 8.72 C
2097 15-09-2018 06:40:00 11.4 C 83 % 8.62 C
2098 15-09-2018 06:45:00 11.4 C 84 % 8.8 C
2099 15-09-2018 06:50:00 11.4 C 84 % 8.8 C
2100 15-09-2018 06:55:00 11.5 C 84 % 8.89 C
Sensor: Nr:Datum:Temp:Feuchte:Taupunkt:
Aussen-T/F 2101 15-09-2018 07:00:00 11.5 C 84 % 8.89 C
2102 15-09-2018 07:05:00 11.6 C 85 % 9.17 C
2103 15-09-2018 07:10:00 11.6 C 84 % 8.99 C
2104 15-09-2018 07:15:00 11.7 C 84 % 9.09 C
2105 15-09-2018 07:20:00 11.7 C 84 % 9.09 C
2106 15-09-2018 07:25:00 11.7 C 84 % 9.09 C
2107 15-09-2018 07:30:00 11.7 C 84 % 9.09 C
2108 15-09-2018 07:35:00 11.7 C 84 % 9.09 C
2109 15-09-2018 07:40:00 11.7 C 84 % 9.09 C
2110 15-09-2018 07:45:00 11.6 C 83 % 8.81 C
2111 15-09-2018 07:50:00 11.4 C 83 % 8.62 C
2112 15-09-2018 07:55:00 11.3 C 84 % 8.7 C
2113 15-09-2018 08:00:00 11.2 C 84 % 8.6 C
2114 15-09-2018 08:05:00 11.1 C 85 % 8.68 C
2115 15-09-2018 08:10:00 11.1 C 85 % 8.68 C
2116 15-09-2018 08:15:00 11 C 85 % 8.58 C
2117 15-09-2018 08:20:00 11 C 86 % 8.75 C
2118 15-09-2018 08:25:00 10.9 C 86 % 8.65 C
2119 15-09-2018 08:30:00 10.9 C 87 % 8.82 C
2120 15-09-2018 08:35:00 10.9 C 87 % 8.82 C
2121 15-09-2018 08:40:00 10.9 C 87 % 8.82 C
2122 15-09-2018 08:45:00 11 C 87 % 8.92 C
2123 15-09-2018 08:50:00 11 C 87 % 8.92 C
2124 15-09-2018 08:55:00 11.1 C 87 % 9.02 C
2125 15-09-2018 09:00:00 11.1 C 87 % 9.02 C
Sensor: Nr:Datum:Temp:Feuchte:Taupunkt:
Aussen-T/F 2126 15-09-2018 09:05:00 11.2 C 88 % 9.29 C
2127 15-09-2018 09:10:00 11.3 C 88 % 9.39 C
2128 15-09-2018 09:15:00 11.4 C 87 % 9.32 C
2129 15-09-2018 09:20:00 11.5 C 87 % 9.41 C
2130 15-09-2018 09:25:00 11.7 C 87 % 9.61 C
2131 15-09-2018 09:30:00 11.8 C 87 % 9.71 C
2132 15-09-2018 09:35:00 11.9 C 86 % 9.64 C
2133 15-09-2018 09:40:00 12.2 C 85 % 9.76 C
2134 15-09-2018 09:45:00 12.3 C 84 % 9.68 C
2135 15-09-2018 09:50:00 12.5 C 84 % 9.87 C
2136 15-09-2018 09:55:00 12.7 C 83 % 9.89 C
2137 15-09-2018 10:00:00 13.1 C 82 % 10.1 C
2138 15-09-2018 10:05:00 13.3 C 81 % 10.11 C
2139 15-09-2018 10:10:00 13.7 C 79 % 10.13 C
2140 15-09-2018 10:15:00 13.8 C 79 % 10.22 C
2141 15-09-2018 10:20:00 13.9 C 78 % 10.13 C
2142 15-09-2018 10:25:00 14.1 C 78 % 10.33 C
2143 15-09-2018 10:30:00 14.3 C 78 % 10.52 C
2144 15-09-2018 10:35:00 14.3 C 77 % 10.33 C
2145 15-09-2018 10:40:00 14.4 C 77 % 10.42 C
2146 15-09-2018 10:45:00 14.6 C 76 % 10.42 C
2147 15-09-2018 10:50:00 14.8 C 76 % 10.61 C
2148 15-09-2018 10:55:00 14.9 C 75 % 10.51 C
2149 15-09-2018 11:00:00 15.1 C 75 % 10.71 C
2150 15-09-2018 11:05:00 15.2 C 74 % 10.6 C
Sensor: Nr:Datum:Temp:Feuchte:Taupunkt:
Aussen-T/F 2151 15-09-2018 11:10:00 15.4 C 74 % 10.79 C
2152 15-09-2018 11:15:00 15.6 C 73 % 10.78 C
2153 15-09-2018 11:20:00 15.7 C 72 % 10.67 C
2154 15-09-2018 11:25:00 16 C 71 % 10.75 C
2155 15-09-2018 11:30:00 16.3 C 70 % 10.82 C
2156 15-09-2018 11:35:00 16.6 C 70 % 11.11 C
2157 15-09-2018 11:40:00 16.9 C 69 % 11.18 C
2158 15-09-2018 11:45:00 17.2 C 68 % 11.25 C
2159 15-09-2018 11:50:00 17.3 C 67 % 11.12 C
2160 15-09-2018 11:55:00 17.4 C 66 % 10.99 C
2161 15-09-2018 12:00:00 17.3 C 65 % 10.66 C
2162 15-09-2018 12:05:00 17.4 C 66 % 10.99 C
2163 15-09-2018 12:10:00 17.4 C 65 % 10.76 C
2164 15-09-2018 12:15:00 17.3 C 65 % 10.66 C
2165 15-09-2018 12:20:00 17.4 C 65 % 10.76 C
2166 15-09-2018 12:25:00 17.4 C 65 % 10.76 C
2167 15-09-2018 12:30:00 17.6 C 64 % 10.72 C
2168 15-09-2018 12:35:00 17.7 C 64 % 10.81 C
2169 15-09-2018 12:40:00 17.8 C 65 % 11.14 C
2170 15-09-2018 12:45:00 18 C 64 % 11.09 C
2171 15-09-2018 12:50:00 18.2 C 62 % 10.81 C
2172 15-09-2018 12:55:00 18.4 C 62 % 10.99 C
2173 15-09-2018 13:00:00 18.6 C 60 % 10.69 C
2174 15-09-2018 13:05:00 18.6 C 60 % 10.69 C
2175 15-09-2018 13:10:00 18.4 C 60 % 10.5 C
Sensor: Nr:Datum:Temp:Feuchte:Taupunkt:
Aussen-T/F 2176 15-09-2018 13:15:00 18.3 C 60 % 10.41 C
2177 15-09-2018 13:20:00 18.3 C 61 % 10.66 C
2178 15-09-2018 13:25:00 18.3 C 61 % 10.66 C
2179 15-09-2018 13:30:00 18.4 C 61 % 10.75 C
2180 15-09-2018 13:35:00 18.5 C 61 % 10.84 C
2181 15-09-2018 13:40:00 18.6 C 60 % 10.69 C
2182 15-09-2018 13:45:00 18.7 C 60 % 10.78 C
2183 15-09-2018 13:50:00 18.8 C 60 % 10.88 C
2184 15-09-2018 13:55:00 18.8 C 59 % 10.63 C
2185 15-09-2018 14:00:00 18.9 C 59 % 10.72 C
2186 15-09-2018 14:05:00 18.9 C 58 % 10.46 C
2187 15-09-2018 14:10:00 18.9 C 58 % 10.46 C
2188 15-09-2018 14:15:00 18.8 C 59 % 10.63 C
2189 15-09-2018 14:20:00 18.9 C 60 % 10.97 C
2190 15-09-2018 14:25:00 19 C 59 % 10.81 C
2191 15-09-2018 14:30:00 19.2 C 60 % 11.25 C
2192 15-09-2018 14:35:00 19.3 C 59 % 11.09 C
2193 15-09-2018 14:40:00 19.3 C 57 % 10.58 C
2194 15-09-2018 14:45:00 19.4 C 59 % 11.19 C
2195 15-09-2018 14:50:00 19.5 C 57 % 10.76 C
2196 15-09-2018 14:55:00 19.6 C 57 % 10.86 C
2197 15-09-2018 15:00:00 19.7 C 56 % 10.68 C
2198 15-09-2018 15:05:00 19.7 C 57 % 10.95 C
2199 15-09-2018 15:10:00 19.7 C 57 % 10.95 C
2200 15-09-2018 15:15:00 19.8 C 57 % 11.04 C
Sensor: Nr:Datum:Temp:Feuchte:Taupunkt:
Aussen-T/F 2201 15-09-2018 15:20:00 20.1 C 56 % 11.06 C
2202 15-09-2018 15:25:00 20.2 C 55 % 10.88 C
2203 15-09-2018 15:30:00 20.3 C 55 % 10.97 C
2204 15-09-2018 15:35:00 20.3 C 53 % 10.41 C
2205 15-09-2018 15:40:00 20.4 C 54 % 10.79 C
2206 15-09-2018 15:45:00 20.4 C 53 % 10.51 C
2207 15-09-2018 15:50:00 20.4 C 54 % 10.79 C
2208 15-09-2018 15:55:00 20.3 C 53 % 10.41 C
2209 15-09-2018 16:00:00 20.2 C 54 % 10.6 C
2210 15-09-2018 16:05:00 20 C 55 % 10.69 C
2211 15-09-2018 16:10:00 19.9 C 55 % 10.6 C
2212 15-09-2018 16:15:00 19.8 C 55 % 10.51 C
2213 15-09-2018 16:20:00 19.8 C 56 % 10.78 C
2214 15-09-2018 16:25:00 19.8 C 55 % 10.51 C
2215 15-09-2018 16:30:00 19.8 C 55 % 10.51 C
2216 15-09-2018 16:35:00 19.8 C 56 % 10.78 C
2217 15-09-2018 16:40:00 19.8 C 55 % 10.51 C
2218 15-09-2018 16:45:00 19.9 C 55 % 10.6 C
2219 15-09-2018 16:50:00 20.1 C 54 % 10.51 C
2220 15-09-2018 16:55:00 20.4 C 53 % 10.51 C
2221 15-09-2018 17:00:00 20.7 C 53 % 10.78 C
2222 15-09-2018 17:05:00 20.7 C 52 % 10.5 C
2223 15-09-2018 17:10:00 20.6 C 53 % 10.69 C
2224 15-09-2018 17:15:00 20.5 C 52 % 10.31 C
2225 15-09-2018 17:20:00 20.4 C 54 % 10.79 C
Sensor: Nr:Datum:Temp:Feuchte:Taupunkt:
Aussen-T/F 2226 15-09-2018 17:25:00 20.3 C 53 % 10.41 C
2227 15-09-2018 17:30:00 20.2 C 54 % 10.6 C
2228 15-09-2018 17:35:00 20.2 C 54 % 10.6 C
2229 15-09-2018 17:40:00 20.1 C 53 % 10.23 C
2230 15-09-2018 17:45:00 19.9 C 53 % 10.04 C
2231 15-09-2018 17:50:00 19.9 C 53 % 10.04 C
2232 15-09-2018 17:55:00 19.9 C 53 % 10.04 C
2233 15-09-2018 18:00:00 19.9 C 53 % 10.04 C
2234 15-09-2018 18:05:00 19.9 C 51 % 9.47 C
2235 15-09-2018 18:10:00 19.9 C 52 % 9.76 C
2236 15-09-2018 18:15:00 19.9 C 50 % 9.18 C
2237 15-09-2018 18:20:00 19.9 C 51 % 9.47 C
2238 15-09-2018 18:25:00 19.9 C 51 % 9.47 C
2239 15-09-2018 18:30:00 19.9 C 51 % 9.47 C
2240 15-09-2018 18:35:00 20 C 56 % 10.96 C
2241 15-09-2018 18:40:00 20 C 52 % 9.85 C
2242 15-09-2018 18:45:00 20.1 C 52 % 9.94 C
2243 15-09-2018 18:50:00 20.2 C 54 % 10.6 C
2244 15-09-2018 18:55:00 20.2 C 55 % 10.88 C
2245 15-09-2018 19:00:00 20.2 C 51 % 9.75 C
2246 15-09-2018 19:05:00 20.1 C 52 % 9.94 C
2247 15-09-2018 19:10:00 19.8 C 54 % 10.23 C
2248 15-09-2018 19:15:00 19.4 C 56 % 10.4 C
2249 15-09-2018 19:20:00 18.9 C 56 % 9.94 C
2250 15-09-2018 19:25:00 18.4 C 58 % 9.99 C
Sensor: Nr:Datum:Temp:Feuchte:Taupunkt:
Aussen-T/F 2251 15-09-2018 19:30:00 18 C 59 % 9.88 C
2252 15-09-2018 19:35:00 17.6 C 61 % 10 C
2253 15-09-2018 19:40:00 17.3 C 61 % 9.71 C
2254 15-09-2018 19:45:00 16.9 C 61 % 9.34 C
2255 15-09-2018 19:50:00 16.7 C 62 % 9.39 C
2256 15-09-2018 19:55:00 16.4 C 62 % 9.11 C
2257 15-09-2018 20:00:00 16.2 C 63 % 9.16 C
2258 15-09-2018 20:05:00 16 C 63 % 8.97 C
2259 15-09-2018 20:10:00 15.8 C 64 % 9.01 C
2260 15-09-2018 20:15:00 15.7 C 64 % 8.92 C
2261 15-09-2018 20:20:00 15.6 C 64 % 8.82 C
2262 15-09-2018 20:25:00 15.6 C 64 % 8.82 C
2263 15-09-2018 20:30:00 15.4 C 65 % 8.86 C
2264 15-09-2018 20:35:00 15.3 C 65 % 8.77 C
2265 15-09-2018 20:40:00 15.3 C 66 % 8.99 C
2266 15-09-2018 20:45:00 15.2 C 66 % 8.9 C
2267 15-09-2018 20:50:00 15 C 67 % 8.93 C
2268 15-09-2018 20:55:00 14.8 C 67 % 8.74 C
2269 15-09-2018 21:00:00 14.6 C 68 % 8.77 C
2270 15-09-2018 21:05:00 14.4 C 69 % 8.79 C
2271 15-09-2018 21:10:00 14.2 C 70 % 8.81 C
2272 15-09-2018 21:15:00 14.1 C 71 % 8.93 C
2273 15-09-2018 21:20:00 13.9 C 71 % 8.73 C
2274 15-09-2018 21:25:00 13.8 C 72 % 8.85 C
2275 15-09-2018 21:30:00 13.6 C 72 % 8.65 C
Sensor: Nr:Datum:Temp:Feuchte:Taupunkt:
Aussen-T/F 2276 15-09-2018 21:35:00 13.5 C 73 % 8.76 C
2277 15-09-2018 21:40:00 13.4 C 74 % 8.87 C
2278 15-09-2018 21:45:00 13.3 C 74 % 8.77 C
2279 15-09-2018 21:50:00 13.1 C 75 % 8.77 C
2280 15-09-2018 21:55:00 13 C 75 % 8.68 C
2281 15-09-2018 22:00:00 12.9 C 76 % 8.78 C
2282 15-09-2018 22:05:00 12.9 C 76 % 8.78 C
2283 15-09-2018 22:10:00 12.8 C 76 % 8.68 C
2284 15-09-2018 22:15:00 12.7 C 76 % 8.58 C
2285 15-09-2018 22:20:00 12.6 C 76 % 8.49 C
2286 15-09-2018 22:25:00 12.6 C 77 % 8.68 C
2287 15-09-2018 22:30:00 12.6 C 77 % 8.68 C
2288 15-09-2018 22:35:00 12.5 C 77 % 8.58 C
2289 15-09-2018 22:40:00 12.4 C 77 % 8.49 C
2290 15-09-2018 22:45:00 12.4 C 77 % 8.49 C
2291 15-09-2018 22:50:00 12.3 C 78 % 8.58 C
2292 15-09-2018 22:55:00 12.3 C 78 % 8.58 C
2293 15-09-2018 23:00:00 12.2 C 78 % 8.48 C
2294 15-09-2018 23:05:00 12.2 C 78 % 8.48 C
2295 15-09-2018 23:10:00 12.2 C 79 % 8.67 C
2296 15-09-2018 23:15:00 12.1 C 79 % 8.57 C
2297 15-09-2018 23:20:00 12.1 C 79 % 8.57 C
2298 15-09-2018 23:25:00 12 C 79 % 8.48 C
2299 15-09-2018 23:30:00 11.9 C 79 % 8.38 C
2300 15-09-2018 23:35:00 11.9 C 79 % 8.38 C
Sensor: Nr:Datum:Temp:Feuchte:Taupunkt:
Aussen-T/F 2301 15-09-2018 23:40:00 11.8 C 79 % 8.28 C
2302 15-09-2018 23:45:00 11.8 C 79 % 8.28 C
2303 15-09-2018 23:50:00 11.7 C 79 % 8.18 C
2304 15-09-2018 23:55:00 11.6 C 80 % 8.27 C
2305 16-09-2018 00:00:00 11.5 C 80 % 8.17 C
2306 16-09-2018 00:05:00 11.4 C 80 % 8.08 C
2307 16-09-2018 00:10:00 11.3 C 80 % 7.98 C
2308 16-09-2018 00:15:00 11.2 C 81 % 8.06 C
2309 16-09-2018 00:20:00 11.1 C 81 % 7.97 C
2310 16-09-2018 00:25:00 11.1 C 81 % 7.97 C
2311 16-09-2018 00:30:00 10.9 C 82 % 7.95 C
2312 16-09-2018 00:35:00 10.8 C 82 % 7.85 C
2313 16-09-2018 00:40:00 10.8 C 82 % 7.85 C
2314 16-09-2018 00:45:00 10.8 C 82 % 7.85 C
2315 16-09-2018 00:50:00 10.7 C 82 % 7.76 C
2316 16-09-2018 00:55:00 10.6 C 83 % 7.84 C
2317 16-09-2018 01:00:00 10.5 C 83 % 7.74 C
2318 16-09-2018 01:05:00 10.4 C 83 % 7.64 C
2319 16-09-2018 01:10:00 10.3 C 83 % 7.54 C
2320 16-09-2018 01:15:00 10.3 C 84 % 7.72 C
2321 16-09-2018 01:20:00 10.2 C 84 % 7.62 C
2322 16-09-2018 01:25:00 10.2 C 84 % 7.62 C
2323 16-09-2018 01:30:00 10.1 C 84 % 7.52 C
2324 16-09-2018 01:35:00 10.1 C 85 % 7.7 C
2325 16-09-2018 01:40:00 10.1 C 85 % 7.7 C
Sensor: Nr:Datum:Temp:Feuchte:Taupunkt:
Aussen-T/F 2326 16-09-2018 01:45:00 10 C 85 % 7.6 C
2327 16-09-2018 01:50:00 9.9 C 85 % 7.5 C
2328 16-09-2018 01:55:00 9.8 C 85 % 7.4 C
2329 16-09-2018 02:00:00 9.7 C 85 % 7.3 C
2330 16-09-2018 02:05:00 9.7 C 86 % 7.47 C
2331 16-09-2018 02:10:00 9.6 C 86 % 7.38 C
2332 16-09-2018 02:15:00 9.4 C 86 % 7.18 C
2333 16-09-2018 02:20:00 9.4 C 87 % 7.35 C
2334 16-09-2018 02:25:00 9.3 C 87 % 7.25 C
2335 16-09-2018 02:30:00 9.3 C 87 % 7.25 C
2336 16-09-2018 02:35:00 9.3 C 87 % 7.25 C
2337 16-09-2018 02:40:00 9.2 C 88 % 7.32 C
2338 16-09-2018 02:45:00 9.2 C 88 % 7.32 C
2339 16-09-2018 02:50:00 9.2 C 88 % 7.32 C
2340 16-09-2018 02:55:00 9.2 C 88 % 7.32 C
2341 16-09-2018 03:00:00 9.2 C 88 % 7.32 C
2342 16-09-2018 03:05:00 9.1 C 88 % 7.22 C
2343 16-09-2018 03:10:00 9.1 C 89 % 7.39 C
2344 16-09-2018 03:15:00 9.1 C 89 % 7.39 C
2345 16-09-2018 03:20:00 9.1 C 89 % 7.39 C
2346 16-09-2018 03:25:00 9.1 C 89 % 7.39 C
2347 16-09-2018 03:30:00 8.9 C 89 % 7.19 C
2348 16-09-2018 03:35:00 8.9 C 89 % 7.19 C
2349 16-09-2018 03:40:00 8.9 C 89 % 7.19 C
2350 16-09-2018 03:45:00 8.8 C 89 % 7.09 C
Sensor: Nr:Datum:Temp:Feuchte:Taupunkt:
Aussen-T/F 2351 16-09-2018 03:50:00 8.8 C 89 % 7.09 C
2352 16-09-2018 03:55:00 8.7 C 89 % 6.99 C
2353 16-09-2018 04:00:00 8.6 C 89 % 6.89 C
2354 16-09-2018 04:05:00 8.6 C 90 % 7.06 C
2355 16-09-2018 04:10:00 8.6 C 90 % 7.06 C
2356 16-09-2018 04:15:00 8.5 C 90 % 6.96 C
2357 16-09-2018 04:20:00 8.5 C 90 % 6.96 C
2358 16-09-2018 04:25:00 8.5 C 90 % 6.96 C
2359 16-09-2018 04:30:00 8.4 C 90 % 6.86 C
2360 16-09-2018 04:35:00 8.3 C 90 % 6.76 C
2361 16-09-2018 04:40:00 8.3 C 90 % 6.76 C
2362 16-09-2018 04:45:00 8.2 C 90 % 6.66 C
2363 16-09-2018 04:50:00 8.1 C 91 % 6.72 C
2364 16-09-2018 04:55:00 8.1 C 91 % 6.72 C
2365 16-09-2018 05:00:00 8.1 C 91 % 6.72 C
2366 16-09-2018 05:05:00 8 C 91 % 6.62 C
2367 16-09-2018 05:10:00 8.1 C 91 % 6.72 C
2368 16-09-2018 05:15:00 8.1 C 91 % 6.72 C
2369 16-09-2018 05:20:00 8 C 91 % 6.62 C
2370 16-09-2018 05:25:00 7.9 C 91 % 6.52 C
2371 16-09-2018 05:30:00 7.9 C 91 % 6.52 C
2372 16-09-2018 05:35:00 7.8 C 91 % 6.43 C
2373 16-09-2018 05:40:00 7.8 C 91 % 6.43 C
2374 16-09-2018 05:45:00 7.8 C 92 % 6.58 C
2375 16-09-2018 05:50:00 7.8 C 92 % 6.58 C
Sensor: Nr:Datum:Temp:Feuchte:Taupunkt:
Aussen-T/F 2376 16-09-2018 05:55:00 7.7 C 92 % 6.48 C
2377 16-09-2018 06:00:00 7.7 C 92 % 6.48 C
2378 16-09-2018 06:05:00 7.7 C 92 % 6.48 C
2379 16-09-2018 06:10:00 7.6 C 92 % 6.39 C
2380 16-09-2018 06:15:00 7.6 C 92 % 6.39 C
2381 16-09-2018 06:20:00 7.5 C 92 % 6.29 C
2382 16-09-2018 06:25:00 7.4 C 92 % 6.19 C
2383 16-09-2018 06:30:00 7.4 C 92 % 6.19 C
2384 16-09-2018 06:35:00 7.4 C 92 % 6.19 C
2385 16-09-2018 06:40:00 7.4 C 92 % 6.19 C
2386 16-09-2018 06:45:00 7.3 C 92 % 6.09 C
2387 16-09-2018 06:50:00 7.3 C 92 % 6.09 C
2388 16-09-2018 06:55:00 7.2 C 92 % 5.99 C
2389 16-09-2018 07:00:00 7.2 C 92 % 5.99 C
2390 16-09-2018 07:05:00 7.1 C 92 % 5.89 C
2391 16-09-2018 07:10:00 7.1 C 93 % 6.05 C
2392 16-09-2018 07:15:00 7.1 C 93 % 6.05 C
2393 16-09-2018 07:20:00 7.1 C 93 % 6.05 C
2394 16-09-2018 07:25:00 7.1 C 93 % 6.05 C
2395 16-09-2018 07:30:00 7.1 C 93 % 6.05 C
2396 16-09-2018 07:35:00 7.1 C 93 % 6.05 C
2397 16-09-2018 07:40:00 7.1 C 93 % 6.05 C
2398 16-09-2018 07:45:00 7.1 C 93 % 6.05 C
2399 16-09-2018 07:50:00 7.1 C 93 % 6.05 C
2400 16-09-2018 07:55:00 7.1 C 93 % 6.05 C
Sensor: Nr:Datum:Temp:Feuchte:Taupunkt:
Aussen-T/F 2401 16-09-2018 08:00:00 7.2 C 93 % 6.15 C
2402 16-09-2018 08:05:00 7.2 C 93 % 6.15 C
2403 16-09-2018 08:10:00 7.2 C 93 % 6.15 C
2404 16-09-2018 08:15:00 7.3 C 94 % 6.4 C
2405 16-09-2018 08:20:00 7.3 C 94 % 6.4 C
2406 16-09-2018 08:25:00 7.3 C 94 % 6.4 C
2407 16-09-2018 08:30:00 7.4 C 94 % 6.5 C
2408 16-09-2018 08:35:00 7.5 C 94 % 6.6 C
2409 16-09-2018 08:40:00 7.6 C 94 % 6.7 C
2410 16-09-2018 08:45:00 7.6 C 94 % 6.7 C
2411 16-09-2018 08:50:00 7.7 C 94 % 6.8 C
2412 16-09-2018 08:55:00 7.8 C 94 % 6.9 C
2413 16-09-2018 09:00:00 7.8 C 94 % 6.9 C
2414 16-09-2018 09:05:00 7.9 C 94 % 7 C
2415 16-09-2018 09:10:00 7.9 C 94 % 7 C
2416 16-09-2018 09:15:00 8.1 C 94 % 7.19 C
2417 16-09-2018 09:20:00 8.2 C 94 % 7.29 C
2418 16-09-2018 09:25:00 8.3 C 95 % 7.55 C
2419 16-09-2018 09:30:00 8.3 C 95 % 7.55 C
2420 16-09-2018 09:35:00 8.5 C 95 % 7.75 C
2421 16-09-2018 09:40:00 8.6 C 95 % 7.85 C
2422 16-09-2018 09:45:00 8.7 C 95 % 7.94 C
2423 16-09-2018 09:50:00 8.8 C 95 % 8.04 C
2424 16-09-2018 09:55:00 9 C 95 % 8.24 C
2425 16-09-2018 10:00:00 9.1 C 95 % 8.34 C
Sensor: Nr:Datum:Temp:Feuchte:Taupunkt:
Aussen-T/F 2426 16-09-2018 10:05:00 9.3 C 95 % 8.54 C
2427 16-09-2018 10:10:00 9.4 C 95 % 8.64 C
2428 16-09-2018 10:15:00 9.6 C 95 % 8.84 C
2429 16-09-2018 10:20:00 9.7 C 95 % 8.94 C
2430 16-09-2018 10:25:00 9.9 C 95 % 9.14 C
2431 16-09-2018 10:30:00 10.1 C 95 % 9.34 C
2432 16-09-2018 10:35:00 10.3 C 95 % 9.54 C
2433 16-09-2018 10:40:00 10.4 C 95 % 9.63 C
2434 16-09-2018 10:45:00 10.6 C 94 % 9.68 C
2435 16-09-2018 10:50:00 10.9 C 94 % 9.97 C
2436 16-09-2018 10:55:00 11.2 C 94 % 10.27 C
2437 16-09-2018 11:00:00 11.5 C 93 % 10.41 C
2438 16-09-2018 11:05:00 11.8 C 93 % 10.71 C
2439 16-09-2018 11:10:00 12.1 C 92 % 10.84 C
2440 16-09-2018 11:15:00 12.3 C 91 % 10.87 C
2441 16-09-2018 11:20:00 12.7 C 90 % 11.1 C
2442 16-09-2018 11:25:00 13.1 C 89 % 11.33 C
2443 16-09-2018 11:30:00 13.4 C 88 % 11.45 C
2444 16-09-2018 11:35:00 13.7 C 86 % 11.4 C
2445 16-09-2018 11:40:00 14.1 C 85 % 11.62 C
2446 16-09-2018 11:45:00 14.4 C 82 % 11.37 C
2447 16-09-2018 11:50:00 14.9 C 80 % 11.48 C
2448 16-09-2018 11:55:00 15.3 C 78 % 11.49 C
2449 16-09-2018 12:00:00 15.8 C 75 % 11.38 C
2450 16-09-2018 12:05:00 16.4 C 71 % 11.13 C
Sensor: Nr:Datum:Temp:Feuchte:Taupunkt:
Aussen-T/F 2451 16-09-2018 12:10:00 17 C 68 % 11.06 C
2452 16-09-2018 12:15:00 17.3 C 67 % 11.12 C
2453 16-09-2018 12:20:00 17.7 C 64 % 10.81 C
2454 16-09-2018 12:25:00 17.9 C 61 % 10.28 C
2455 16-09-2018 12:30:00 18.3 C 62 % 10.9 C
2456 16-09-2018 12:35:00 18.7 C 61 % 11.03 C
2457 16-09-2018 12:40:00 19 C 57 % 10.3 C
2458 16-09-2018 12:45:00 19.2 C 59 % 11 C
2459 16-09-2018 12:50:00 19.5 C 54 % 9.95 C
2460 16-09-2018 12:55:00 19.8 C 54 % 10.23 C
2461 16-09-2018 13:00:00 20 C 53 % 10.14 C
2462 16-09-2018 13:05:00 20.2 C 52 % 10.04 C
2463 16-09-2018 13:10:00 20.4 C 52 % 10.22 C
2464 16-09-2018 13:15:00 20.6 C 50 % 9.82 C
2465 16-09-2018 13:20:00 20.8 C 49 % 9.7 C
2466 16-09-2018 13:25:00 21 C 49 % 9.89 C
2467 16-09-2018 13:30:00 21.3 C 48 % 9.85 C
2468 16-09-2018 13:35:00 21.4 C 48 % 9.94 C
2469 16-09-2018 13:40:00 21.6 C 47 % 9.81 C
2470 16-09-2018 13:45:00 21.7 C 47 % 9.9 C
2471 16-09-2018 13:50:00 21.9 C 49 % 10.71 C
2472 16-09-2018 13:55:00 21.9 C 51 % 11.31 C
2473 16-09-2018 14:00:00 21.9 C 47 % 10.09 C
2474 16-09-2018 14:05:00 22.1 C 46 % 9.95 C
2475 16-09-2018 14:10:00 22.3 C 44 % 9.47 C
Sensor: Nr:Datum:Temp:Feuchte:Taupunkt:
Aussen-T/F 2476 16-09-2018 14:15:00 22.3 C 44 % 9.47 C
2477 16-09-2018 14:20:00 22.3 C 45 % 9.8 C
2478 16-09-2018 14:25:00 22.3 C 44 % 9.47 C
2479 16-09-2018 14:30:00 22.5 C 44 % 9.65 C
2480 16-09-2018 14:35:00 22.7 C 43 % 9.49 C
2481 16-09-2018 14:40:00 22.8 C 43 % 9.58 C
2482 16-09-2018 14:45:00 22.9 C 44 % 10.01 C
2483 16-09-2018 14:50:00 23.1 C 43 % 9.85 C
2484 16-09-2018 14:55:00 23.1 C 43 % 9.85 C
2485 16-09-2018 15:00:00 23.1 C 43 % 9.85 C
2486 16-09-2018 15:05:00 23.2 C 43 % 9.94 C
2487 16-09-2018 15:10:00 23.2 C 42 % 9.59 C
2488 16-09-2018 15:15:00 23.2 C 42 % 9.59 C
2489 16-09-2018 15:20:00 23.2 C 42 % 9.59 C
2490 16-09-2018 15:25:00 23.3 C 41 % 9.32 C
2491 16-09-2018 15:30:00 23.4 C 42 % 9.77 C
2492 16-09-2018 15:35:00 23.6 C 41 % 9.59 C
2493 16-09-2018 15:40:00 23.7 C 43 % 10.39 C
2494 16-09-2018 15:45:00 23.7 C 40 % 9.31 C
2495 16-09-2018 15:50:00 23.8 C 39 % 9.02 C
2496 16-09-2018 15:55:00 23.9 C 40 % 9.49 C
2497 16-09-2018 16:00:00 23.9 C 39 % 9.11 C
2498 16-09-2018 16:05:00 23.9 C 39 % 9.11 C
2499 16-09-2018 16:10:00 24.1 C 40 % 9.67 C
2500 16-09-2018 16:15:00 24.2 C 38 % 8.99 C
Sensor: Nr:Datum:Temp:Feuchte:Taupunkt:
Aussen-T/F 2501 16-09-2018 16:20:00 24.2 C 38 % 8.99 C
2502 16-09-2018 16:25:00 24.2 C 38 % 8.99 C
2503 16-09-2018 16:30:00 24.2 C 38 % 8.99 C
2504 16-09-2018 16:35:00 24.2 C 38 % 8.99 C
2505 16-09-2018 16:40:00 24.2 C 39 % 9.38 C
2506 16-09-2018 16:45:00 24.1 C 39 % 9.29 C
2507 16-09-2018 16:50:00 24.2 C 39 % 9.38 C
2508 16-09-2018 16:55:00 24.2 C 39 % 9.38 C
2509 16-09-2018 17:00:00 24.3 C 39 % 9.47 C
2510 16-09-2018 17:05:00 24.5 C 39 % 9.65 C
2511 16-09-2018 17:10:00 24.8 C 37 % 9.13 C
2512 16-09-2018 17:15:00 24.9 C 38 % 9.61 C
2513 16-09-2018 17:20:00 25.1 C 37 % 9.39 C
2514 16-09-2018 17:25:00 25.2 C 37 % 9.48 C
2515 16-09-2018 17:30:00 25.2 C 38 % 9.88 C
2516 16-09-2018 17:35:00 25 C 38 % 9.7 C
2517 16-09-2018 17:40:00 24.8 C 37 % 9.13 C
2518 16-09-2018 17:45:00 24.7 C 38 % 9.44 C
2519 16-09-2018 17:50:00 24.6 C 40 % 10.11 C
2520 16-09-2018 17:55:00 24.4 C 41 % 10.3 C
2521 16-09-2018 18:00:00 24.4 C 46 % 12.04 C
2522 16-09-2018 18:05:00 24.4 C 41 % 10.3 C
2523 16-09-2018 18:10:00 24.4 C 45 % 11.7 C
2524 16-09-2018 18:15:00 24.4 C 45 % 11.7 C
2525 16-09-2018 18:20:00 24.4 C 46 % 12.04 C
Sensor: Nr:Datum:Temp:Feuchte:Taupunkt:
Aussen-T/F 2526 16-09-2018 18:25:00 24.4 C 44 % 11.36 C
2527 16-09-2018 18:30:00 24.3 C 45 % 11.61 C
2528 16-09-2018 18:35:00 24.1 C 46 % 11.76 C
2529 16-09-2018 18:40:00 23.8 C 47 % 11.82 C
2530 16-09-2018 18:45:00 23.6 C 47 % 11.63 C
2531 16-09-2018 18:50:00 23.4 C 47 % 11.45 C
2532 16-09-2018 18:55:00 23 C 48 % 11.41 C
2533 16-09-2018 19:00:00 22.5 C 49 % 11.26 C
2534 16-09-2018 19:05:00 22 C 49 % 10.8 C
2535 16-09-2018 19:10:00 21.5 C 50 % 10.65 C
2536 16-09-2018 19:15:00 21.1 C 51 % 10.58 C
2537 16-09-2018 19:20:00 20.8 C 52 % 10.59 C
2538 16-09-2018 19:25:00 20.4 C 51 % 9.93 C
2539 16-09-2018 19:30:00 20.2 C 52 % 10.04 C
2540 16-09-2018 19:35:00 19.9 C 53 % 10.04 C
2541 16-09-2018 19:40:00 19.6 C 53 % 9.77 C
2542 16-09-2018 19:45:00 19.4 C 54 % 9.86 C
2543 16-09-2018 19:50:00 19.2 C 54 % 9.67 C
2544 16-09-2018 19:55:00 19 C 55 % 9.76 C
2545 16-09-2018 20:00:00 18.8 C 55 % 9.58 C
2546 16-09-2018 20:05:00 18.7 C 56 % 9.75 C
2547 16-09-2018 20:10:00 18.6 C 56 % 9.66 C
2548 16-09-2018 20:15:00 18.5 C 57 % 9.83 C
2549 16-09-2018 20:20:00 18.4 C 57 % 9.74 C
2550 16-09-2018 20:25:00 18.3 C 57 % 9.64 C
Sensor: Nr:Datum:Temp:Feuchte:Taupunkt:
Aussen-T/F 2551 16-09-2018 20:30:00 18.3 C 57 % 9.64 C
2552 16-09-2018 20:35:00 18.3 C 58 % 9.9 C
2553 16-09-2018 20:40:00 18.2 C 59 % 10.06 C
2554 16-09-2018 20:45:00 18.1 C 59 % 9.97 C
2555 16-09-2018 20:50:00 18.1 C 60 % 10.22 C
2556 16-09-2018 20:55:00 17.9 C 60 % 10.03 C
2557 16-09-2018 21:00:00 17.9 C 60 % 10.03 C
2558 16-09-2018 21:05:00 17.8 C 60 % 9.94 C
2559 16-09-2018 21:10:00 17.8 C 60 % 9.94 C
2560 16-09-2018 21:15:00 17.7 C 61 % 10.09 C
2561 16-09-2018 21:20:00 17.7 C 61 % 10.09 C
2562 16-09-2018 21:25:00 17.7 C 61 % 10.09 C
2563 16-09-2018 21:30:00 17.6 C 62 % 10.24 C
2564 16-09-2018 21:35:00 17.5 C 63 % 10.38 C
2565 16-09-2018 21:40:00 17.3 C 63 % 10.2 C
2566 16-09-2018 21:45:00 17 C 64 % 10.15 C
2567 16-09-2018 21:50:00 16.7 C 65 % 10.09 C
2568 16-09-2018 21:55:00 16.5 C 66 % 10.13 C
2569 16-09-2018 22:00:00 16.2 C 67 % 10.07 C
2570 16-09-2018 22:05:00 16 C 67 % 9.88 C
2571 16-09-2018 22:10:00 15.8 C 68 % 9.91 C
2572 16-09-2018 22:15:00 15.7 C 68 % 9.82 C
2573 16-09-2018 22:20:00 15.6 C 68 % 9.72 C
2574 16-09-2018 22:25:00 15.5 C 69 % 9.84 C
2575 16-09-2018 22:30:00 15.3 C 69 % 9.65 C
Sensor: Nr:Datum:Temp:Feuchte:Taupunkt:
Aussen-T/F 2576 16-09-2018 22:35:00 15.2 C 70 % 9.77 C
2577 16-09-2018 22:40:00 15 C 71 % 9.79 C
2578 16-09-2018 22:45:00 14.8 C 71 % 9.6 C
2579 16-09-2018 22:50:00 14.8 C 71 % 9.6 C
2580 16-09-2018 22:55:00 14.8 C 72 % 9.81 C
2581 16-09-2018 23:00:00 14.8 C 72 % 9.81 C
2582 16-09-2018 23:05:00 14.6 C 72 % 9.61 C
2583 16-09-2018 23:10:00 14.4 C 73 % 9.63 C
2584 16-09-2018 23:15:00 14.2 C 74 % 9.64 C
2585 16-09-2018 23:20:00 14.1 C 75 % 9.74 C
2586 16-09-2018 23:25:00 13.9 C 75 % 9.55 C
2587 16-09-2018 23:30:00 13.9 C 76 % 9.74 C
2588 16-09-2018 23:35:00 13.9 C 76 % 9.74 C
2589 16-09-2018 23:40:00 13.9 C 75 % 9.55 C
2590 16-09-2018 23:45:00 13.8 C 76 % 9.65 C
2591 16-09-2018 23:50:00 13.7 C 75 % 9.35 C
2592 16-09-2018 23:55:00 13.5 C 76 % 9.36 C
2593 17-09-2018 00:00:00 13.3 C 77 % 9.36 C
2594 17-09-2018 00:05:00 13.2 C 78 % 9.45 C
2595 17-09-2018 00:10:00 13.2 C 78 % 9.45 C
2596 17-09-2018 00:15:00 13.1 C 78 % 9.36 C
2597 17-09-2018 00:20:00 13.1 C 78 % 9.36 C
2598 17-09-2018 00:25:00 13 C 78 % 9.26 C
2599 17-09-2018 00:30:00 12.9 C 79 % 9.35 C
2600 17-09-2018 00:35:00 12.9 C 79 % 9.35 C
Sensor: Nr:Datum:Temp:Feuchte:Taupunkt:
Aussen-T/F 2601 17-09-2018 00:40:00 12.8 C 79 % 9.25 C
2602 17-09-2018 00:45:00 12.8 C 79 % 9.25 C
2603 17-09-2018 00:50:00 12.7 C 79 % 9.16 C
2604 17-09-2018 00:55:00 12.6 C 79 % 9.06 C
2605 17-09-2018 01:00:00 12.5 C 79 % 8.96 C
2606 17-09-2018 01:05:00 12.4 C 80 % 9.05 C
2607 17-09-2018 01:10:00 12.5 C 80 % 9.15 C
2608 17-09-2018 01:15:00 12.4 C 79 % 8.86 C
2609 17-09-2018 01:20:00 12.4 C 79 % 8.86 C
2610 17-09-2018 01:25:00 12.4 C 80 % 9.05 C
2611 17-09-2018 01:30:00 12.4 C 80 % 9.05 C
2612 17-09-2018 01:35:00 12.3 C 80 % 8.95 C
2613 17-09-2018 01:40:00 12.3 C 81 % 9.14 C
2614 17-09-2018 01:45:00 12.3 C 80 % 8.95 C
2615 17-09-2018 01:50:00 12.2 C 80 % 8.86 C
2616 17-09-2018 01:55:00 12.1 C 81 % 8.94 C
2617 17-09-2018 02:00:00 11.9 C 81 % 8.75 C
2618 17-09-2018 02:05:00 11.8 C 82 % 8.83 C
2619 17-09-2018 02:10:00 11.7 C 82 % 8.73 C
2620 17-09-2018 02:15:00 11.6 C 82 % 8.64 C
2621 17-09-2018 02:20:00 11.5 C 83 % 8.72 C
2622 17-09-2018 02:25:00 11.5 C 83 % 8.72 C
2623 17-09-2018 02:30:00 11.5 C 83 % 8.72 C
2624 17-09-2018 02:35:00 11.4 C 83 % 8.62 C
2625 17-09-2018 02:40:00 11.4 C 83 % 8.62 C
Sensor: Nr:Datum:Temp:Feuchte:Taupunkt:
Aussen-T/F 2626 17-09-2018 02:45:00 11.3 C 83 % 8.52 C
2627 17-09-2018 02:50:00 11.3 C 84 % 8.7 C
2628 17-09-2018 02:55:00 11.2 C 84 % 8.6 C
2629 17-09-2018 03:00:00 11.2 C 84 % 8.6 C
2630 17-09-2018 03:05:00 11.1 C 85 % 8.68 C
2631 17-09-2018 03:10:00 11.3 C 85 % 8.87 C
2632 17-09-2018 03:15:00 11.4 C 84 % 8.8 C
2633 17-09-2018 03:20:00 11.4 C 83 % 8.62 C
2634 17-09-2018 03:25:00 11.3 C 83 % 8.52 C
2635 17-09-2018 03:30:00 11.1 C 84 % 8.5 C
2636 17-09-2018 03:35:00 11.1 C 85 % 8.68 C
2637 17-09-2018 03:40:00 11 C 85 % 8.58 C
2638 17-09-2018 03:45:00 11 C 85 % 8.58 C
2639 17-09-2018 03:50:00 10.9 C 85 % 8.48 C
2640 17-09-2018 03:55:00 10.8 C 85 % 8.38 C
2641 17-09-2018 04:00:00 10.8 C 85 % 8.38 C
2642 17-09-2018 04:05:00 10.7 C 85 % 8.28 C
2643 17-09-2018 04:10:00 10.6 C 86 % 8.36 C
2644 17-09-2018 04:15:00 10.5 C 86 % 8.26 C
2645 17-09-2018 04:20:00 10.3 C 86 % 8.06 C
2646 17-09-2018 04:25:00 10.2 C 86 % 7.97 C
2647 17-09-2018 04:30:00 10.2 C 87 % 8.14 C
2648 17-09-2018 04:35:00 10.2 C 87 % 8.14 C
2649 17-09-2018 04:40:00 10.2 C 88 % 8.3 C
2650 17-09-2018 04:45:00 10.2 C 88 % 8.3 C
Sensor: Nr:Datum:Temp:Feuchte:Taupunkt:
Aussen-T/F 2651 17-09-2018 04:50:00 10.1 C 88 % 8.21 C
2652 17-09-2018 04:55:00 10 C 88 % 8.11 C
2653 17-09-2018 05:00:00 9.8 C 88 % 7.91 C
2654 17-09-2018 05:05:00 9.8 C 88 % 7.91 C
2655 17-09-2018 05:10:00 9.7 C 88 % 7.81 C
2656 17-09-2018 05:15:00 9.6 C 88 % 7.71 C
2657 17-09-2018 05:20:00 9.6 C 89 % 7.88 C
2658 17-09-2018 05:25:00 9.4 C 89 % 7.68 C
2659 17-09-2018 05:30:00 9.4 C 89 % 7.68 C
2660 17-09-2018 05:35:00 9.4 C 89 % 7.68 C
2661 17-09-2018 05:40:00 9.4 C 90 % 7.85 C
2662 17-09-2018 05:45:00 9.4 C 90 % 7.85 C
2663 17-09-2018 05:50:00 9.3 C 90 % 7.75 C
2664 17-09-2018 05:55:00 9.2 C 90 % 7.65 C
2665 17-09-2018 06:00:00 9.3 C 91 % 7.91 C
2666 17-09-2018 06:05:00 9.3 C 90 % 7.75 C
2667 17-09-2018 06:10:00 9.3 C 90 % 7.75 C
2668 17-09-2018 06:15:00 9.2 C 90 % 7.65 C
2669 17-09-2018 06:20:00 9.1 C 90 % 7.55 C
2670 17-09-2018 06:25:00 9.1 C 90 % 7.55 C
2671 17-09-2018 06:30:00 9 C 90 % 7.45 C
2672 17-09-2018 06:35:00 9 C 91 % 7.61 C
2673 17-09-2018 06:40:00 8.9 C 90 % 7.35 C
2674 17-09-2018 06:45:00 8.9 C 91 % 7.51 C
2675 17-09-2018 06:50:00 8.8 C 91 % 7.41 C
Sensor: Nr:Datum:Temp:Feuchte:Taupunkt:
Aussen-T/F 2676 17-09-2018 06:55:00 8.9 C 91 % 7.51 C
2677 17-09-2018 07:00:00 8.9 C 91 % 7.51 C
2678 17-09-2018 07:05:00 8.8 C 91 % 7.41 C
2679 17-09-2018 07:10:00 8.7 C 91 % 7.32 C
2680 17-09-2018 07:15:00 8.6 C 91 % 7.22 C
2681 17-09-2018 07:20:00 8.7 C 92 % 7.47 C
2682 17-09-2018 07:25:00 8.9 C 93 % 7.83 C
2683 17-09-2018 07:30:00 8.9 C 92 % 7.67 C
2684 17-09-2018 07:35:00 8.8 C 92 % 7.57 C
2685 17-09-2018 07:40:00 8.8 C 92 % 7.57 C
2686 17-09-2018 07:45:00 8.7 C 92 % 7.47 C
2687 17-09-2018 07:50:00 8.8 C 93 % 7.73 C
2688 17-09-2018 07:55:00 8.9 C 93 % 7.83 C
2689 17-09-2018 08:00:00 9 C 92 % 7.77 C
2690 17-09-2018 08:05:00 9 C 92 % 7.77 C
2691 17-09-2018 08:10:00 9.1 C 92 % 7.87 C
2692 17-09-2018 08:15:00 9.1 C 93 % 8.03 C
2693 17-09-2018 08:20:00 9.3 C 93 % 8.23 C
2694 17-09-2018 08:25:00 9.4 C 93 % 8.33 C
2695 17-09-2018 08:30:00 9.5 C 92 % 8.27 C
2696 17-09-2018 08:35:00 9.5 C 92 % 8.27 C
2697 17-09-2018 08:40:00 9.5 C 92 % 8.27 C
2698 17-09-2018 08:45:00 9.5 C 92 % 8.27 C
2699 17-09-2018 08:50:00 9.6 C 92 % 8.37 C
2700 17-09-2018 08:55:00 9.6 C 92 % 8.37 C
Sensor: Nr:Datum:Temp:Feuchte:Taupunkt:
Aussen-T/F 2701 17-09-2018 09:00:00 9.7 C 93 % 8.62 C
2702 17-09-2018 09:05:00 9.8 C 93 % 8.72 C
2703 17-09-2018 09:10:00 9.8 C 92 % 8.56 C
2704 17-09-2018 09:15:00 9.9 C 93 % 8.82 C
2705 17-09-2018 09:20:00 9.9 C 92 % 8.66 C
2706 17-09-2018 09:25:00 10 C 92 % 8.76 C
2707 17-09-2018 09:30:00 10.1 C 92 % 8.86 C
2708 17-09-2018 09:35:00 10.1 C 92 % 8.86 C
2709 17-09-2018 09:40:00 10.2 C 93 % 9.12 C
2710 17-09-2018 09:45:00 10.3 C 93 % 9.22 C
2711 17-09-2018 09:50:00 10.4 C 93 % 9.32 C
2712 17-09-2018 09:55:00 10.6 C 93 % 9.52 C
2713 17-09-2018 10:00:00 10.7 C 93 % 9.62 C
2714 17-09-2018 10:05:00 10.8 C 92 % 9.55 C
2715 17-09-2018 10:10:00 10.9 C 92 % 9.65 C
2716 17-09-2018 10:15:00 11.1 C 92 % 9.85 C
2717 17-09-2018 10:20:00 11.3 C 92 % 10.05 C
2718 17-09-2018 10:25:00 11.5 C 92 % 10.25 C
2719 17-09-2018 10:30:00 11.7 C 91 % 10.28 C
2720 17-09-2018 10:35:00 11.9 C 90 % 10.31 C
2721 17-09-2018 10:40:00 12.2 C 89 % 10.44 C
2722 17-09-2018 10:45:00 12.5 C 88 % 10.57 C
2723 17-09-2018 10:50:00 12.7 C 88 % 10.77 C
2724 17-09-2018 10:55:00 12.9 C 87 % 10.79 C
2725 17-09-2018 11:00:00 13.1 C 86 % 10.81 C
Sensor: Nr:Datum:Temp:Feuchte:Taupunkt:
Aussen-T/F 2726 17-09-2018 11:05:00 13.3 C 86 % 11.01 C
2727 17-09-2018 11:10:00 13.7 C 84 % 11.05 C
2728 17-09-2018 11:15:00 14 C 83 % 11.16 C
2729 17-09-2018 11:20:00 14.3 C 82 % 11.27 C
2730 17-09-2018 11:25:00 14.6 C 81 % 11.38 C
2731 17-09-2018 11:30:00 14.9 C 80 % 11.48 C
2732 17-09-2018 11:35:00 15.3 C 79 % 11.68 C
2733 17-09-2018 11:40:00 15.6 C 79 % 11.97 C
2734 17-09-2018 11:45:00 15.8 C 78 % 11.97 C
2735 17-09-2018 11:50:00 16 C 77 % 11.97 C
2736 17-09-2018 11:55:00 16.3 C 76 % 12.07 C
2737 17-09-2018 12:00:00 16.7 C 75 % 12.25 C
2738 17-09-2018 12:05:00 17.1 C 74 % 12.43 C
2739 17-09-2018 12:10:00 17.3 C 73 % 12.42 C
2740 17-09-2018 12:15:00 17.7 C 71 % 12.38 C
2741 17-09-2018 12:20:00 18 C 69 % 12.23 C
2742 17-09-2018 12:25:00 18.3 C 68 % 12.3 C
2743 17-09-2018 12:30:00 18.7 C 68 % 12.68 C
2744 17-09-2018 12:35:00 18.9 C 68 % 12.87 C
2745 17-09-2018 12:40:00 19.2 C 69 % 13.38 C
2746 17-09-2018 12:45:00 19.3 C 67 % 13.02 C
2747 17-09-2018 12:50:00 19.5 C 68 % 13.44 C
2748 17-09-2018 12:55:00 19.7 C 64 % 12.7 C
2749 17-09-2018 13:00:00 20.2 C 62 % 12.69 C
2750 17-09-2018 13:05:00 20.4 C 59 % 12.12 C
Sensor: Nr:Datum:Temp:Feuchte:Taupunkt:
Aussen-T/F 2751 17-09-2018 13:10:00 20.8 C 59 % 12.5 C
2752 17-09-2018 13:15:00 21.1 C 62 % 13.54 C
2753 17-09-2018 13:20:00 21.2 C 59 % 12.87 C
2754 17-09-2018 13:25:00 21.4 C 55 % 11.99 C
2755 17-09-2018 13:30:00 21.8 C 53 % 11.8 C
2756 17-09-2018 13:35:00 22.2 C 52 % 11.88 C
2757 17-09-2018 13:40:00 22.5 C 51 % 11.86 C
2758 17-09-2018 13:45:00 22.8 C 52 % 12.43 C
2759 17-09-2018 13:50:00 23.2 C 50 % 12.21 C
2760 17-09-2018 13:55:00 23.3 C 50 % 12.3 C
2761 17-09-2018 14:00:00 23.6 C 48 % 11.95 C
2762 17-09-2018 14:05:00 23.8 C 49 % 12.45 C
2763 17-09-2018 14:10:00 24.1 C 46 % 11.76 C
2764 17-09-2018 14:15:00 24.2 C 46 % 11.85 C
2765 17-09-2018 14:20:00 24.4 C 44 % 11.36 C
2766 17-09-2018 14:25:00 24.6 C 44 % 11.54 C
2767 17-09-2018 14:30:00 24.8 C 44 % 11.72 C
2768 17-09-2018 14:35:00 25.1 C 42 % 11.29 C
2769 17-09-2018 14:40:00 25.3 C 41 % 11.11 C
2770 17-09-2018 14:45:00 25.4 C 41 % 11.2 C
2771 17-09-2018 14:50:00 25.6 C 41 % 11.38 C
2772 17-09-2018 14:55:00 25.6 C 40 % 11 C
2773 17-09-2018 15:00:00 25.6 C 47 % 13.45 C
2774 17-09-2018 15:05:00 25.6 C 46 % 13.12 C
2775 17-09-2018 15:10:00 25.5 C 47 % 13.36 C
Sensor: Nr:Datum:Temp:Feuchte:Taupunkt:
Aussen-T/F 2776 17-09-2018 15:15:00 25.4 C 47 % 13.27 C
2777 17-09-2018 15:20:00 25.3 C 41 % 11.11 C
2778 17-09-2018 15:25:00 25.3 C 39 % 10.36 C
2779 17-09-2018 15:30:00 25.4 C 40 % 10.83 C
2780 17-09-2018 15:35:00 25.5 C 41 % 11.29 C
2781 17-09-2018 15:40:00 25.7 C 37 % 9.92 C
2782 17-09-2018 15:45:00 25.9 C 37 % 10.1 C
2783 17-09-2018 15:50:00 26.1 C 37 % 10.28 C
2784 17-09-2018 15:55:00 26.3 C 36 % 10.05 C
2785 17-09-2018 16:00:00 26.4 C 36 % 10.13 C
2786 17-09-2018 16:05:00 26.6 C 35 % 9.89 C
2787 17-09-2018 16:10:00 26.7 C 36 % 10.4 C
2788 17-09-2018 16:15:00 26.8 C 37 % 10.9 C
2789 17-09-2018 16:20:00 26.9 C 35 % 10.15 C
2790 17-09-2018 16:25:00 27 C 34 % 9.81 C
2791 17-09-2018 16:30:00 27 C 34 % 9.81 C
2792 17-09-2018 16:35:00 27 C 38 % 11.48 C
2793 17-09-2018 16:40:00 27 C 35 % 10.24 C
2794 17-09-2018 16:45:00 27.1 C 35 % 10.33 C
2795 17-09-2018 16:50:00 27.1 C 36 % 10.75 C
2796 17-09-2018 16:55:00 27.2 C 33 % 9.54 C
2797 17-09-2018 17:00:00 27.3 C 33 % 9.62 C
2798 17-09-2018 17:05:00 27.4 C 33 % 9.71 C
2799 17-09-2018 17:10:00 27.7 C 33 % 9.97 C
2800 17-09-2018 17:15:00 27.9 C 35 % 11.03 C
Sensor: Nr:Datum:Temp:Feuchte:Taupunkt:
Aussen-T/F 2801 17-09-2018 17:20:00 28.4 C 34 % 11.03 C
2802 17-09-2018 17:25:00 28.7 C 31 % 9.91 C
2803 17-09-2018 17:30:00 28.8 C 32 % 10.47 C
2804 17-09-2018 17:35:00 28.9 C 32 % 10.55 C
2805 17-09-2018 17:40:00 29.1 C 37 % 12.93 C
2806 17-09-2018 17:45:00 29.1 C 36 % 12.51 C
2807 17-09-2018 17:50:00 29.1 C 37 % 12.93 C
2808 17-09-2018 17:55:00 28.9 C 38 % 13.16 C
2809 17-09-2018 18:00:00 28.7 C 38 % 12.98 C
2810 17-09-2018 18:05:00 28.3 C 38 % 12.63 C
2811 17-09-2018 18:10:00 28 C 39 % 12.76 C
2812 17-09-2018 18:15:00 27.6 C 40 % 12.79 C
2813 17-09-2018 18:20:00 27.2 C 40 % 12.43 C
2814 17-09-2018 18:25:00 26.9 C 40 % 12.16 C
2815 17-09-2018 18:30:00 26.6 C 40 % 11.9 C
2816 17-09-2018 18:35:00 26.2 C 42 % 12.28 C
2817 17-09-2018 18:40:00 25.9 C 43 % 12.37 C
2818 17-09-2018 18:45:00 25.7 C 43 % 12.19 C
2819 17-09-2018 18:50:00 25.3 C 43 % 11.83 C
2820 17-09-2018 18:55:00 25 C 43 % 11.56 C
2821 17-09-2018 19:00:00 24.7 C 44 % 11.63 C
2822 17-09-2018 19:05:00 24.3 C 44 % 11.27 C
2823 17-09-2018 19:10:00 24.1 C 45 % 11.43 C
2824 17-09-2018 19:15:00 23.8 C 44 % 10.82 C
2825 17-09-2018 19:20:00 23.6 C 44 % 10.64 C
Sensor: Nr:Datum:Temp:Feuchte:Taupunkt:
Aussen-T/F 2826 17-09-2018 19:25:00 23.3 C 44 % 10.37 C
2827 17-09-2018 19:30:00 23.2 C 44 % 10.28 C
2828 17-09-2018 19:35:00 23 C 44 % 10.1 C
2829 17-09-2018 19:40:00 22.8 C 44 % 9.92 C
2830 17-09-2018 19:45:00 22.6 C 45 % 10.07 C
2831 17-09-2018 19:50:00 22.3 C 46 % 10.13 C
2832 17-09-2018 19:55:00 22.1 C 47 % 10.27 C
2833 17-09-2018 20:00:00 21.9 C 48 % 10.4 C
2834 17-09-2018 20:05:00 21.7 C 49 % 10.53 C
2835 17-09-2018 20:10:00 21.4 C 50 % 10.55 C
2836 17-09-2018 20:15:00 21.2 C 51 % 10.67 C
2837 17-09-2018 20:20:00 20.9 C 52 % 10.68 C
2838 17-09-2018 20:25:00 20.8 C 53 % 10.88 C
2839 17-09-2018 20:30:00 20.6 C 53 % 10.69 C
2840 17-09-2018 20:35:00 20.4 C 54 % 10.79 C
2841 17-09-2018 20:40:00 20.3 C 55 % 10.97 C
2842 17-09-2018 20:45:00 20.2 C 56 % 11.15 C
2843 17-09-2018 20:50:00 20.1 C 56 % 11.06 C
2844 17-09-2018 20:55:00 20 C 56 % 10.96 C
2845 17-09-2018 21:00:00 19.9 C 57 % 11.14 C
2846 17-09-2018 21:05:00 19.9 C 57 % 11.14 C
2847 17-09-2018 21:10:00 19.8 C 58 % 11.3 C
2848 17-09-2018 21:15:00 19.8 C 59 % 11.56 C
2849 17-09-2018 21:20:00 19.6 C 59 % 11.37 C
2850 17-09-2018 21:25:00 19.4 C 60 % 11.44 C
Sensor: Nr:Datum:Temp:Feuchte:Taupunkt:
Aussen-T/F 2851 17-09-2018 21:30:00 19.3 C 60 % 11.35 C
2852 17-09-2018 21:35:00 19.1 C 61 % 11.41 C
2853 17-09-2018 21:40:00 18.9 C 62 % 11.47 C
2854 17-09-2018 21:45:00 18.8 C 62 % 11.37 C
2855 17-09-2018 21:50:00 18.7 C 63 % 11.52 C
2856 17-09-2018 21:55:00 18.6 C 63 % 11.42 C
2857 17-09-2018 22:00:00 18.5 C 64 % 11.57 C
2858 17-09-2018 22:05:00 18.4 C 64 % 11.47 C
2859 17-09-2018 22:10:00 18.4 C 64 % 11.47 C
2860 17-09-2018 22:15:00 18.4 C 65 % 11.71 C
2861 17-09-2018 22:20:00 18.3 C 65 % 11.61 C
2862 17-09-2018 22:25:00 18.2 C 65 % 11.52 C
2863 17-09-2018 22:30:00 18.2 C 65 % 11.52 C
2864 17-09-2018 22:35:00 18.2 C 66 % 11.75 C
2865 17-09-2018 22:40:00 18.1 C 66 % 11.65 C
2866 17-09-2018 22:45:00 18.1 C 66 % 11.65 C
2867 17-09-2018 22:50:00 18.1 C 66 % 11.65 C
2868 17-09-2018 22:55:00 18 C 66 % 11.56 C
2869 17-09-2018 23:00:00 17.9 C 66 % 11.46 C
2870 17-09-2018 23:05:00 17.8 C 67 % 11.6 C
2871 17-09-2018 23:10:00 17.8 C 67 % 11.6 C
2872 17-09-2018 23:15:00 17.7 C 67 % 11.5 C
2873 17-09-2018 23:20:00 17.6 C 67 % 11.4 C
2874 17-09-2018 23:25:00 17.5 C 68 % 11.53 C
2875 17-09-2018 23:30:00 17.3 C 68 % 11.34 C
Sensor: Nr:Datum:Temp:Feuchte:Taupunkt:
Aussen-T/F 2876 17-09-2018 23:35:00 17.2 C 69 % 11.47 C
2877 17-09-2018 23:40:00 17 C 69 % 11.28 C
2878 17-09-2018 23:45:00 16.8 C 69 % 11.09 C
2879 17-09-2018 23:50:00 16.7 C 70 % 11.21 C
2880 17-09-2018 23:55:00 16.4 C 71 % 11.13 C
2881 18-09-2018 00:00:00 16.3 C 71 % 11.04 C
2882 18-09-2018 00:05:00 16.1 C 72 % 11.06 C
2883 18-09-2018 00:10:00 15.8 C 73 % 10.97 C
2884 18-09-2018 00:15:00 15.5 C 74 % 10.89 C
2885 18-09-2018 00:20:00 15.3 C 75 % 10.9 C
2886 18-09-2018 00:25:00 15.1 C 75 % 10.71 C
2887 18-09-2018 00:30:00 14.9 C 76 % 10.71 C
2888 18-09-2018 00:35:00 14.8 C 76 % 10.61 C
2889 18-09-2018 00:40:00 14.6 C 77 % 10.62 C
2890 18-09-2018 00:45:00 14.4 C 78 % 10.62 C
2891 18-09-2018 00:50:00 14.3 C 78 % 10.52 C
2892 18-09-2018 00:55:00 14.2 C 78 % 10.42 C
2893 18-09-2018 01:00:00 14.1 C 79 % 10.52 C
2894 18-09-2018 01:05:00 14 C 79 % 10.42 C
2895 18-09-2018 01:10:00 13.8 C 80 % 10.41 C
2896 18-09-2018 01:15:00 13.8 C 81 % 10.6 C
2897 18-09-2018 01:20:00 13.7 C 80 % 10.32 C
2898 18-09-2018 01:25:00 13.6 C 81 % 10.4 C
2899 18-09-2018 01:30:00 13.6 C 81 % 10.4 C
2900 18-09-2018 01:35:00 13.5 C 82 % 10.49 C
Sensor: Nr:Datum:Temp:Feuchte:Taupunkt:
Aussen-T/F 2901 18-09-2018 01:40:00 13.4 C 82 % 10.39 C
2902 18-09-2018 01:45:00 13.4 C 82 % 10.39 C
2903 18-09-2018 01:50:00 13.3 C 82 % 10.3 C
2904 18-09-2018 01:55:00 13.3 C 82 % 10.3 C
2905 18-09-2018 02:00:00 13.2 C 82 % 10.2 C
2906 18-09-2018 02:05:00 13.1 C 82 % 10.1 C
2907 18-09-2018 02:10:00 12.9 C 82 % 9.9 C
2908 18-09-2018 02:15:00 12.8 C 83 % 9.99 C
2909 18-09-2018 02:20:00 12.7 C 84 % 10.07 C
2910 18-09-2018 02:25:00 12.7 C 84 % 10.07 C
2911 18-09-2018 02:30:00 12.6 C 84 % 9.97 C
2912 18-09-2018 02:35:00 12.5 C 84 % 9.87 C
2913 18-09-2018 02:40:00 12.4 C 84 % 9.78 C
2914 18-09-2018 02:45:00 12.3 C 85 % 9.85 C
2915 18-09-2018 02:50:00 12.3 C 85 % 9.85 C
2916 18-09-2018 02:55:00 12.2 C 85 % 9.76 C
2917 18-09-2018 03:00:00 12.2 C 85 % 9.76 C
2918 18-09-2018 03:05:00 12.2 C 85 % 9.76 C
2919 18-09-2018 03:10:00 12.2 C 85 % 9.76 C
2920 18-09-2018 03:15:00 12.1 C 86 % 9.83 C
2921 18-09-2018 03:20:00 12.1 C 86 % 9.83 C
2922 18-09-2018 03:25:00 12 C 86 % 9.73 C
2923 18-09-2018 03:30:00 12 C 86 % 9.73 C
2924 18-09-2018 03:35:00 11.9 C 86 % 9.64 C
2925 18-09-2018 03:40:00 11.8 C 86 % 9.54 C
Sensor: Nr:Datum:Temp:Feuchte:Taupunkt:
Aussen-T/F 2926 18-09-2018 03:45:00 11.8 C 86 % 9.54 C
2927 18-09-2018 03:50:00 11.8 C 87 % 9.71 C
2928 18-09-2018 03:55:00 11.7 C 86 % 9.44 C
2929 18-09-2018 04:00:00 11.6 C 86 % 9.34 C
2930 18-09-2018 04:05:00 11.6 C 87 % 9.51 C
2931 18-09-2018 04:10:00 11.6 C 87 % 9.51 C
2932 18-09-2018 04:15:00 11.6 C 88 % 9.68 C
2933 18-09-2018 04:20:00 11.6 C 87 % 9.51 C
2934 18-09-2018 04:25:00 11.6 C 88 % 9.68 C
2935 18-09-2018 04:30:00 11.5 C 87 % 9.41 C
2936 18-09-2018 04:35:00 11.4 C 88 % 9.49 C
2937 18-09-2018 04:40:00 11.3 C 88 % 9.39 C
2938 18-09-2018 04:45:00 11.3 C 88 % 9.39 C
2939 18-09-2018 04:50:00 11.3 C 89 % 9.55 C
2940 18-09-2018 04:55:00 11.2 C 89 % 9.46 C
2941 18-09-2018 05:00:00 11.2 C 89 % 9.46 C
2942 18-09-2018 05:05:00 11.1 C 89 % 9.36 C
2943 18-09-2018 05:10:00 11.1 C 89 % 9.36 C
2944 18-09-2018 05:15:00 11.1 C 89 % 9.36 C
2945 18-09-2018 05:20:00 11 C 89 % 9.26 C
2946 18-09-2018 05:25:00 10.9 C 89 % 9.16 C
2947 18-09-2018 05:30:00 10.9 C 89 % 9.16 C
2948 18-09-2018 05:35:00 10.8 C 89 % 9.06 C
2949 18-09-2018 05:40:00 10.8 C 89 % 9.06 C
2950 18-09-2018 05:45:00 10.8 C 89 % 9.06 C
Sensor: Nr:Datum:Temp:Feuchte:Taupunkt:
Aussen-T/F 2951 18-09-2018 05:50:00 10.7 C 89 % 8.96 C
2952 18-09-2018 05:55:00 10.7 C 89 % 8.96 C
2953 18-09-2018 06:00:00 10.6 C 89 % 8.86 C
2954 18-09-2018 06:05:00 10.5 C 90 % 8.93 C
2955 18-09-2018 06:10:00 10.5 C 90 % 8.93 C
2956 18-09-2018 06:15:00 10.5 C 90 % 8.93 C
2957 18-09-2018 06:20:00 10.5 C 90 % 8.93 C
2958 18-09-2018 06:25:00 10.4 C 90 % 8.83 C
2959 18-09-2018 06:30:00 10.4 C 90 % 8.83 C
2960 18-09-2018 06:35:00 10.3 C 90 % 8.73 C
2961 18-09-2018 06:40:00 10.3 C 90 % 8.73 C
2962 18-09-2018 06:45:00 10.3 C 91 % 8.9 C
2963 18-09-2018 06:50:00 10.3 C 91 % 8.9 C
2964 18-09-2018 06:55:00 10.3 C 91 % 8.9 C
2965 18-09-2018 07:00:00 10.2 C 91 % 8.8 C
2966 18-09-2018 07:05:00 10.2 C 91 % 8.8 C
2967 18-09-2018 07:10:00 10.3 C 92 % 9.06 C
2968 18-09-2018 07:15:00 10.3 C 91 % 8.9 C
2969 18-09-2018 07:20:00 10.2 C 91 % 8.8 C
2970 18-09-2018 07:25:00 10.2 C 91 % 8.8 C
2971 18-09-2018 07:30:00 10.2 C 91 % 8.8 C
2972 18-09-2018 07:35:00 10.2 C 92 % 8.96 C
2973 18-09-2018 07:40:00 10.3 C 92 % 9.06 C
2974 18-09-2018 07:45:00 10.4 C 92 % 9.16 C
2975 18-09-2018 07:50:00 10.4 C 92 % 9.16 C
Sensor: Nr:Datum:Temp:Feuchte:Taupunkt:
Aussen-T/F 2976 18-09-2018 07:55:00 10.4 C 92 % 9.16 C
2977 18-09-2018 08:00:00 10.5 C 92 % 9.26 C
2978 18-09-2018 08:05:00 10.5 C 92 % 9.26 C
2979 18-09-2018 08:10:00 10.5 C 92 % 9.26 C
2980 18-09-2018 08:15:00 10.5 C 92 % 9.26 C
2981 18-09-2018 08:20:00 10.5 C 92 % 9.26 C
2982 18-09-2018 08:25:00 10.6 C 92 % 9.36 C
2983 18-09-2018 08:30:00 10.6 C 92 % 9.36 C
2984 18-09-2018 08:35:00 10.6 C 92 % 9.36 C
2985 18-09-2018 08:40:00 10.6 C 92 % 9.36 C
2986 18-09-2018 08:45:00 10.7 C 92 % 9.45 C
2987 18-09-2018 08:50:00 10.7 C 92 % 9.45 C
2988 18-09-2018 08:55:00 10.8 C 92 % 9.55 C
2989 18-09-2018 09:00:00 10.9 C 92 % 9.65 C
2990 18-09-2018 09:05:00 10.9 C 92 % 9.65 C
2991 18-09-2018 09:10:00 11.1 C 93 % 10.01 C
2992 18-09-2018 09:15:00 11.2 C 93 % 10.11 C
2993 18-09-2018 09:20:00 11.3 C 93 % 10.21 C
2994 18-09-2018 09:25:00 11.4 C 93 % 10.31 C
2995 18-09-2018 09:30:00 11.5 C 92 % 10.25 C
2996 18-09-2018 09:35:00 11.7 C 92 % 10.44 C
2997 18-09-2018 09:40:00 11.8 C 92 % 10.54 C
2998 18-09-2018 09:45:00 11.9 C 92 % 10.64 C
2999 18-09-2018 09:50:00 12.1 C 92 % 10.84 C
3000 18-09-2018 09:55:00 12.2 C 92 % 10.94 C
Sensor: Nr:Datum:Temp:Feuchte:Taupunkt:
Aussen-T/F 3001 18-09-2018 10:00:00 12.3 C 92 % 11.04 C
3002 18-09-2018 10:05:00 12.6 C 92 % 11.34 C
3003 18-09-2018 10:10:00 12.7 C 92 % 11.43 C
3004 18-09-2018 10:15:00 12.9 C 91 % 11.47 C
3005 18-09-2018 10:20:00 13.2 C 91 % 11.76 C
3006 18-09-2018 10:25:00 13.4 C 90 % 11.79 C
3007 18-09-2018 10:30:00 13.8 C 89 % 12.02 C
3008 18-09-2018 10:35:00 14.2 C 88 % 12.24 C
3009 18-09-2018 10:40:00 14.7 C 86 % 12.38 C
3010 18-09-2018 10:45:00 15.1 C 84 % 12.42 C
3011 18-09-2018 10:50:00 15.4 C 84 % 12.71 C
3012 18-09-2018 10:55:00 15.6 C 83 % 12.72 C
3013 18-09-2018 11:00:00 15.9 C 82 % 12.83 C
3014 18-09-2018 11:05:00 16.1 C 82 % 13.03 C
3015 18-09-2018 11:10:00 16.3 C 81 % 13.04 C
3016 18-09-2018 11:15:00 16.6 C 79 % 12.95 C
3017 18-09-2018 11:20:00 16.9 C 78 % 13.04 C
3018 18-09-2018 11:25:00 17.2 C 76 % 12.94 C
3019 18-09-2018 11:30:00 17.4 C 75 % 12.93 C
3020 18-09-2018 11:35:00 17.8 C 73 % 12.9 C
3021 18-09-2018 11:40:00 18.2 C 73 % 13.28 C
3022 18-09-2018 11:45:00 18.4 C 72 % 13.26 C
3023 18-09-2018 11:50:00 18.6 C 71 % 13.24 C
3024 18-09-2018 11:55:00 18.9 C 71 % 13.53 C
3025 18-09-2018 12:00:00 19.2 C 71 % 13.82 C
Sensor: Nr:Datum:Temp:Feuchte:Taupunkt:
Aussen-T/F 3026 18-09-2018 12:05:00 19.5 C 71 % 14.1 C
3027 18-09-2018 12:10:00 19.9 C 70 % 14.27 C
3028 18-09-2018 12:15:00 20.3 C 68 % 14.2 C
3029 18-09-2018 12:20:00 20.8 C 67 % 14.45 C
3030 18-09-2018 12:25:00 21.3 C 66 % 14.69 C
3031 18-09-2018 12:30:00 21.9 C 62 % 14.29 C
3032 18-09-2018 12:35:00 22.6 C 62 % 14.95 C
3033 18-09-2018 12:40:00 23.5 C 57 % 14.49 C
3034 18-09-2018 12:45:00 24.3 C 54 % 14.4 C
3035 18-09-2018 12:50:00 24.8 C 53 % 14.57 C
3036 18-09-2018 12:55:00 25.3 C 51 % 14.44 C
3037 18-09-2018 13:00:00 25.5 C 51 % 14.62 C
3038 18-09-2018 13:05:00 25.8 C 49 % 14.28 C
3039 18-09-2018 13:10:00 26.1 C 52 % 15.48 C
3040 18-09-2018 13:15:00 26.2 C 50 % 14.96 C
3041 18-09-2018 13:20:00 26.4 C 49 % 14.83 C
3042 18-09-2018 13:25:00 26.7 C 49 % 15.1 C
3043 18-09-2018 13:30:00 27 C 49 % 15.38 C
3044 18-09-2018 13:35:00 27.4 C 49 % 15.74 C
3045 18-09-2018 13:40:00 27.6 C 49 % 15.92 C
3046 18-09-2018 13:45:00 27.7 C 49 % 16.01 C
3047 18-09-2018 13:50:00 27.8 C 49 % 16.11 C
3048 18-09-2018 13:55:00 27.8 C 49 % 16.11 C
3049 18-09-2018 14:00:00 27.8 C 50 % 16.42 C
3050 18-09-2018 14:05:00 27.9 C 49 % 16.2 C
Sensor: Nr:Datum:Temp:Feuchte:Taupunkt:
Aussen-T/F 3051 18-09-2018 14:10:00 28 C 50 % 16.61 C
3052 18-09-2018 14:15:00 28.1 C 49 % 16.38 C
3053 18-09-2018 14:20:00 28.3 C 49 % 16.56 C
3054 18-09-2018 14:25:00 28.4 C 50 % 16.97 C
3055 18-09-2018 14:30:00 28.6 C 48 % 16.51 C
3056 18-09-2018 14:35:00 28.9 C 48 % 16.79 C
3057 18-09-2018 14:40:00 29.2 C 47 % 16.73 C
3058 18-09-2018 14:45:00 29.3 C 47 % 16.82 C
3059 18-09-2018 14:50:00 29.3 C 46 % 16.48 C
3060 18-09-2018 14:55:00 29.3 C 46 % 16.48 C
3061 18-09-2018 15:00:00 29.3 C 45 % 16.13 C
3062 18-09-2018 15:05:00 29.4 C 46 % 16.57 C
3063 18-09-2018 15:10:00 29.4 C 45 % 16.23 C
3064 18-09-2018 15:15:00 29.6 C 45 % 16.41 C
3065 18-09-2018 15:20:00 29.5 C 44 % 15.96 C
3066 18-09-2018 15:25:00 29.4 C 44 % 15.87 C
3067 18-09-2018 15:30:00 29.4 C 43 % 15.51 C
3068 18-09-2018 15:35:00 29.4 C 44 % 15.87 C
3069 18-09-2018 15:40:00 29.3 C 44 % 15.78 C
3070 18-09-2018 15:45:00 29.3 C 44 % 15.78 C
3071 18-09-2018 15:50:00 29.4 C 44 % 15.87 C
3072 18-09-2018 15:55:00 29.6 C 44 % 16.05 C
3073 18-09-2018 16:00:00 29.7 C 44 % 16.14 C
3074 18-09-2018 16:05:00 29.8 C 44 % 16.23 C
3075 18-09-2018 16:10:00 29.9 C 44 % 16.32 C
Sensor: Nr:Datum:Temp:Feuchte:Taupunkt:
Aussen-T/F 3076 18-09-2018 16:15:00 29.9 C 41 % 15.22 C
3077 18-09-2018 16:20:00 29.8 C 41 % 15.13 C
3078 18-09-2018 16:25:00 29.7 C 42 % 15.42 C
3079 18-09-2018 16:30:00 29.7 C 42 % 15.42 C
3080 18-09-2018 16:35:00 29.7 C 41 % 15.04 C
3081 18-09-2018 16:40:00 29.8 C 41 % 15.13 C
3082 18-09-2018 16:45:00 30.1 C 40 % 15.01 C
3083 18-09-2018 16:50:00 30.2 C 40 % 15.1 C
3084 18-09-2018 16:55:00 30.4 C 40 % 15.28 C
3085 18-09-2018 17:00:00 30.5 C 40 % 15.37 C
3086 18-09-2018 17:05:00 30.7 C 40 % 15.55 C
3087 18-09-2018 17:10:00 30.8 C 40 % 15.64 C
3088 18-09-2018 17:15:00 31 C 40 % 15.82 C
3089 18-09-2018 17:20:00 31.1 C 40 % 15.9 C
3090 18-09-2018 17:25:00 31 C 40 % 15.82 C
3091 18-09-2018 17:30:00 30.6 C 40 % 15.46 C
3092 18-09-2018 17:35:00 30.3 C 41 % 15.58 C
3093 18-09-2018 17:40:00 30.3 C 41 % 15.58 C
3094 18-09-2018 17:45:00 30.3 C 41 % 15.58 C
3095 18-09-2018 17:50:00 30.2 C 41 % 15.49 C
3096 18-09-2018 17:55:00 29.8 C 42 % 15.51 C
3097 18-09-2018 18:00:00 29.5 C 43 % 15.6 C
3098 18-09-2018 18:05:00 29.2 C 44 % 15.69 C
3099 18-09-2018 18:10:00 29.2 C 44 % 15.69 C
3100 18-09-2018 18:15:00 29.2 C 44 % 15.69 C
Sensor: Nr:Datum:Temp:Feuchte:Taupunkt:
Aussen-T/F 3101 18-09-2018 18:20:00 29.1 C 45 % 15.95 C
3102 18-09-2018 18:25:00 29.1 C 45 % 15.95 C
3103 18-09-2018 18:30:00 29.1 C 45 % 15.95 C
3104 18-09-2018 18:35:00 29.2 C 45 % 16.04 C
3105 18-09-2018 18:40:00 29.2 C 45 % 16.04 C
3106 18-09-2018 18:45:00 29.2 C 45 % 16.04 C
3107 18-09-2018 18:50:00 29.1 C 45 % 15.95 C
3108 18-09-2018 18:55:00 29 C 46 % 16.21 C
3109 18-09-2018 19:00:00 28.8 C 47 % 16.36 C
3110 18-09-2018 19:05:00 28.4 C 47 % 16 C
3111 18-09-2018 19:10:00 28.1 C 48 % 16.06 C
3112 18-09-2018 19:15:00 27.7 C 49 % 16.01 C
3113 18-09-2018 19:20:00 27.2 C 50 % 15.87 C
3114 18-09-2018 19:25:00 26.8 C 51 % 15.82 C
3115 18-09-2018 19:30:00 26.3 C 52 % 15.66 C
3116 18-09-2018 19:35:00 26 C 53 % 15.68 C
3117 18-09-2018 19:40:00 25.7 C 54 % 15.7 C
3118 18-09-2018 19:45:00 25.4 C 54 % 15.42 C
3119 18-09-2018 19:50:00 25.3 C 55 % 15.61 C
3120 18-09-2018 19:55:00 25.2 C 54 % 15.23 C
3121 18-09-2018 20:00:00 25.1 C 55 % 15.43 C
3122 18-09-2018 20:05:00 24.9 C 55 % 15.24 C
3123 18-09-2018 20:10:00 24.8 C 55 % 15.15 C
3124 18-09-2018 20:15:00 24.7 C 55 % 15.05 C
3125 18-09-2018 20:20:00 24.5 C 54 % 14.58 C
Sensor: Nr:Datum:Temp:Feuchte:Taupunkt:
Aussen-T/F 3126 18-09-2018 20:25:00 24.3 C 55 % 14.68 C
3127 18-09-2018 20:30:00 24.2 C 55 % 14.59 C
3128 18-09-2018 20:35:00 23.9 C 54 % 14.03 C
3129 18-09-2018 20:40:00 23.7 C 55 % 14.13 C
3130 18-09-2018 20:45:00 23.5 C 55 % 13.94 C
3131 18-09-2018 20:50:00 23.3 C 54 % 13.47 C
3132 18-09-2018 20:55:00 23.2 C 55 % 13.66 C
3133 18-09-2018 21:00:00 23.1 C 55 % 13.57 C
3134 18-09-2018 21:05:00 22.9 C 55 % 13.38 C
3135 18-09-2018 21:10:00 22.8 C 56 % 13.57 C
3136 18-09-2018 21:15:00 22.7 C 56 % 13.47 C
3137 18-09-2018 21:20:00 22.6 C 56 % 13.38 C
3138 18-09-2018 21:25:00 22.4 C 56 % 13.2 C
3139 18-09-2018 21:30:00 22.3 C 58 % 13.64 C
3140 18-09-2018 21:35:00 22.2 C 58 % 13.55 C
3141 18-09-2018 21:40:00 22 C 58 % 13.36 C
3142 18-09-2018 21:45:00 21.9 C 58 % 13.27 C
3143 18-09-2018 21:50:00 21.8 C 60 % 13.69 C
3144 18-09-2018 21:55:00 21.7 C 67 % 15.31 C
3145 18-09-2018 22:00:00 21.4 C 74 % 16.57 C
3146 18-09-2018 22:05:00 21.1 C 76 % 16.7 C
3147 18-09-2018 22:10:00 20.6 C 77 % 16.43 C
3148 18-09-2018 22:15:00 20.2 C 79 % 16.44 C
3149 18-09-2018 22:20:00 19.8 C 79 % 16.05 C
3150 18-09-2018 22:25:00 19.5 C 79 % 15.76 C
Sensor: Nr:Datum:Temp:Feuchte:Taupunkt:
Aussen-T/F 3151 18-09-2018 22:30:00 19.3 C 80 % 15.76 C
3152 18-09-2018 22:35:00 19.1 C 80 % 15.57 C
3153 18-09-2018 22:40:00 18.8 C 80 % 15.28 C
3154 18-09-2018 22:45:00 18.6 C 79 % 14.89 C
3155 18-09-2018 22:50:00 18.4 C 80 % 14.89 C
3156 18-09-2018 22:55:00 18.4 C 80 % 14.89 C
3157 18-09-2018 23:00:00 18.3 C 80 % 14.79 C
3158 18-09-2018 23:05:00 18.3 C 79 % 14.6 C
3159 18-09-2018 23:10:00 18.3 C 79 % 14.6 C
3160 18-09-2018 23:15:00 18.3 C 79 % 14.6 C
3161 18-09-2018 23:20:00 18.3 C 79 % 14.6 C
3162 18-09-2018 23:25:00 18.3 C 79 % 14.6 C
3163 18-09-2018 23:30:00 18.2 C 79 % 14.5 C
3164 18-09-2018 23:35:00 18.2 C 78 % 14.3 C
3165 18-09-2018 23:40:00 18.2 C 79 % 14.5 C
3166 18-09-2018 23:45:00 18.2 C 78 % 14.3 C
3167 18-09-2018 23:50:00 18.2 C 78 % 14.3 C
3168 18-09-2018 23:55:00 18.2 C 78 % 14.3 C
3169 19-09-2018 00:00:00 18.1 C 79 % 14.4 C
3170 19-09-2018 00:05:00 18 C 79 % 14.31 C
3171 19-09-2018 00:10:00 17.8 C 79 % 14.11 C
3172 19-09-2018 00:15:00 17.8 C 79 % 14.11 C
3173 19-09-2018 00:20:00 17.7 C 79 % 14.01 C
3174 19-09-2018 00:25:00 17.6 C 80 % 14.11 C
3175 19-09-2018 00:30:00 17.6 C 79 % 13.92 C
Sensor: Nr:Datum:Temp:Feuchte:Taupunkt:
Aussen-T/F 3176 19-09-2018 00:35:00 17.6 C 79 % 13.92 C
3177 19-09-2018 00:40:00 17.6 C 80 % 14.11 C
3178 19-09-2018 00:45:00 17.6 C 80 % 14.11 C
3179 19-09-2018 00:50:00 17.7 C 80 % 14.21 C
3180 19-09-2018 00:55:00 17.8 C 79 % 14.11 C
3181 19-09-2018 01:00:00 17.9 C 79 % 14.21 C
3182 19-09-2018 01:05:00 17.8 C 79 % 14.11 C
3183 19-09-2018 01:10:00 17.7 C 78 % 13.82 C
3184 19-09-2018 01:15:00 17.6 C 79 % 13.92 C
3185 19-09-2018 01:20:00 17.4 C 79 % 13.72 C
3186 19-09-2018 01:25:00 17.3 C 80 % 13.82 C
3187 19-09-2018 01:30:00 17.2 C 80 % 13.72 C
3188 19-09-2018 01:35:00 17.1 C 80 % 13.62 C
3189 19-09-2018 01:40:00 17.1 C 81 % 13.82 C
3190 19-09-2018 01:45:00 17.1 C 80 % 13.62 C
3191 19-09-2018 01:50:00 17 C 81 % 13.72 C
3192 19-09-2018 01:55:00 16.8 C 81 % 13.52 C
3193 19-09-2018 02:00:00 16.8 C 81 % 13.52 C
3194 19-09-2018 02:05:00 16.8 C 81 % 13.52 C
3195 19-09-2018 02:10:00 16.8 C 81 % 13.52 C
3196 19-09-2018 02:15:00 16.8 C 81 % 13.52 C
3197 19-09-2018 02:20:00 16.8 C 82 % 13.71 C
3198 19-09-2018 02:25:00 16.7 C 82 % 13.61 C
3199 19-09-2018 02:30:00 16.7 C 82 % 13.61 C
3200 19-09-2018 02:35:00 16.7 C 83 % 13.8 C
Sensor: Nr:Datum:Temp:Feuchte:Taupunkt:
Aussen-T/F 3201 19-09-2018 02:40:00 16.6 C 83 % 13.7 C
3202 19-09-2018 02:45:00 16.6 C 83 % 13.7 C
3203 19-09-2018 02:50:00 16.6 C 83 % 13.7 C
3204 19-09-2018 02:55:00 16.6 C 83 % 13.7 C
3205 19-09-2018 03:00:00 16.6 C 83 % 13.7 C
3206 19-09-2018 03:05:00 16.6 C 82 % 13.52 C
3207 19-09-2018 03:10:00 16.7 C 82 % 13.61 C
3208 19-09-2018 03:15:00 16.6 C 82 % 13.52 C
3209 19-09-2018 03:20:00 16.6 C 82 % 13.52 C
3210 19-09-2018 03:25:00 16.6 C 83 % 13.7 C
3211 19-09-2018 03:30:00 16.5 C 82 % 13.42 C
3212 19-09-2018 03:35:00 16.4 C 82 % 13.32 C
3213 19-09-2018 03:40:00 16.4 C 82 % 13.32 C
3214 19-09-2018 03:45:00 16.3 C 82 % 13.22 C
3215 19-09-2018 03:50:00 16.3 C 83 % 13.41 C
3216 19-09-2018 03:55:00 16.3 C 83 % 13.41 C
3217 19-09-2018 04:00:00 16.3 C 83 % 13.41 C
3218 19-09-2018 04:05:00 16.3 C 83 % 13.41 C
3219 19-09-2018 04:10:00 16.3 C 83 % 13.41 C
3220 19-09-2018 04:15:00 16.2 C 83 % 13.31 C
3221 19-09-2018 04:20:00 16.2 C 83 % 13.31 C
3222 19-09-2018 04:25:00 16.2 C 83 % 13.31 C
3223 19-09-2018 04:30:00 16.1 C 83 % 13.21 C
3224 19-09-2018 04:35:00 16 C 84 % 13.3 C
3225 19-09-2018 04:40:00 15.9 C 84 % 13.2 C
Sensor: Nr:Datum:Temp:Feuchte:Taupunkt:
Aussen-T/F 3226 19-09-2018 04:45:00 15.9 C 84 % 13.2 C
3227 19-09-2018 04:50:00 15.8 C 84 % 13.1 C
3228 19-09-2018 04:55:00 15.8 C 84 % 13.1 C
3229 19-09-2018 05:00:00 15.7 C 85 % 13.19 C
3230 19-09-2018 05:05:00 15.6 C 85 % 13.09 C
3231 19-09-2018 05:10:00 15.5 C 86 % 13.17 C
3232 19-09-2018 05:15:00 15.4 C 86 % 13.07 C
3233 19-09-2018 05:20:00 15.4 C 86 % 13.07 C
3234 19-09-2018 05:25:00 15.3 C 86 % 12.97 C
3235 19-09-2018 05:30:00 15.3 C 87 % 13.15 C
3236 19-09-2018 05:35:00 15.3 C 88 % 13.33 C
3237 19-09-2018 05:40:00 15.4 C 87 % 13.25 C
3238 19-09-2018 05:45:00 15.4 C 87 % 13.25 C
3239 19-09-2018 05:50:00 15.3 C 86 % 12.97 C
3240 19-09-2018 05:55:00 15.2 C 86 % 12.88 C
3241 19-09-2018 06:00:00 15.1 C 86 % 12.78 C
3242 19-09-2018 06:05:00 15.1 C 87 % 12.95 C
3243 19-09-2018 06:10:00 14.9 C 86 % 12.58 C
3244 19-09-2018 06:15:00 14.8 C 87 % 12.66 C
3245 19-09-2018 06:20:00 14.6 C 87 % 12.46 C
3246 19-09-2018 06:25:00 14.5 C 88 % 12.54 C
3247 19-09-2018 06:30:00 14.4 C 88 % 12.44 C
3248 19-09-2018 06:35:00 14.3 C 88 % 12.34 C
3249 19-09-2018 06:40:00 14.2 C 88 % 12.24 C
3250 19-09-2018 06:45:00 14.1 C 89 % 12.32 C
Sensor: Nr:Datum:Temp:Feuchte:Taupunkt:
Aussen-T/F 3251 19-09-2018 06:50:00 14.1 C 89 % 12.32 C
3252 19-09-2018 06:55:00 14 C 90 % 12.39 C
3253 19-09-2018 07:00:00 13.9 C 90 % 12.29 C
3254 19-09-2018 07:05:00 13.9 C 91 % 12.46 C
3255 19-09-2018 07:10:00 14 C 91 % 12.56 C
3256 19-09-2018 07:15:00 13.9 C 90 % 12.29 C
3257 19-09-2018 07:20:00 13.8 C 90 % 12.19 C
3258 19-09-2018 07:25:00 13.8 C 91 % 12.36 C
3259 19-09-2018 07:30:00 13.8 C 91 % 12.36 C
3260 19-09-2018 07:35:00 13.9 C 91 % 12.46 C
3261 19-09-2018 07:40:00 13.9 C 91 % 12.46 C
3262 19-09-2018 07:45:00 13.8 C 91 % 12.36 C
3263 19-09-2018 07:50:00 13.8 C 92 % 12.52 C
3264 19-09-2018 07:55:00 13.9 C 92 % 12.62 C
3265 19-09-2018 08:00:00 13.8 C 92 % 12.52 C
3266 19-09-2018 08:05:00 13.9 C 92 % 12.62 C
3267 19-09-2018 08:10:00 14 C 92 % 12.72 C
3268 19-09-2018 08:15:00 14.1 C 92 % 12.82 C
3269 19-09-2018 08:20:00 14.1 C 92 % 12.82 C
3270 19-09-2018 08:25:00 14.1 C 92 % 12.82 C
3271 19-09-2018 08:30:00 14.2 C 92 % 12.92 C
3272 19-09-2018 08:35:00 14.3 C 93 % 13.18 C
3273 19-09-2018 08:40:00 14.4 C 93 % 13.28 C
3274 19-09-2018 08:45:00 14.6 C 93 % 13.48 C
3275 19-09-2018 08:50:00 14.7 C 93 % 13.58 C
Sensor: Nr:Datum:Temp:Feuchte:Taupunkt:
Aussen-T/F 3276 19-09-2018 08:55:00 14.8 C 92 % 13.51 C
3277 19-09-2018 09:00:00 14.9 C 92 % 13.61 C
3278 19-09-2018 09:05:00 14.9 C 92 % 13.61 C
3279 19-09-2018 09:10:00 15 C 92 % 13.71 C
3280 19-09-2018 09:15:00 15.1 C 92 % 13.81 C
3281 19-09-2018 09:20:00 15.2 C 92 % 13.91 C
3282 19-09-2018 09:25:00 15.3 C 92 % 14.01 C
3283 19-09-2018 09:30:00 15.4 C 92 % 14.11 C
3284 19-09-2018 09:35:00 15.6 C 92 % 14.31 C
3285 19-09-2018 09:40:00 15.7 C 92 % 14.4 C
3286 19-09-2018 09:45:00 15.8 C 92 % 14.5 C
3287 19-09-2018 09:50:00 15.9 C 92 % 14.6 C
3288 19-09-2018 09:55:00 16 C 92 % 14.7 C
3289 19-09-2018 10:00:00 16.2 C 92 % 14.9 C
3290 19-09-2018 10:05:00 16.4 C 92 % 15.1 C
3291 19-09-2018 10:10:00 16.6 C 92 % 15.3 C
3292 19-09-2018 10:15:00 16.8 C 91 % 15.32 C
3293 19-09-2018 10:20:00 17 C 91 % 15.52 C
3294 19-09-2018 10:25:00 17.2 C 91 % 15.72 C
3295 19-09-2018 10:30:00 17.5 C 89 % 15.67 C
3296 19-09-2018 10:35:00 17.9 C 88 % 15.88 C
3297 19-09-2018 10:40:00 18.3 C 87 % 16.1 C
3298 19-09-2018 10:45:00 18.6 C 85 % 16.03 C
3299 19-09-2018 10:50:00 19 C 84 % 16.24 C
3300 19-09-2018 10:55:00 19.3 C 82 % 16.15 C
Sensor: Nr:Datum:Temp:Feuchte:Taupunkt:
Aussen-T/F 3301 19-09-2018 11:00:00 19.6 C 81 % 16.25 C
3302 19-09-2018 11:05:00 19.9 C 80 % 16.35 C
3303 19-09-2018 11:10:00 20.2 C 79 % 16.44 C
3304 19-09-2018 11:15:00 20.4 C 77 % 16.23 C
3305 19-09-2018 11:20:00 20.7 C 77 % 16.52 C
3306 19-09-2018 11:25:00 20.9 C 75 % 16.3 C
3307 19-09-2018 11:30:00 21.3 C 74 % 16.48 C
3308 19-09-2018 11:35:00 21.6 C 73 % 16.55 C
3309 19-09-2018 11:40:00 21.8 C 72 % 16.53 C
3310 19-09-2018 11:45:00 22.1 C 71 % 16.6 C
3311 19-09-2018 11:50:00 22.5 C 70 % 16.76 C
3312 19-09-2018 11:55:00 22.8 C 69 % 16.82 C
3313 19-09-2018 12:00:00 23 C 68 % 16.78 C
3314 19-09-2018 12:05:00 23.2 C 68 % 16.97 C
3315 19-09-2018 12:10:00 23.2 C 67 % 16.73 C
3316 19-09-2018 12:15:00 23.3 C 67 % 16.83 C
3317 19-09-2018 12:20:00 23.6 C 65 % 16.64 C
3318 19-09-2018 12:25:00 23.8 C 65 % 16.83 C
3319 19-09-2018 12:30:00 24 C 64 % 16.77 C
3320 19-09-2018 12:35:00 24.2 C 62 % 16.46 C
3321 19-09-2018 12:40:00 24.2 C 62 % 16.46 C
3322 19-09-2018 12:45:00 24.3 C 61 % 16.3 C
3323 19-09-2018 12:50:00 24.4 C 61 % 16.39 C
3324 19-09-2018 12:55:00 24.6 C 61 % 16.58 C
3325 19-09-2018 13:00:00 24.7 C 60 % 16.41 C
Sensor: Nr:Datum:Temp:Feuchte:Taupunkt:
Aussen-T/F 3326 19-09-2018 13:05:00 24.8 C 60 % 16.51 C
3327 19-09-2018 13:10:00 24.9 C 59 % 16.34 C
3328 19-09-2018 13:15:00 25.1 C 59 % 16.52 C
3329 19-09-2018 13:20:00 25.2 C 58 % 16.35 C
3330 19-09-2018 13:25:00 25.3 C 58 % 16.44 C
3331 19-09-2018 13:30:00 25.4 C 57 % 16.26 C
3332 19-09-2018 13:35:00 25.6 C 57 % 16.45 C
3333 19-09-2018 13:40:00 25.7 C 56 % 16.26 C
3334 19-09-2018 13:45:00 25.7 C 56 % 16.26 C
3335 19-09-2018 13:50:00 25.8 C 55 % 16.07 C
3336 19-09-2018 13:55:00 25.9 C 55 % 16.17 C
3337 19-09-2018 14:00:00 26.2 C 54 % 16.16 C
3338 19-09-2018 14:05:00 26.3 C 54 % 16.25 C
3339 19-09-2018 14:10:00 26.4 C 53 % 16.05 C
3340 19-09-2018 14:15:00 26.6 C 53 % 16.23 C
3341 19-09-2018 14:20:00 26.7 C 53 % 16.33 C
3342 19-09-2018 14:25:00 26.9 C 52 % 16.21 C
3343 19-09-2018 14:30:00 27.1 C 51 % 16.09 C
3344 19-09-2018 14:35:00 27.3 C 51 % 16.28 C
3345 19-09-2018 14:40:00 27.4 C 50 % 16.06 C
3346 19-09-2018 14:45:00 27.4 C 50 % 16.06 C
3347 19-09-2018 14:50:00 27.4 C 50 % 16.06 C
3348 19-09-2018 14:55:00 27.5 C 50 % 16.15 C
3349 19-09-2018 15:00:00 27.4 C 50 % 16.06 C
3350 19-09-2018 15:05:00 27.4 C 51 % 16.37 C
Sensor: Nr:Datum:Temp:Feuchte:Taupunkt:
Aussen-T/F 3351 19-09-2018 15:10:00 27.4 C 51 % 16.37 C
3352 19-09-2018 15:15:00 27.6 C 50 % 16.24 C
3353 19-09-2018 15:20:00 27.6 C 50 % 16.24 C
3354 19-09-2018 15:25:00 27.7 C 50 % 16.33 C
3355 19-09-2018 15:30:00 27.8 C 50 % 16.42 C
3356 19-09-2018 15:35:00 27.8 C 50 % 16.42 C
3357 19-09-2018 15:40:00 27.8 C 50 % 16.42 C
3358 19-09-2018 15:45:00 27.9 C 49 % 16.2 C
3359 19-09-2018 15:50:00 27.9 C 48 % 15.87 C
3360 19-09-2018 15:55:00 27.9 C 48 % 15.87 C
3361 19-09-2018 16:00:00 27.9 C 48 % 15.87 C
3362 19-09-2018 16:05:00 27.9 C 49 % 16.2 C
3363 19-09-2018 16:10:00 27.9 C 49 % 16.2 C
3364 19-09-2018 16:15:00 27.9 C 48 % 15.87 C
3365 19-09-2018 16:20:00 27.9 C 49 % 16.2 C
3366 19-09-2018 16:25:00 27.8 C 49 % 16.11 C
3367 19-09-2018 16:30:00 27.8 C 48 % 15.78 C
3368 19-09-2018 16:35:00 27.9 C 48 % 15.87 C
3369 19-09-2018 16:40:00 28.1 C 48 % 16.06 C
3370 19-09-2018 16:45:00 28.2 C 48 % 16.15 C
3371 19-09-2018 16:50:00 28.3 C 47 % 15.91 C
3372 19-09-2018 16:55:00 28.3 C 47 % 15.91 C
3373 19-09-2018 17:00:00 28.3 C 46 % 15.57 C
3374 19-09-2018 17:05:00 28.4 C 47 % 16 C
3375 19-09-2018 17:10:00 28.7 C 45 % 15.59 C
Sensor: Nr:Datum:Temp:Feuchte:Taupunkt:
Aussen-T/F 3376 19-09-2018 17:15:00 28.8 C 46 % 16.03 C
3377 19-09-2018 17:20:00 28.9 C 45 % 15.77 C
3378 19-09-2018 17:25:00 29.1 C 45 % 15.95 C
3379 19-09-2018 17:30:00 29.2 C 44 % 15.69 C
3380 19-09-2018 17:35:00 29.3 C 45 % 16.13 C
3381 19-09-2018 17:40:00 29.3 C 44 % 15.78 C
3382 19-09-2018 17:45:00 29.2 C 44 % 15.69 C
3383 19-09-2018 17:50:00 29.1 C 45 % 15.95 C
3384 19-09-2018 17:55:00 29.1 C 45 % 15.95 C
3385 19-09-2018 18:00:00 29.1 C 45 % 15.95 C
3386 19-09-2018 18:05:00 29.1 C 45 % 15.95 C
3387 19-09-2018 18:10:00 29.1 C 45 % 15.95 C
3388 19-09-2018 18:15:00 29.1 C 45 % 15.95 C
3389 19-09-2018 18:20:00 28.8 C 46 % 16.03 C
3390 19-09-2018 18:25:00 28.6 C 47 % 16.18 C
3391 19-09-2018 18:30:00 28.6 C 46 % 15.85 C
3392 19-09-2018 18:35:00 28.5 C 47 % 16.09 C
3393 19-09-2018 18:40:00 28.4 C 47 % 16 C
3394 19-09-2018 18:45:00 28.3 C 47 % 15.91 C
3395 19-09-2018 18:50:00 28.2 C 48 % 16.15 C
3396 19-09-2018 18:55:00 28.1 C 48 % 16.06 C
3397 19-09-2018 19:00:00 27.9 C 49 % 16.2 C
3398 19-09-2018 19:05:00 27.8 C 49 % 16.11 C
3399 19-09-2018 19:10:00 27.6 C 50 % 16.24 C
3400 19-09-2018 19:15:00 27.3 C 50 % 15.97 C
Sensor: Nr:Datum:Temp:Feuchte:Taupunkt:
Aussen-T/F 3401 19-09-2018 19:20:00 27 C 51 % 16 C
3402 19-09-2018 19:25:00 26.7 C 52 % 16.03 C
3403 19-09-2018 19:30:00 26.4 C 53 % 16.05 C
3404 19-09-2018 19:35:00 26.1 C 54 % 16.07 C
3405 19-09-2018 19:40:00 25.8 C 55 % 16.07 C
3406 19-09-2018 19:45:00 25.5 C 56 % 16.08 C
3407 19-09-2018 19:50:00 25.2 C 57 % 16.08 C
3408 19-09-2018 19:55:00 24.9 C 58 % 16.07 C
3409 19-09-2018 20:00:00 24.7 C 59 % 16.15 C
3410 19-09-2018 20:05:00 24.4 C 60 % 16.13 C
3411 19-09-2018 20:10:00 24.2 C 60 % 15.95 C
3412 19-09-2018 20:15:00 24.1 C 61 % 16.11 C
3413 19-09-2018 20:20:00 23.8 C 62 % 16.08 C
3414 19-09-2018 20:25:00 23.7 C 62 % 15.99 C
3415 19-09-2018 20:30:00 23.6 C 62 % 15.89 C
3416 19-09-2018 20:35:00 23.5 C 63 % 16.05 C
3417 19-09-2018 20:40:00 23.3 C 64 % 16.11 C
3418 19-09-2018 20:45:00 23.2 C 64 % 16.01 C
3419 19-09-2018 20:50:00 23.1 C 65 % 16.16 C
3420 19-09-2018 20:55:00 23 C 65 % 16.07 C
3421 19-09-2018 21:00:00 22.8 C 66 % 16.12 C
3422 19-09-2018 21:05:00 22.7 C 66 % 16.02 C
3423 19-09-2018 21:10:00 22.5 C 67 % 16.07 C
3424 19-09-2018 21:15:00 22.2 C 68 % 16.01 C
3425 19-09-2018 21:20:00 22 C 68 % 15.82 C
Sensor: Nr:Datum:Temp:Feuchte:Taupunkt:
Aussen-T/F 3426 19-09-2018 21:25:00 21.8 C 69 % 15.86 C
3427 19-09-2018 21:30:00 21.6 C 70 % 15.89 C
3428 19-09-2018 21:35:00 21.4 C 71 % 15.93 C
3429 19-09-2018 21:40:00 21.3 C 71 % 15.83 C
3430 19-09-2018 21:45:00 21.1 C 72 % 15.86 C
3431 19-09-2018 21:50:00 20.9 C 72 % 15.66 C
3432 19-09-2018 21:55:00 20.8 C 73 % 15.78 C
3433 19-09-2018 22:00:00 20.7 C 73 % 15.69 C
3434 19-09-2018 22:05:00 20.5 C 74 % 15.71 C
3435 19-09-2018 22:10:00 20.4 C 74 % 15.61 C
3436 19-09-2018 22:15:00 20.3 C 75 % 15.72 C
3437 19-09-2018 22:20:00 20.2 C 75 % 15.63 C
3438 19-09-2018 22:25:00 20.1 C 75 % 15.53 C
3439 19-09-2018 22:30:00 20 C 75 % 15.43 C
3440 19-09-2018 22:35:00 19.8 C 75 % 15.24 C
3441 19-09-2018 22:40:00 19.6 C 76 % 15.26 C
3442 19-09-2018 22:45:00 19.4 C 77 % 15.27 C
3443 19-09-2018 22:50:00 19.2 C 78 % 15.27 C
3444 19-09-2018 22:55:00 19.1 C 78 % 15.18 C
3445 19-09-2018 23:00:00 18.9 C 79 % 15.18 C
3446 19-09-2018 23:05:00 18.9 C 79 % 15.18 C
3447 19-09-2018 23:10:00 18.8 C 79 % 15.08 C
3448 19-09-2018 23:15:00 18.8 C 79 % 15.08 C
3449 19-09-2018 23:20:00 18.7 C 79 % 14.99 C
3450 19-09-2018 23:25:00 18.6 C 79 % 14.89 C
Sensor: Nr:Datum:Temp:Feuchte:Taupunkt:
Aussen-T/F 3451 19-09-2018 23:30:00 18.4 C 80 % 14.89 C
3452 19-09-2018 23:35:00 18.4 C 80 % 14.89 C
3453 19-09-2018 23:40:00 18.3 C 80 % 14.79 C
3454 19-09-2018 23:45:00 18.2 C 80 % 14.69 C
3455 19-09-2018 23:50:00 18.1 C 81 % 14.79 C
3456 19-09-2018 23:55:00 17.9 C 81 % 14.59 C
3457 20-09-2018 00:00:00 17.9 C 82 % 14.78 C
3458 20-09-2018 00:05:00 17.8 C 82 % 14.69 C
3459 20-09-2018 00:10:00 17.8 C 82 % 14.69 C
3460 20-09-2018 00:15:00 17.7 C 82 % 14.59 C
3461 20-09-2018 00:20:00 17.6 C 82 % 14.49 C
3462 20-09-2018 00:25:00 17.5 C 82 % 14.39 C
3463 20-09-2018 00:30:00 17.4 C 82 % 14.3 C
3464 20-09-2018 00:35:00 17.4 C 83 % 14.48 C
3465 20-09-2018 00:40:00 17.3 C 83 % 14.39 C
3466 20-09-2018 00:45:00 17.3 C 83 % 14.39 C
3467 20-09-2018 00:50:00 17.3 C 84 % 14.57 C
3468 20-09-2018 00:55:00 17.2 C 84 % 14.47 C
3469 20-09-2018 01:00:00 17.2 C 84 % 14.47 C
3470 20-09-2018 01:05:00 17.3 C 84 % 14.57 C
3471 20-09-2018 01:10:00 17.2 C 84 % 14.47 C
3472 20-09-2018 01:15:00 17.2 C 84 % 14.47 C
3473 20-09-2018 01:20:00 17.2 C 84 % 14.47 C
3474 20-09-2018 01:25:00 17.2 C 84 % 14.47 C
3475 20-09-2018 01:30:00 17.1 C 84 % 14.38 C
Sensor: Nr:Datum:Temp:Feuchte:Taupunkt:
Aussen-T/F 3476 20-09-2018 01:35:00 17 C 84 % 14.28 C
3477 20-09-2018 01:40:00 16.9 C 85 % 14.36 C
3478 20-09-2018 01:45:00 16.9 C 85 % 14.36 C
3479 20-09-2018 01:50:00 16.8 C 85 % 14.26 C
3480 20-09-2018 01:55:00 16.8 C 85 % 14.26 C
3481 20-09-2018 02:00:00 16.7 C 85 % 14.17 C
3482 20-09-2018 02:05:00 16.6 C 86 % 14.25 C
3483 20-09-2018 02:10:00 16.6 C 86 % 14.25 C
3484 20-09-2018 02:15:00 16.5 C 86 % 14.15 C
3485 20-09-2018 02:20:00 16.4 C 86 % 14.05 C
3486 20-09-2018 02:25:00 16.3 C 86 % 13.95 C
3487 20-09-2018 02:30:00 16.3 C 86 % 13.95 C
3488 20-09-2018 02:35:00 16.2 C 87 % 14.03 C
3489 20-09-2018 02:40:00 16.1 C 87 % 13.94 C
3490 20-09-2018 02:45:00 16.1 C 87 % 13.94 C
3491 20-09-2018 02:50:00 16 C 87 % 13.84 C
3492 20-09-2018 02:55:00 16 C 88 % 14.01 C
3493 20-09-2018 03:00:00 16.1 C 88 % 14.11 C
3494 20-09-2018 03:05:00 16.1 C 88 % 14.11 C
3495 20-09-2018 03:10:00 16.2 C 88 % 14.21 C
3496 20-09-2018 03:15:00 16.1 C 87 % 13.94 C
3497 20-09-2018 03:20:00 16 C 87 % 13.84 C
3498 20-09-2018 03:25:00 15.8 C 87 % 13.64 C
3499 20-09-2018 03:30:00 15.6 C 86 % 13.27 C
3500 20-09-2018 03:35:00 15.4 C 87 % 13.25 C
Sensor: Nr:Datum:Temp:Feuchte:Taupunkt:
Aussen-T/F 3501 20-09-2018 03:40:00 15.2 C 88 % 13.23 C
3502 20-09-2018 03:45:00 15.1 C 88 % 13.13 C
3503 20-09-2018 03:50:00 15.1 C 89 % 13.3 C
3504 20-09-2018 03:55:00 14.9 C 89 % 13.1 C
3505 20-09-2018 04:00:00 14.8 C 89 % 13.01 C
3506 20-09-2018 04:05:00 14.7 C 89 % 12.91 C
3507 20-09-2018 04:10:00 14.6 C 89 % 12.81 C
3508 20-09-2018 04:15:00 14.4 C 89 % 12.61 C
3509 20-09-2018 04:20:00 14.4 C 90 % 12.78 C
3510 20-09-2018 04:25:00 14.3 C 90 % 12.68 C
3511 20-09-2018 04:30:00 14.3 C 91 % 12.85 C
3512 20-09-2018 04:35:00 14.3 C 91 % 12.85 C
3513 20-09-2018 04:40:00 14.3 C 91 % 12.85 C
3514 20-09-2018 04:45:00 14.2 C 91 % 12.75 C
3515 20-09-2018 04:50:00 14.2 C 92 % 12.92 C
3516 20-09-2018 04:55:00 14.2 C 91 % 12.75 C
3517 20-09-2018 05:00:00 14.1 C 91 % 12.65 C
3518 20-09-2018 05:05:00 13.9 C 91 % 12.46 C
3519 20-09-2018 05:10:00 13.8 C 91 % 12.36 C
3520 20-09-2018 05:15:00 13.8 C 92 % 12.52 C
3521 20-09-2018 05:20:00 13.8 C 92 % 12.52 C
3522 20-09-2018 05:25:00 13.8 C 92 % 12.52 C
3523 20-09-2018 05:30:00 13.7 C 92 % 12.42 C
3524 20-09-2018 05:35:00 13.7 C 92 % 12.42 C
3525 20-09-2018 05:40:00 13.7 C 92 % 12.42 C
Sensor: Nr:Datum:Temp:Feuchte:Taupunkt:
Aussen-T/F 3526 20-09-2018 05:45:00 13.7 C 93 % 12.59 C
3527 20-09-2018 05:50:00 13.7 C 93 % 12.59 C
3528 20-09-2018 05:55:00 13.8 C 93 % 12.69 C
3529 20-09-2018 06:00:00 13.8 C 93 % 12.69 C
3530 20-09-2018 06:05:00 13.6 C 93 % 12.49 C
3531 20-09-2018 06:10:00 13.6 C 93 % 12.49 C
3532 20-09-2018 06:15:00 13.4 C 92 % 12.13 C
3533 20-09-2018 06:20:00 13.4 C 93 % 12.29 C
3534 20-09-2018 06:25:00 13.3 C 93 % 12.19 C
3535 20-09-2018 06:30:00 13.3 C 93 % 12.19 C
3536 20-09-2018 06:35:00 13.3 C 93 % 12.19 C
3537 20-09-2018 06:40:00 13.4 C 94 % 12.45 C
3538 20-09-2018 06:45:00 13.4 C 93 % 12.29 C
3539 20-09-2018 06:50:00 13.4 C 94 % 12.45 C
3540 20-09-2018 06:55:00 13.4 C 93 % 12.29 C
3541 20-09-2018 07:00:00 13.3 C 93 % 12.19 C
3542 20-09-2018 07:05:00 13.3 C 94 % 12.36 C
3543 20-09-2018 07:10:00 13.3 C 94 % 12.36 C
3544 20-09-2018 07:15:00 13.3 C 93 % 12.19 C
3545 20-09-2018 07:20:00 13.3 C 94 % 12.36 C
3546 20-09-2018 07:25:00 13.5 C 94 % 12.55 C
3547 20-09-2018 07:30:00 13.4 C 94 % 12.45 C
3548 20-09-2018 07:35:00 13.3 C 93 % 12.19 C
3549 20-09-2018 07:40:00 13.2 C 93 % 12.09 C
3550 20-09-2018 07:45:00 13.2 C 93 % 12.09 C
Sensor: Nr:Datum:Temp:Feuchte:Taupunkt:
Aussen-T/F 3551 20-09-2018 07:50:00 13.1 C 93 % 11.99 C
3552 20-09-2018 07:55:00 13.1 C 94 % 12.16 C
3553 20-09-2018 08:00:00 13.1 C 94 % 12.16 C
3554 20-09-2018 08:05:00 13.1 C 94 % 12.16 C
3555 20-09-2018 08:10:00 13.1 C 94 % 12.16 C
3556 20-09-2018 08:15:00 13.2 C 94 % 12.26 C
3557 20-09-2018 08:20:00 13.3 C 94 % 12.36 C
3558 20-09-2018 08:25:00 13.3 C 94 % 12.36 C
3559 20-09-2018 08:30:00 13.4 C 94 % 12.45 C
3560 20-09-2018 08:35:00 13.4 C 94 % 12.45 C
3561 20-09-2018 08:40:00 13.6 C 95 % 12.81 C
3562 20-09-2018 08:45:00 13.6 C 95 % 12.81 C
3563 20-09-2018 08:50:00 13.7 C 95 % 12.91 C
3564 20-09-2018 08:55:00 13.8 C 95 % 13.01 C
3565 20-09-2018 09:00:00 13.9 C 95 % 13.11 C
3566 20-09-2018 09:05:00 13.9 C 95 % 13.11 C
3567 20-09-2018 09:10:00 14.1 C 95 % 13.31 C
3568 20-09-2018 09:15:00 14.2 C 95 % 13.41 C
3569 20-09-2018 09:20:00 14.3 C 95 % 13.51 C
3570 20-09-2018 09:25:00 14.4 C 95 % 13.61 C
3571 20-09-2018 09:30:00 14.4 C 94 % 13.45 C
3572 20-09-2018 09:35:00 14.5 C 94 % 13.55 C
3573 20-09-2018 09:40:00 14.6 C 94 % 13.65 C
3574 20-09-2018 09:45:00 14.7 C 94 % 13.74 C
3575 20-09-2018 09:50:00 14.8 C 94 % 13.84 C
Sensor: Nr:Datum:Temp:Feuchte:Taupunkt:
Aussen-T/F 3576 20-09-2018 09:55:00 14.8 C 94 % 13.84 C
3577 20-09-2018 10:00:00 14.9 C 94 % 13.94 C
3578 20-09-2018 10:05:00 15.1 C 94 % 14.14 C
3579 20-09-2018 10:10:00 15.2 C 94 % 14.24 C
3580 20-09-2018 10:15:00 15.4 C 94 % 14.44 C
3581 20-09-2018 10:20:00 15.6 C 94 % 14.64 C
3582 20-09-2018 10:25:00 15.8 C 93 % 14.67 C
3583 20-09-2018 10:30:00 16 C 93 % 14.87 C
3584 20-09-2018 10:35:00 16.2 C 92 % 14.9 C
3585 20-09-2018 10:40:00 16.6 C 91 % 15.13 C
3586 20-09-2018 10:45:00 16.9 C 89 % 15.08 C
3587 20-09-2018 10:50:00 17.3 C 87 % 15.12 C
3588 20-09-2018 10:55:00 17.7 C 85 % 15.15 C
3589 20-09-2018 11:00:00 18 C 83 % 15.07 C
3590 20-09-2018 11:05:00 18.4 C 81 % 15.08 C
3591 20-09-2018 11:10:00 18.9 C 79 % 15.18 C
3592 20-09-2018 11:15:00 19.3 C 77 % 15.17 C
3593 20-09-2018 11:20:00 19.8 C 76 % 15.45 C
3594 20-09-2018 11:25:00 20.2 C 74 % 15.42 C
3595 20-09-2018 11:30:00 20.4 C 72 % 15.18 C
3596 20-09-2018 11:35:00 20.7 C 71 % 15.25 C
3597 20-09-2018 11:40:00 20.8 C 70 % 15.13 C
3598 20-09-2018 11:45:00 21.1 C 69 % 15.19 C
3599 20-09-2018 11:50:00 21.2 C 69 % 15.29 C
3600 20-09-2018 11:55:00 21.3 C 68 % 15.16 C
Sensor: Nr:Datum:Temp:Feuchte:Taupunkt:
Aussen-T/F 3601 20-09-2018 12:00:00 21.4 C 68 % 15.25 C
3602 20-09-2018 12:05:00 21.6 C 67 % 15.21 C
3603 20-09-2018 12:10:00 21.7 C 66 % 15.07 C
3604 20-09-2018 12:15:00 21.7 C 67 % 15.31 C
3605 20-09-2018 12:20:00 21.8 C 66 % 15.17 C
3606 20-09-2018 12:25:00 21.9 C 65 % 15.02 C
3607 20-09-2018 12:30:00 22.1 C 65 % 15.21 C
3608 20-09-2018 12:35:00 22.3 C 64 % 15.16 C
3609 20-09-2018 12:40:00 22.4 C 64 % 15.26 C
3610 20-09-2018 12:45:00 22.6 C 63 % 15.2 C
3611 20-09-2018 12:50:00 22.7 C 63 % 15.3 C
3612 20-09-2018 12:55:00 22.8 C 63 % 15.39 C
3613 20-09-2018 13:00:00 22.9 C 62 % 15.23 C
3614 20-09-2018 13:05:00 23.1 C 61 % 15.17 C
3615 20-09-2018 13:10:00 23.2 C 61 % 15.26 C
3616 20-09-2018 13:15:00 23.3 C 60 % 15.1 C
3617 20-09-2018 13:20:00 23.3 C 59 % 14.84 C
3618 20-09-2018 13:25:00 23.4 C 59 % 14.93 C
3619 20-09-2018 13:30:00 23.6 C 59 % 15.12 C
3620 20-09-2018 13:35:00 23.7 C 58 % 14.95 C
3621 20-09-2018 13:40:00 23.8 C 56 % 14.5 C
3622 20-09-2018 13:45:00 23.9 C 55 % 14.31 C
3623 20-09-2018 13:50:00 23.9 C 56 % 14.59 C
3624 20-09-2018 13:55:00 24.1 C 56 % 14.78 C
3625 20-09-2018 14:00:00 24.3 C 56 % 14.96 C
Sensor: Nr:Datum:Temp:Feuchte:Taupunkt:
Aussen-T/F 3626 20-09-2018 14:05:00 24.5 C 54 % 14.58 C
3627 20-09-2018 14:10:00 24.7 C 54 % 14.77 C
3628 20-09-2018 14:15:00 24.9 C 52 % 14.37 C
3629 20-09-2018 14:20:00 25.1 C 51 % 14.25 C
3630 20-09-2018 14:25:00 25.3 C 49 % 13.82 C
3631 20-09-2018 14:30:00 25.4 C 49 % 13.91 C
3632 20-09-2018 14:35:00 25.6 C 48 % 13.78 C
3633 20-09-2018 14:40:00 25.7 C 48 % 13.87 C
3634 20-09-2018 14:45:00 25.7 C 47 % 13.55 C
3635 20-09-2018 14:50:00 25.7 C 48 % 13.87 C
3636 20-09-2018 14:55:00 25.7 C 45 % 12.88 C
3637 20-09-2018 15:00:00 25.8 C 44 % 12.63 C
3638 20-09-2018 15:05:00 25.8 C 44 % 12.63 C
3639 20-09-2018 15:10:00 25.8 C 43 % 12.28 C
3640 20-09-2018 15:15:00 25.9 C 43 % 12.37 C
3641 20-09-2018 15:20:00 26 C 43 % 12.46 C
3642 20-09-2018 15:25:00 26.1 C 44 % 12.9 C
3643 20-09-2018 15:30:00 26.1 C 44 % 12.9 C
3644 20-09-2018 15:35:00 26.2 C 43 % 12.64 C
3645 20-09-2018 15:40:00 26.2 C 42 % 12.28 C
3646 20-09-2018 15:45:00 26.3 C 43 % 12.73 C
3647 20-09-2018 15:50:00 26.3 C 43 % 12.73 C
3648 20-09-2018 15:55:00 26.3 C 42 % 12.37 C
3649 20-09-2018 16:00:00 26.3 C 41 % 12 C
3650 20-09-2018 16:05:00 26.4 C 41 % 12.09 C
Sensor: Nr:Datum:Temp:Feuchte:Taupunkt:
Aussen-T/F 3651 20-09-2018 16:10:00 26.4 C 40 % 11.72 C
3652 20-09-2018 16:15:00 26.5 C 41 % 12.18 C
3653 20-09-2018 16:20:00 26.6 C 40 % 11.9 C
3654 20-09-2018 16:25:00 26.6 C 41 % 12.27 C
3655 20-09-2018 16:30:00 26.7 C 40 % 11.99 C
3656 20-09-2018 16:35:00 26.7 C 39 % 11.6 C
3657 20-09-2018 16:40:00 26.8 C 39 % 11.69 C
3658 20-09-2018 16:45:00 26.8 C 39 % 11.69 C
3659 20-09-2018 16:50:00 26.9 C 40 % 12.16 C
3660 20-09-2018 16:55:00 26.9 C 40 % 12.16 C
3661 20-09-2018 17:00:00 27 C 40 % 12.25 C
3662 20-09-2018 17:05:00 27 C 39 % 11.87 C
3663 20-09-2018 17:10:00 27.1 C 39 % 11.96 C
3664 20-09-2018 17:15:00 27.2 C 40 % 12.43 C
3665 20-09-2018 17:20:00 27.3 C 39 % 12.13 C
3666 20-09-2018 17:25:00 27.7 C 39 % 12.49 C
3667 20-09-2018 17:30:00 27.9 C 38 % 12.27 C
3668 20-09-2018 17:35:00 28 C 38 % 12.36 C
3669 20-09-2018 17:40:00 27.9 C 38 % 12.27 C
3670 20-09-2018 17:45:00 28 C 38 % 12.36 C
3671 20-09-2018 17:50:00 28.1 C 39 % 12.85 C
3672 20-09-2018 17:55:00 28 C 39 % 12.76 C
3673 20-09-2018 18:00:00 27.8 C 39 % 12.58 C
3674 20-09-2018 18:05:00 27.7 C 40 % 12.88 C
3675 20-09-2018 18:10:00 27.6 C 42 % 13.53 C
Sensor: Nr:Datum:Temp:Feuchte:Taupunkt:
Aussen-T/F 3676 20-09-2018 18:15:00 27.4 C 41 % 12.99 C
3677 20-09-2018 18:20:00 27.3 C 43 % 13.63 C
3678 20-09-2018 18:25:00 27.2 C 44 % 13.89 C
3679 20-09-2018 18:30:00 26.9 C 43 % 13.27 C
3680 20-09-2018 18:35:00 26.7 C 44 % 13.44 C
3681 20-09-2018 18:40:00 26.4 C 45 % 13.51 C
3682 20-09-2018 18:45:00 26.1 C 47 % 13.91 C
3683 20-09-2018 18:50:00 25.8 C 47 % 13.64 C
3684 20-09-2018 18:55:00 25.4 C 48 % 13.6 C
3685 20-09-2018 19:00:00 25.1 C 49 % 13.64 C
3686 20-09-2018 19:05:00 24.7 C 50 % 13.58 C
3687 20-09-2018 19:10:00 24.3 C 51 % 13.52 C
3688 20-09-2018 19:15:00 23.9 C 52 % 13.45 C
3689 20-09-2018 19:20:00 23.6 C 53 % 13.46 C
3690 20-09-2018 19:25:00 23.2 C 54 % 13.38 C
3691 20-09-2018 19:30:00 22.8 C 54 % 13.01 C
3692 20-09-2018 19:35:00 22.5 C 55 % 13.01 C
3693 20-09-2018 19:40:00 22.2 C 56 % 13.01 C
3694 20-09-2018 19:45:00 21.9 C 57 % 13 C
3695 20-09-2018 19:50:00 21.7 C 58 % 13.08 C
3696 20-09-2018 19:55:00 21.4 C 59 % 13.06 C
3697 20-09-2018 20:00:00 21.3 C 59 % 12.97 C
3698 20-09-2018 20:05:00 21.1 C 60 % 13.04 C
3699 20-09-2018 20:10:00 20.9 C 60 % 12.85 C
3700 20-09-2018 20:15:00 20.7 C 61 % 12.91 C
Sensor: Nr:Datum:Temp:Feuchte:Taupunkt:
Aussen-T/F 3701 20-09-2018 20:20:00 20.6 C 61 % 12.82 C
3702 20-09-2018 20:25:00 20.4 C 62 % 12.88 C
3703 20-09-2018 20:30:00 20.2 C 62 % 12.69 C
3704 20-09-2018 20:35:00 20.1 C 63 % 12.84 C
3705 20-09-2018 20:40:00 19.9 C 64 % 12.89 C
3706 20-09-2018 20:45:00 19.7 C 64 % 12.7 C
3707 20-09-2018 20:50:00 19.5 C 65 % 12.75 C
3708 20-09-2018 20:55:00 19.4 C 65 % 12.66 C
3709 20-09-2018 21:00:00 19.3 C 66 % 12.79 C
3710 20-09-2018 21:05:00 19.2 C 66 % 12.7 C
3711 20-09-2018 21:10:00 19.1 C 66 % 12.6 C
3712 20-09-2018 21:15:00 19.1 C 67 % 12.83 C
3713 20-09-2018 21:20:00 19 C 67 % 12.74 C
3714 20-09-2018 21:25:00 18.9 C 67 % 12.64 C
3715 20-09-2018 21:30:00 18.8 C 68 % 12.77 C
3716 20-09-2018 21:35:00 18.7 C 68 % 12.68 C
3717 20-09-2018 21:40:00 18.6 C 69 % 12.8 C
3718 20-09-2018 21:45:00 18.4 C 69 % 12.61 C
3719 20-09-2018 21:50:00 18.3 C 70 % 12.74 C
3720 20-09-2018 21:55:00 18.2 C 70 % 12.64 C
3721 20-09-2018 22:00:00 18.1 C 71 % 12.76 C
3722 20-09-2018 22:05:00 17.9 C 71 % 12.57 C
3723 20-09-2018 22:10:00 17.8 C 72 % 12.69 C
3724 20-09-2018 22:15:00 17.7 C 72 % 12.59 C
3725 20-09-2018 22:20:00 17.7 C 73 % 12.8 C
Sensor: Nr:Datum:Temp:Feuchte:Taupunkt:
Aussen-T/F 3726 20-09-2018 22:25:00 17.6 C 73 % 12.71 C
3727 20-09-2018 22:30:00 17.6 C 73 % 12.71 C
3728 20-09-2018 22:35:00 17.6 C 73 % 12.71 C
3729 20-09-2018 22:40:00 17.6 C 74 % 12.91 C
3730 20-09-2018 22:45:00 17.4 C 74 % 12.72 C
3731 20-09-2018 22:50:00 17.4 C 74 % 12.72 C
3732 20-09-2018 22:55:00 17.3 C 75 % 12.83 C
3733 20-09-2018 23:00:00 17.2 C 75 % 12.73 C
3734 20-09-2018 23:05:00 17.1 C 76 % 12.84 C
3735 20-09-2018 23:10:00 17.1 C 76 % 12.84 C
3736 20-09-2018 23:15:00 17.1 C 76 % 12.84 C
3737 20-09-2018 23:20:00 17.1 C 76 % 12.84 C
3738 20-09-2018 23:25:00 17.1 C 76 % 12.84 C
3739 20-09-2018 23:30:00 17.1 C 76 % 12.84 C
3740 20-09-2018 23:35:00 17 C 77 % 12.94 C
3741 20-09-2018 23:40:00 16.9 C 77 % 12.84 C
3742 20-09-2018 23:45:00 16.8 C 77 % 12.75 C
3743 20-09-2018 23:50:00 16.8 C 78 % 12.94 C
3744 20-09-2018 23:55:00 16.8 C 78 % 12.94 C
3745 21-09-2018 00:00:00 16.8 C 78 % 12.94 C
3746 21-09-2018 00:05:00 16.8 C 78 % 12.94 C
3747 21-09-2018 00:10:00 16.7 C 78 % 12.85 C
3748 21-09-2018 00:15:00 16.6 C 79 % 12.95 C
3749 21-09-2018 00:20:00 16.5 C 79 % 12.85 C
3750 21-09-2018 00:25:00 16.4 C 79 % 12.75 C
Sensor: Nr:Datum:Temp:Feuchte:Taupunkt:
Aussen-T/F 3751 21-09-2018 00:30:00 16.3 C 80 % 12.85 C
3752 21-09-2018 00:35:00 16.2 C 80 % 12.75 C
3753 21-09-2018 00:40:00 16.2 C 80 % 12.75 C
3754 21-09-2018 00:45:00 16.2 C 81 % 12.94 C
3755 21-09-2018 00:50:00 16.3 C 81 % 13.04 C
3756 21-09-2018 00:55:00 16.2 C 81 % 12.94 C
3757 21-09-2018 01:00:00 16.2 C 81 % 12.94 C
3758 21-09-2018 01:05:00 16.2 C 82 % 13.13 C
3759 21-09-2018 01:10:00 16.2 C 82 % 13.13 C
3760 21-09-2018 01:15:00 16.1 C 82 % 13.03 C
3761 21-09-2018 01:20:00 16.2 C 82 % 13.13 C
3762 21-09-2018 01:25:00 16.2 C 82 % 13.13 C
3763 21-09-2018 01:30:00 16.1 C 83 % 13.21 C
3764 21-09-2018 01:35:00 16.1 C 83 % 13.21 C
3765 21-09-2018 01:40:00 16.1 C 83 % 13.21 C
3766 21-09-2018 01:45:00 16 C 83 % 13.12 C
3767 21-09-2018 01:50:00 15.9 C 84 % 13.2 C
3768 21-09-2018 01:55:00 15.9 C 84 % 13.2 C
3769 21-09-2018 02:00:00 15.9 C 83 % 13.02 C
3770 21-09-2018 02:05:00 15.9 C 83 % 13.02 C
3771 21-09-2018 02:10:00 15.8 C 84 % 13.1 C
3772 21-09-2018 02:15:00 15.8 C 84 % 13.1 C
3773 21-09-2018 02:20:00 15.7 C 84 % 13.01 C
3774 21-09-2018 02:25:00 15.7 C 85 % 13.19 C
3775 21-09-2018 02:30:00 15.7 C 85 % 13.19 C
Sensor: Nr:Datum:Temp:Feuchte:Taupunkt:
Aussen-T/F 3776 21-09-2018 02:35:00 15.7 C 85 % 13.19 C
3777 21-09-2018 02:40:00 15.8 C 85 % 13.28 C
3778 21-09-2018 02:45:00 15.8 C 85 % 13.28 C
3779 21-09-2018 02:50:00 15.8 C 85 % 13.28 C
3780 21-09-2018 02:55:00 15.8 C 85 % 13.28 C
3781 21-09-2018 03:00:00 15.7 C 85 % 13.19 C
3782 21-09-2018 03:05:00 15.7 C 85 % 13.19 C
3783 21-09-2018 03:10:00 15.8 C 85 % 13.28 C
3784 21-09-2018 03:15:00 15.8 C 85 % 13.28 C
3785 21-09-2018 03:20:00 15.7 C 85 % 13.19 C
3786 21-09-2018 03:25:00 15.8 C 86 % 13.46 C
3787 21-09-2018 03:30:00 15.8 C 86 % 13.46 C
3788 21-09-2018 03:35:00 15.8 C 86 % 13.46 C
3789 21-09-2018 03:40:00 15.8 C 85 % 13.28 C
3790 21-09-2018 03:45:00 15.9 C 85 % 13.38 C
3791 21-09-2018 03:50:00 15.9 C 85 % 13.38 C
3792 21-09-2018 03:55:00 15.8 C 85 % 13.28 C
3793 21-09-2018 04:00:00 15.8 C 85 % 13.28 C
3794 21-09-2018 04:05:00 15.7 C 85 % 13.19 C
3795 21-09-2018 04:10:00 15.7 C 85 % 13.19 C
3796 21-09-2018 04:15:00 15.6 C 85 % 13.09 C
3797 21-09-2018 04:20:00 15.6 C 85 % 13.09 C
3798 21-09-2018 04:25:00 15.6 C 85 % 13.09 C
3799 21-09-2018 04:30:00 15.5 C 86 % 13.17 C
3800 21-09-2018 04:35:00 15.6 C 86 % 13.27 C
Sensor: Nr:Datum:Temp:Feuchte:Taupunkt:
Aussen-T/F 3801 21-09-2018 04:40:00 15.6 C 86 % 13.27 C
3802 21-09-2018 04:45:00 15.6 C 86 % 13.27 C
3803 21-09-2018 04:50:00 15.6 C 86 % 13.27 C
3804 21-09-2018 04:55:00 15.6 C 86 % 13.27 C
3805 21-09-2018 05:00:00 15.6 C 86 % 13.27 C
3806 21-09-2018 05:05:00 15.7 C 86 % 13.37 C
3807 21-09-2018 05:10:00 15.7 C 86 % 13.37 C
3808 21-09-2018 05:15:00 15.7 C 86 % 13.37 C
3809 21-09-2018 05:20:00 15.8 C 86 % 13.46 C
3810 21-09-2018 05:25:00 15.8 C 86 % 13.46 C
3811 21-09-2018 05:30:00 15.8 C 86 % 13.46 C
3812 21-09-2018 05:35:00 15.8 C 86 % 13.46 C
3813 21-09-2018 05:40:00 15.8 C 86 % 13.46 C
3814 21-09-2018 05:45:00 15.8 C 86 % 13.46 C
3815 21-09-2018 05:50:00 15.7 C 86 % 13.37 C
3816 21-09-2018 05:55:00 15.7 C 86 % 13.37 C
3817 21-09-2018 06:00:00 15.7 C 86 % 13.37 C
3818 21-09-2018 06:05:00 15.7 C 86 % 13.37 C
3819 21-09-2018 06:10:00 15.7 C 86 % 13.37 C
3820 21-09-2018 06:15:00 15.7 C 86 % 13.37 C
3821 21-09-2018 06:20:00 15.7 C 86 % 13.37 C
3822 21-09-2018 06:25:00 15.7 C 86 % 13.37 C
3823 21-09-2018 06:30:00 15.8 C 86 % 13.46 C
3824 21-09-2018 06:35:00 15.8 C 85 % 13.28 C
3825 21-09-2018 06:40:00 15.9 C 85 % 13.38 C
Sensor: Nr:Datum:Temp:Feuchte:Taupunkt:
Aussen-T/F 3826 21-09-2018 06:45:00 15.9 C 85 % 13.38 C
3827 21-09-2018 06:50:00 15.9 C 85 % 13.38 C
3828 21-09-2018 06:55:00 15.9 C 84 % 13.2 C
3829 21-09-2018 07:00:00 16 C 84 % 13.3 C
3830 21-09-2018 07:05:00 16.1 C 84 % 13.4 C
3831 21-09-2018 07:10:00 16.1 C 84 % 13.4 C
3832 21-09-2018 07:15:00 16.1 C 84 % 13.4 C
3833 21-09-2018 07:20:00 16.2 C 83 % 13.31 C
3834 21-09-2018 07:25:00 16.2 C 84 % 13.5 C
3835 21-09-2018 07:30:00 16.2 C 83 % 13.31 C
3836 21-09-2018 07:35:00 16.3 C 84 % 13.59 C
3837 21-09-2018 07:40:00 16.3 C 84 % 13.59 C
3838 21-09-2018 07:45:00 16.3 C 84 % 13.59 C
3839 21-09-2018 07:50:00 16.3 C 84 % 13.59 C
3840 21-09-2018 07:55:00 16.4 C 84 % 13.69 C
3841 21-09-2018 08:00:00 16.5 C 84 % 13.79 C
3842 21-09-2018 08:05:00 16.6 C 84 % 13.89 C
3843 21-09-2018 08:10:00 16.7 C 84 % 13.98 C
3844 21-09-2018 08:15:00 16.8 C 83 % 13.9 C
3845 21-09-2018 08:20:00 16.9 C 83 % 14 C
3846 21-09-2018 08:25:00 17 C 83 % 14.09 C
3847 21-09-2018 08:30:00 17.2 C 83 % 14.29 C
3848 21-09-2018 08:35:00 17.3 C 82 % 14.2 C
3849 21-09-2018 08:40:00 17.4 C 82 % 14.3 C
3850 21-09-2018 08:45:00 17.6 C 81 % 14.3 C
Sensor: Nr:Datum:Temp:Feuchte:Taupunkt:
Aussen-T/F 3851 21-09-2018 08:50:00 18 C 80 % 14.5 C
3852 21-09-2018 08:55:00 18.6 C 78 % 14.69 C
3853 21-09-2018 09:00:00 19.2 C 75 % 14.66 C
3854 21-09-2018 09:05:00 19.7 C 73 % 14.73 C
3855 21-09-2018 09:10:00 20.1 C 72 % 14.9 C
3856 21-09-2018 09:15:00 20.3 C 71 % 14.87 C
3857 21-09-2018 09:20:00 20.6 C 70 % 14.94 C
3858 21-09-2018 09:25:00 20.9 C 69 % 15 C
3859 21-09-2018 09:30:00 21.1 C 68 % 14.97 C
3860 21-09-2018 09:35:00 21.3 C 68 % 15.16 C
3861 21-09-2018 09:40:00 21.4 C 67 % 15.02 C
3862 21-09-2018 09:45:00 21.4 C 65 % 14.55 C
3863 21-09-2018 09:50:00 21.5 C 65 % 14.65 C
3864 21-09-2018 09:55:00 21.6 C 63 % 14.26 C
3865 21-09-2018 10:00:00 21.7 C 62 % 14.1 C
3866 21-09-2018 10:05:00 21.8 C 60 % 13.69 C
3867 21-09-2018 10:10:00 21.9 C 61 % 14.04 C
3868 21-09-2018 10:15:00 21.9 C 60 % 13.79 C
3869 21-09-2018 10:20:00 22.1 C 59 % 13.72 C
3870 21-09-2018 10:25:00 22.2 C 59 % 13.81 C
3871 21-09-2018 10:30:00 22.3 C 58 % 13.64 C
3872 21-09-2018 10:35:00 22.4 C 57 % 13.47 C
3873 21-09-2018 10:40:00 22.5 C 58 % 13.83 C
3874 21-09-2018 10:45:00 22.6 C 58 % 13.92 C
3875 21-09-2018 10:50:00 22.7 C 58 % 14.01 C
Sensor: Nr:Datum:Temp:Feuchte:Taupunkt:
Aussen-T/F 3876 21-09-2018 10:55:00 22.8 C 58 % 14.11 C
3877 21-09-2018 11:00:00 22.9 C 56 % 13.66 C
3878 21-09-2018 11:05:00 22.9 C 56 % 13.66 C
3879 21-09-2018 11:10:00 22.8 C 56 % 13.57 C
3880 21-09-2018 11:15:00 22.6 C 56 % 13.38 C
3881 21-09-2018 11:20:00 22.5 C 57 %